<?xml version="1.0" encoding="UTF-8" standalone="no" ?>
<gpx xmlns="http://www.topografix.com/GPX/1/1" xmlns:xsi="http://www.w3.org/2001/XMLSchema-instance" xsi:schemaLocation="http://www.topografix.com/GPX/1/1 http://www.topografix.com/GPX/1/1/gpx.xsd" version="1.1" creator="VisuGPX - https://www.visugpx.com">
  <metadata>
    <name>Boucle du Pic Saint-Guiral et du Lac des Pises au départ d'Alzon</name>
    <desc><![CDATA[#2J]]></desc>
  </metadata>
  <wpt lat="43.97985" lon="3.44299">
    <ele>622</ele>
    <name><![CDATA[Parking de l'Oratoire de Saint-Guiralhet]]></name>
  </wpt>
  <wpt lat="43.99712" lon="3.441">
    <ele>975</ele>
    <name><![CDATA[Font de Truc]]></name>
  </wpt>
  <wpt lat="44.0027" lon="3.44376">
    <ele>1028</ele>
    <name><![CDATA[Carrefour menhir]]></name>
  </wpt>
  <wpt lat="44.02236" lon="3.4565">
    <ele>1305</ele>
    <name><![CDATA[Carrefour Y route forestière]]></name>
  </wpt>
  <wpt lat="44.03208" lon="3.48359">
    <ele>1288</ele>
    <name><![CDATA[Carrefour GR]]></name>
  </wpt>
  <wpt lat="44.03998" lon="3.50598">
    <ele>1265</ele>
    <name><![CDATA[Berge du]]></name>
  </wpt>
  <wpt lat="44.02766" lon="3.50691">
    <ele>1202</ele>
    <name><![CDATA[Lit de la rivière]]></name>
  </wpt>
  <wpt lat="44.01981" lon="3.50629">
    <ele>1107</ele>
    <name><![CDATA[Passage de gué]]></name>
  </wpt>
  <wpt lat="44.01927" lon="3.49789">
    <ele>1191</ele>
    <name><![CDATA[Bergerie]]></name>
  </wpt>
  <wpt lat="44.01826" lon="3.48057">
    <ele>1247</ele>
    <name><![CDATA[Route forestière]]></name>
  </wpt>
  <wpt lat="43.99995" lon="3.45552">
    <ele>811</ele>
    <name><![CDATA[1er carrefour virage en lacet]]></name>
  </wpt>
  <wpt lat="43.99755" lon="3.45289">
    <ele>828</ele>
    <name><![CDATA[2e carrefour virage en lacet]]></name>
  </wpt>
  <wpt lat="43.99039" lon="3.45315">
    <ele>658</ele>
    <name><![CDATA[Route de Villaret]]></name>
  </wpt>
  <wpt lat="43.97994" lon="3.44303">
    <ele>623</ele>
    <name><![CDATA[Parking de l'Oratoire de Saint-Guiralhet]]></name>
  </wpt>
  <trk>
    <name><![CDATA[Boucle du Pic Saint-Guiral et du Lac des Pises au départ d'Alzon]]></name>
    <trkseg>
      <trkpt lat="43.97985" lon="3.44299">
        <ele>622</ele>
        <time>2021-05-14T09:53:00+02:00</time>
      </trkpt>
      <trkpt lat="43.97984" lon="3.44329">
        <ele>622</ele>
        <time>2021-05-14T09:53:18+02:00</time>
      </trkpt>
      <trkpt lat="43.97988" lon="3.4433">
        <ele>623</ele>
        <time>2021-05-14T09:53:43+02:00</time>
      </trkpt>
      <trkpt lat="43.98007" lon="3.44327">
        <ele>627</ele>
        <time>2021-05-14T09:54:26+02:00</time>
      </trkpt>
      <trkpt lat="43.98027" lon="3.4433">
        <ele>635</ele>
        <time>2021-05-14T09:54:37+02:00</time>
      </trkpt>
      <trkpt lat="43.98043" lon="3.44329">
        <ele>639</ele>
        <time>2021-05-14T09:54:48+02:00</time>
      </trkpt>
      <trkpt lat="43.98058" lon="3.4433">
        <ele>643</ele>
        <time>2021-05-14T09:55:26+02:00</time>
      </trkpt>
      <trkpt lat="43.98084" lon="3.44327">
        <ele>650</ele>
        <time>2021-05-14T09:55:58+02:00</time>
      </trkpt>
      <trkpt lat="43.98105" lon="3.44326">
        <ele>655</ele>
        <time>2021-05-14T09:56:25+02:00</time>
      </trkpt>
      <trkpt lat="43.98123" lon="3.44323">
        <ele>659</ele>
        <time>2021-05-14T09:56:41+02:00</time>
      </trkpt>
      <trkpt lat="43.9814" lon="3.4432">
        <ele>662</ele>
        <time>2021-05-14T09:56:57+02:00</time>
      </trkpt>
      <trkpt lat="43.98162" lon="3.44313">
        <ele>666</ele>
        <time>2021-05-14T09:57:15+02:00</time>
      </trkpt>
      <trkpt lat="43.98174" lon="3.44332">
        <ele>671</ele>
        <time>2021-05-14T09:57:43+02:00</time>
      </trkpt>
      <trkpt lat="43.98193" lon="3.44318">
        <ele>675</ele>
        <time>2021-05-14T09:58:30+02:00</time>
      </trkpt>
      <trkpt lat="43.98213" lon="3.4432">
        <ele>682</ele>
        <time>2021-05-14T09:58:48+02:00</time>
      </trkpt>
      <trkpt lat="43.98232" lon="3.44326">
        <ele>689</ele>
        <time>2021-05-14T09:59:17+02:00</time>
      </trkpt>
      <trkpt lat="43.98252" lon="3.44323">
        <ele>692</ele>
        <time>2021-05-14T09:59:39+02:00</time>
      </trkpt>
      <trkpt lat="43.98274" lon="3.44319">
        <ele>696</ele>
        <time>2021-05-14T10:00:00+02:00</time>
      </trkpt>
      <trkpt lat="43.9829" lon="3.44314">
        <ele>698</ele>
        <time>2021-05-14T10:00:17+02:00</time>
      </trkpt>
      <trkpt lat="43.98312" lon="3.44316">
        <ele>701</ele>
        <time>2021-05-14T10:00:37+02:00</time>
      </trkpt>
      <trkpt lat="43.9833" lon="3.4432">
        <ele>703</ele>
        <time>2021-05-14T10:00:54+02:00</time>
      </trkpt>
      <trkpt lat="43.98352" lon="3.44323">
        <ele>708</ele>
        <time>2021-05-14T10:01:11+02:00</time>
      </trkpt>
      <trkpt lat="43.98373" lon="3.44326">
        <ele>712</ele>
        <time>2021-05-14T10:01:32+02:00</time>
      </trkpt>
      <trkpt lat="43.98394" lon="3.44329">
        <ele>716</ele>
        <time>2021-05-14T10:01:51+02:00</time>
      </trkpt>
      <trkpt lat="43.98404" lon="3.44327">
        <ele>719</ele>
        <time>2021-05-14T10:02:02+02:00</time>
      </trkpt>
      <trkpt lat="43.98424" lon="3.44316">
        <ele>725</ele>
        <time>2021-05-14T10:02:34+02:00</time>
      </trkpt>
      <trkpt lat="43.98446" lon="3.44316">
        <ele>733</ele>
        <time>2021-05-14T10:02:55+02:00</time>
      </trkpt>
      <trkpt lat="43.98467" lon="3.44314">
        <ele>738</ele>
        <time>2021-05-14T10:03:18+02:00</time>
      </trkpt>
      <trkpt lat="43.98487" lon="3.44322">
        <ele>742</ele>
        <time>2021-05-14T10:03:49+02:00</time>
      </trkpt>
      <trkpt lat="43.98508" lon="3.44325">
        <ele>749</ele>
        <time>2021-05-14T10:04:15+02:00</time>
      </trkpt>
      <trkpt lat="43.98528" lon="3.4432">
        <ele>758</ele>
        <time>2021-05-14T10:04:39+02:00</time>
      </trkpt>
      <trkpt lat="43.98548" lon="3.44316">
        <ele>766</ele>
        <time>2021-05-14T10:05:08+02:00</time>
      </trkpt>
      <trkpt lat="43.98588" lon="3.44311">
        <ele>780</ele>
        <time>2021-05-14T10:06:17+02:00</time>
      </trkpt>
      <trkpt lat="43.98594" lon="3.44312">
        <ele>781</ele>
        <time>2021-05-14T10:06:22+02:00</time>
      </trkpt>
      <trkpt lat="43.98614" lon="3.44301">
        <ele>787</ele>
        <time>2021-05-14T10:06:52+02:00</time>
      </trkpt>
      <trkpt lat="43.98629" lon="3.4429">
        <ele>789</ele>
        <time>2021-05-14T10:07:29+02:00</time>
      </trkpt>
      <trkpt lat="43.98648" lon="3.44277">
        <ele>795</ele>
        <time>2021-05-14T10:07:50+02:00</time>
      </trkpt>
      <trkpt lat="43.98668" lon="3.44269">
        <ele>798</ele>
        <time>2021-05-14T10:08:11+02:00</time>
      </trkpt>
      <trkpt lat="43.9869" lon="3.44264">
        <ele>802</ele>
        <time>2021-05-14T10:08:34+02:00</time>
      </trkpt>
      <trkpt lat="43.98712" lon="3.44268">
        <ele>807</ele>
        <time>2021-05-14T10:08:52+02:00</time>
      </trkpt>
      <trkpt lat="43.98723" lon="3.44269">
        <ele>810</ele>
        <time>2021-05-14T10:09:04+02:00</time>
      </trkpt>
      <trkpt lat="43.98751" lon="3.44248">
        <ele>823</ele>
        <time>2021-05-14T10:10:15+02:00</time>
      </trkpt>
      <trkpt lat="43.98765" lon="3.44231">
        <ele>827</ele>
        <time>2021-05-14T10:10:37+02:00</time>
      </trkpt>
      <trkpt lat="43.98787" lon="3.44228">
        <ele>832</ele>
        <time>2021-05-14T10:11:03+02:00</time>
      </trkpt>
      <trkpt lat="43.98807" lon="3.44223">
        <ele>835</ele>
        <time>2021-05-14T10:12:25+02:00</time>
      </trkpt>
      <trkpt lat="43.98825" lon="3.44223">
        <ele>838</ele>
        <time>2021-05-14T10:12:39+02:00</time>
      </trkpt>
      <trkpt lat="43.98847" lon="3.4423">
        <ele>840</ele>
        <time>2021-05-14T10:12:55+02:00</time>
      </trkpt>
      <trkpt lat="43.98868" lon="3.44236">
        <ele>841</ele>
        <time>2021-05-14T10:13:11+02:00</time>
      </trkpt>
      <trkpt lat="43.98888" lon="3.4425">
        <ele>845</ele>
        <time>2021-05-14T10:13:32+02:00</time>
      </trkpt>
      <trkpt lat="43.98907" lon="3.44264">
        <ele>849</ele>
        <time>2021-05-14T10:13:51+02:00</time>
      </trkpt>
      <trkpt lat="43.98928" lon="3.44274">
        <ele>854</ele>
        <time>2021-05-14T10:14:12+02:00</time>
      </trkpt>
      <trkpt lat="43.98948" lon="3.44286">
        <ele>859</ele>
        <time>2021-05-14T10:14:31+02:00</time>
      </trkpt>
      <trkpt lat="43.98967" lon="3.44298">
        <ele>861</ele>
        <time>2021-05-14T10:14:53+02:00</time>
      </trkpt>
      <trkpt lat="43.98983" lon="3.44307">
        <ele>861</ele>
        <time>2021-05-14T10:15:10+02:00</time>
      </trkpt>
      <trkpt lat="43.99" lon="3.44318">
        <ele>861</ele>
        <time>2021-05-14T10:16:32+02:00</time>
      </trkpt>
      <trkpt lat="43.99016" lon="3.44321">
        <ele>864</ele>
        <time>2021-05-14T10:16:48+02:00</time>
      </trkpt>
      <trkpt lat="43.99032" lon="3.4432">
        <ele>867</ele>
        <time>2021-05-14T10:17:02+02:00</time>
      </trkpt>
      <trkpt lat="43.99049" lon="3.44318">
        <ele>870</ele>
        <time>2021-05-14T10:17:16+02:00</time>
      </trkpt>
      <trkpt lat="43.99066" lon="3.44313">
        <ele>872</ele>
        <time>2021-05-14T10:17:29+02:00</time>
      </trkpt>
      <trkpt lat="43.99088" lon="3.44307">
        <ele>876</ele>
        <time>2021-05-14T10:17:46+02:00</time>
      </trkpt>
      <trkpt lat="43.99106" lon="3.44308">
        <ele>879</ele>
        <time>2021-05-14T10:18:00+02:00</time>
      </trkpt>
      <trkpt lat="43.99124" lon="3.44306">
        <ele>880</ele>
        <time>2021-05-14T10:18:12+02:00</time>
      </trkpt>
      <trkpt lat="43.99146" lon="3.44308">
        <ele>882</ele>
        <time>2021-05-14T10:18:34+02:00</time>
      </trkpt>
      <trkpt lat="43.99163" lon="3.44308">
        <ele>883</ele>
        <time>2021-05-14T10:18:46+02:00</time>
      </trkpt>
      <trkpt lat="43.99181" lon="3.44312">
        <ele>884</ele>
        <time>2021-05-14T10:18:58+02:00</time>
      </trkpt>
      <trkpt lat="43.99199" lon="3.44315">
        <ele>886</ele>
        <time>2021-05-14T10:19:11+02:00</time>
      </trkpt>
      <trkpt lat="43.99217" lon="3.44315">
        <ele>887</ele>
        <time>2021-05-14T10:19:23+02:00</time>
      </trkpt>
      <trkpt lat="43.99235" lon="3.44315">
        <ele>889</ele>
        <time>2021-05-14T10:19:35+02:00</time>
      </trkpt>
      <trkpt lat="43.99252" lon="3.44312">
        <ele>890</ele>
        <time>2021-05-14T10:19:48+02:00</time>
      </trkpt>
      <trkpt lat="43.9927" lon="3.44311">
        <ele>890</ele>
        <time>2021-05-14T10:20:00+02:00</time>
      </trkpt>
      <trkpt lat="43.99286" lon="3.44301">
        <ele>890</ele>
        <time>2021-05-14T10:20:12+02:00</time>
      </trkpt>
      <trkpt lat="43.99302" lon="3.44289">
        <ele>891</ele>
        <time>2021-05-14T10:20:23+02:00</time>
      </trkpt>
      <trkpt lat="43.9932" lon="3.44277">
        <ele>892</ele>
        <time>2021-05-14T10:20:36+02:00</time>
      </trkpt>
      <trkpt lat="43.99341" lon="3.44268">
        <ele>894</ele>
        <time>2021-05-14T10:20:49+02:00</time>
      </trkpt>
      <trkpt lat="43.9936" lon="3.44264">
        <ele>897</ele>
        <time>2021-05-14T10:21:01+02:00</time>
      </trkpt>
      <trkpt lat="43.99376" lon="3.44258">
        <ele>899</ele>
        <time>2021-05-14T10:21:12+02:00</time>
      </trkpt>
      <trkpt lat="43.99392" lon="3.44252">
        <ele>900</ele>
        <time>2021-05-14T10:21:22+02:00</time>
      </trkpt>
      <trkpt lat="43.99408" lon="3.44246">
        <ele>900</ele>
        <time>2021-05-14T10:21:33+02:00</time>
      </trkpt>
      <trkpt lat="43.99425" lon="3.44242">
        <ele>902</ele>
        <time>2021-05-14T10:21:45+02:00</time>
      </trkpt>
      <trkpt lat="43.99442" lon="3.44238">
        <ele>905</ele>
        <time>2021-05-14T10:21:56+02:00</time>
      </trkpt>
      <trkpt lat="43.9946" lon="3.44235">
        <ele>908</ele>
        <time>2021-05-14T10:22:08+02:00</time>
      </trkpt>
      <trkpt lat="43.99481" lon="3.44235">
        <ele>912</ele>
        <time>2021-05-14T10:22:25+02:00</time>
      </trkpt>
      <trkpt lat="43.99498" lon="3.44237">
        <ele>915</ele>
        <time>2021-05-14T10:22:38+02:00</time>
      </trkpt>
      <trkpt lat="43.9952" lon="3.44235">
        <ele>920</ele>
        <time>2021-05-14T10:22:58+02:00</time>
      </trkpt>
      <trkpt lat="43.99541" lon="3.44228">
        <ele>925</ele>
        <time>2021-05-14T10:23:23+02:00</time>
      </trkpt>
      <trkpt lat="43.99549" lon="3.44238">
        <ele>928</ele>
        <time>2021-05-14T10:23:49+02:00</time>
      </trkpt>
      <trkpt lat="43.99581" lon="3.44233">
        <ele>936</ele>
        <time>2021-05-14T10:24:37+02:00</time>
      </trkpt>
      <trkpt lat="43.99597" lon="3.44228">
        <ele>938</ele>
        <time>2021-05-14T10:24:54+02:00</time>
      </trkpt>
      <trkpt lat="43.99612" lon="3.44218">
        <ele>940</ele>
        <time>2021-05-14T10:25:07+02:00</time>
      </trkpt>
      <trkpt lat="43.99624" lon="3.442">
        <ele>940</ele>
        <time>2021-05-14T10:25:21+02:00</time>
      </trkpt>
      <trkpt lat="43.99642" lon="3.44183">
        <ele>943</ele>
        <time>2021-05-14T10:25:42+02:00</time>
      </trkpt>
      <trkpt lat="43.99658" lon="3.44168">
        <ele>949</ele>
        <time>2021-05-14T10:26:08+02:00</time>
      </trkpt>
      <trkpt lat="43.99675" lon="3.44153">
        <ele>957</ele>
        <time>2021-05-14T10:26:35+02:00</time>
      </trkpt>
      <trkpt lat="43.99692" lon="3.44133">
        <ele>966</ele>
        <time>2021-05-14T10:26:59+02:00</time>
      </trkpt>
      <trkpt lat="43.99705" lon="3.44111">
        <ele>973</ele>
        <time>2021-05-14T10:27:33+02:00</time>
      </trkpt>
      <trkpt lat="43.99712" lon="3.441">
        <ele>975</ele>
        <time>2021-05-14T10:27:46+02:00</time>
      </trkpt>
      <trkpt lat="43.99731" lon="3.44098">
        <ele>981</ele>
        <time>2021-05-14T10:28:35+02:00</time>
      </trkpt>
      <trkpt lat="43.99752" lon="3.44105">
        <ele>982</ele>
        <time>2021-05-14T10:28:51+02:00</time>
      </trkpt>
      <trkpt lat="43.99769" lon="3.44107">
        <ele>984</ele>
        <time>2021-05-14T10:29:03+02:00</time>
      </trkpt>
      <trkpt lat="43.99788" lon="3.44108">
        <ele>985</ele>
        <time>2021-05-14T10:29:15+02:00</time>
      </trkpt>
      <trkpt lat="43.9981" lon="3.44109">
        <ele>987</ele>
        <time>2021-05-14T10:29:32+02:00</time>
      </trkpt>
      <trkpt lat="43.99829" lon="3.44108">
        <ele>989</ele>
        <time>2021-05-14T10:29:44+02:00</time>
      </trkpt>
      <trkpt lat="43.99851" lon="3.44107">
        <ele>990</ele>
        <time>2021-05-14T10:29:57+02:00</time>
      </trkpt>
      <trkpt lat="43.99868" lon="3.4411">
        <ele>990</ele>
        <time>2021-05-14T10:30:09+02:00</time>
      </trkpt>
      <trkpt lat="43.99885" lon="3.44119">
        <ele>989</ele>
        <time>2021-05-14T10:30:20+02:00</time>
      </trkpt>
      <trkpt lat="43.99901" lon="3.44128">
        <ele>989</ele>
        <time>2021-05-14T10:30:30+02:00</time>
      </trkpt>
      <trkpt lat="43.99918" lon="3.44138">
        <ele>990</ele>
        <time>2021-05-14T10:30:43+02:00</time>
      </trkpt>
      <trkpt lat="43.99938" lon="3.44144">
        <ele>992</ele>
        <time>2021-05-14T10:30:56+02:00</time>
      </trkpt>
      <trkpt lat="43.99956" lon="3.44149">
        <ele>995</ele>
        <time>2021-05-14T10:31:08+02:00</time>
      </trkpt>
      <trkpt lat="43.99978" lon="3.44157">
        <ele>999</ele>
        <time>2021-05-14T10:31:23+02:00</time>
      </trkpt>
      <trkpt lat="43.99999" lon="3.44167">
        <ele>1000</ele>
        <time>2021-05-14T10:31:39+02:00</time>
      </trkpt>
      <trkpt lat="44.00018" lon="3.44181">
        <ele>988</ele>
        <time>2021-05-14T10:31:55+02:00</time>
      </trkpt>
      <trkpt lat="44.00034" lon="3.44192">
        <ele>988</ele>
        <time>2021-05-14T10:32:08+02:00</time>
      </trkpt>
      <trkpt lat="44.00048" lon="3.44207">
        <ele>989</ele>
        <time>2021-05-14T10:32:23+02:00</time>
      </trkpt>
      <trkpt lat="44.00062" lon="3.44217">
        <ele>992</ele>
        <time>2021-05-14T10:32:36+02:00</time>
      </trkpt>
      <trkpt lat="44.00076" lon="3.44231">
        <ele>995</ele>
        <time>2021-05-14T10:32:49+02:00</time>
      </trkpt>
      <trkpt lat="44.0009" lon="3.44246">
        <ele>999</ele>
        <time>2021-05-14T10:33:03+02:00</time>
      </trkpt>
      <trkpt lat="44.00104" lon="3.44261">
        <ele>1001</ele>
        <time>2021-05-14T10:33:17+02:00</time>
      </trkpt>
      <trkpt lat="44.00123" lon="3.44276">
        <ele>1004</ele>
        <time>2021-05-14T10:33:35+02:00</time>
      </trkpt>
      <trkpt lat="44.00143" lon="3.44289">
        <ele>1009</ele>
        <time>2021-05-14T10:33:53+02:00</time>
      </trkpt>
      <trkpt lat="44.00164" lon="3.44298">
        <ele>1015</ele>
        <time>2021-05-14T10:34:11+02:00</time>
      </trkpt>
      <trkpt lat="44.0018" lon="3.44305">
        <ele>1018</ele>
        <time>2021-05-14T10:34:24+02:00</time>
      </trkpt>
      <trkpt lat="44.00196" lon="3.44316">
        <ele>1021</ele>
        <time>2021-05-14T10:34:39+02:00</time>
      </trkpt>
      <trkpt lat="44.00216" lon="3.44329">
        <ele>1025</ele>
        <time>2021-05-14T10:34:56+02:00</time>
      </trkpt>
      <trkpt lat="44.00234" lon="3.44347">
        <ele>1027</ele>
        <time>2021-05-14T10:35:12+02:00</time>
      </trkpt>
      <trkpt lat="44.00251" lon="3.44364">
        <ele>1028</ele>
        <time>2021-05-14T10:37:13+02:00</time>
      </trkpt>
      <trkpt lat="44.0027" lon="3.44376">
        <ele>1028</ele>
        <time>2021-05-14T10:37:56+02:00</time>
      </trkpt>
      <trkpt lat="44.00288" lon="3.44392">
        <ele>1030</ele>
        <time>2021-05-14T10:38:25+02:00</time>
      </trkpt>
      <trkpt lat="44.00303" lon="3.44413">
        <ele>1033</ele>
        <time>2021-05-14T10:38:43+02:00</time>
      </trkpt>
      <trkpt lat="44.00321" lon="3.44431">
        <ele>1036</ele>
        <time>2021-05-14T10:39:01+02:00</time>
      </trkpt>
      <trkpt lat="44.00338" lon="3.44451">
        <ele>1041</ele>
        <time>2021-05-14T10:39:17+02:00</time>
      </trkpt>
      <trkpt lat="44.00354" lon="3.44469">
        <ele>1045</ele>
        <time>2021-05-14T10:39:36+02:00</time>
      </trkpt>
      <trkpt lat="44.00371" lon="3.44487">
        <ele>1051</ele>
        <time>2021-05-14T10:39:57+02:00</time>
      </trkpt>
      <trkpt lat="44.00388" lon="3.44505">
        <ele>1057</ele>
        <time>2021-05-14T10:40:21+02:00</time>
      </trkpt>
      <trkpt lat="44.00403" lon="3.44526">
        <ele>1062</ele>
        <time>2021-05-14T10:40:59+02:00</time>
      </trkpt>
      <trkpt lat="44.00421" lon="3.44544">
        <ele>1068</ele>
        <time>2021-05-14T10:41:27+02:00</time>
      </trkpt>
      <trkpt lat="44.00441" lon="3.44559">
        <ele>1076</ele>
        <time>2021-05-14T10:41:53+02:00</time>
      </trkpt>
      <trkpt lat="44.00459" lon="3.44575">
        <ele>1083</ele>
        <time>2021-05-14T10:42:14+02:00</time>
      </trkpt>
      <trkpt lat="44.00475" lon="3.44585">
        <ele>1090</ele>
        <time>2021-05-14T10:42:32+02:00</time>
      </trkpt>
      <trkpt lat="44.00494" lon="3.44598">
        <ele>1096</ele>
        <time>2021-05-14T10:42:57+02:00</time>
      </trkpt>
      <trkpt lat="44.00516" lon="3.44599">
        <ele>1102</ele>
        <time>2021-05-14T10:43:27+02:00</time>
      </trkpt>
      <trkpt lat="44.00526" lon="3.446">
        <ele>1104</ele>
        <time>2021-05-14T10:43:41+02:00</time>
      </trkpt>
      <trkpt lat="44.00582" lon="3.44597">
        <ele>1119</ele>
        <time>2021-05-14T10:44:59+02:00</time>
      </trkpt>
      <trkpt lat="44.00604" lon="3.44592">
        <ele>1122</ele>
        <time>2021-05-14T10:45:22+02:00</time>
      </trkpt>
      <trkpt lat="44.00622" lon="3.44593">
        <ele>1125</ele>
        <time>2021-05-14T10:45:36+02:00</time>
      </trkpt>
      <trkpt lat="44.00644" lon="3.44598">
        <ele>1127</ele>
        <time>2021-05-14T10:45:52+02:00</time>
      </trkpt>
      <trkpt lat="44.00665" lon="3.44606">
        <ele>1128</ele>
        <time>2021-05-14T10:46:08+02:00</time>
      </trkpt>
      <trkpt lat="44.00685" lon="3.44618">
        <ele>1129</ele>
        <time>2021-05-14T10:47:06+02:00</time>
      </trkpt>
      <trkpt lat="44.00706" lon="3.44618">
        <ele>1131</ele>
        <time>2021-05-14T10:47:51+02:00</time>
      </trkpt>
      <trkpt lat="44.00723" lon="3.44611">
        <ele>1134</ele>
        <time>2021-05-14T10:48:21+02:00</time>
      </trkpt>
      <trkpt lat="44.00745" lon="3.44615">
        <ele>1136</ele>
        <time>2021-05-14T10:48:35+02:00</time>
      </trkpt>
      <trkpt lat="44.00764" lon="3.44619">
        <ele>1136</ele>
        <time>2021-05-14T10:48:47+02:00</time>
      </trkpt>
      <trkpt lat="44.0078" lon="3.44623">
        <ele>1136</ele>
        <time>2021-05-14T10:48:59+02:00</time>
      </trkpt>
      <trkpt lat="44.00798" lon="3.44625">
        <ele>1137</ele>
        <time>2021-05-14T10:49:10+02:00</time>
      </trkpt>
      <trkpt lat="44.00817" lon="3.4463">
        <ele>1137</ele>
        <time>2021-05-14T10:49:21+02:00</time>
      </trkpt>
      <trkpt lat="44.00835" lon="3.44635">
        <ele>1138</ele>
        <time>2021-05-14T10:49:31+02:00</time>
      </trkpt>
      <trkpt lat="44.00852" lon="3.4464">
        <ele>1139</ele>
        <time>2021-05-14T10:49:42+02:00</time>
      </trkpt>
      <trkpt lat="44.00874" lon="3.44644">
        <ele>1140</ele>
        <time>2021-05-14T10:49:59+02:00</time>
      </trkpt>
      <trkpt lat="44.00894" lon="3.44658">
        <ele>1142</ele>
        <time>2021-05-14T10:50:15+02:00</time>
      </trkpt>
      <trkpt lat="44.0091" lon="3.44665">
        <ele>1143</ele>
        <time>2021-05-14T10:50:27+02:00</time>
      </trkpt>
      <trkpt lat="44.00929" lon="3.44672">
        <ele>1144</ele>
        <time>2021-05-14T10:50:39+02:00</time>
      </trkpt>
      <trkpt lat="44.00947" lon="3.44675">
        <ele>1145</ele>
        <time>2021-05-14T10:50:50+02:00</time>
      </trkpt>
      <trkpt lat="44.00965" lon="3.44685">
        <ele>1146</ele>
        <time>2021-05-14T10:51:02+02:00</time>
      </trkpt>
      <trkpt lat="44.0098" lon="3.44696">
        <ele>1148</ele>
        <time>2021-05-14T10:51:14+02:00</time>
      </trkpt>
      <trkpt lat="44.00994" lon="3.44711">
        <ele>1150</ele>
        <time>2021-05-14T10:51:26+02:00</time>
      </trkpt>
      <trkpt lat="44.0101" lon="3.44731">
        <ele>1153</ele>
        <time>2021-05-14T10:51:42+02:00</time>
      </trkpt>
      <trkpt lat="44.01024" lon="3.44745">
        <ele>1155</ele>
        <time>2021-05-14T10:51:56+02:00</time>
      </trkpt>
      <trkpt lat="44.01038" lon="3.44761">
        <ele>1157</ele>
        <time>2021-05-14T10:52:11+02:00</time>
      </trkpt>
      <trkpt lat="44.01053" lon="3.44781">
        <ele>1159</ele>
        <time>2021-05-14T10:52:33+02:00</time>
      </trkpt>
      <trkpt lat="44.01067" lon="3.44806">
        <ele>1164</ele>
        <time>2021-05-14T10:52:57+02:00</time>
      </trkpt>
      <trkpt lat="44.01081" lon="3.44826">
        <ele>1169</ele>
        <time>2021-05-14T10:53:18+02:00</time>
      </trkpt>
      <trkpt lat="44.01092" lon="3.44844">
        <ele>1171</ele>
        <time>2021-05-14T10:53:33+02:00</time>
      </trkpt>
      <trkpt lat="44.01108" lon="3.44866">
        <ele>1171</ele>
        <time>2021-05-14T10:53:50+02:00</time>
      </trkpt>
      <trkpt lat="44.01121" lon="3.44883">
        <ele>1173</ele>
        <time>2021-05-14T10:54:02+02:00</time>
      </trkpt>
      <trkpt lat="44.01135" lon="3.44906">
        <ele>1176</ele>
        <time>2021-05-14T10:54:19+02:00</time>
      </trkpt>
      <trkpt lat="44.0115" lon="3.4492">
        <ele>1179</ele>
        <time>2021-05-14T10:54:34+02:00</time>
      </trkpt>
      <trkpt lat="44.01165" lon="3.44934">
        <ele>1181</ele>
        <time>2021-05-14T10:54:45+02:00</time>
      </trkpt>
      <trkpt lat="44.01185" lon="3.44947">
        <ele>1180</ele>
        <time>2021-05-14T10:55:02+02:00</time>
      </trkpt>
      <trkpt lat="44.01202" lon="3.44953">
        <ele>1179</ele>
        <time>2021-05-14T10:55:15+02:00</time>
      </trkpt>
      <trkpt lat="44.01224" lon="3.4495">
        <ele>1178</ele>
        <time>2021-05-14T10:55:31+02:00</time>
      </trkpt>
      <trkpt lat="44.01241" lon="3.4494">
        <ele>1178</ele>
        <time>2021-05-14T10:55:56+02:00</time>
      </trkpt>
      <trkpt lat="44.01262" lon="3.44932">
        <ele>1179</ele>
        <time>2021-05-14T10:56:12+02:00</time>
      </trkpt>
      <trkpt lat="44.01278" lon="3.44931">
        <ele>1179</ele>
        <time>2021-05-14T10:56:22+02:00</time>
      </trkpt>
      <trkpt lat="44.01295" lon="3.44929">
        <ele>1180</ele>
        <time>2021-05-14T10:56:36+02:00</time>
      </trkpt>
      <trkpt lat="44.01313" lon="3.44926">
        <ele>1181</ele>
        <time>2021-05-14T10:56:48+02:00</time>
      </trkpt>
      <trkpt lat="44.01333" lon="3.44922">
        <ele>1182</ele>
        <time>2021-05-14T10:56:57+02:00</time>
      </trkpt>
      <trkpt lat="44.01353" lon="3.44915">
        <ele>1185</ele>
        <time>2021-05-14T10:57:10+02:00</time>
      </trkpt>
      <trkpt lat="44.01371" lon="3.44915">
        <ele>1188</ele>
        <time>2021-05-14T10:57:25+02:00</time>
      </trkpt>
      <trkpt lat="44.01392" lon="3.44921">
        <ele>1191</ele>
        <time>2021-05-14T10:57:44+02:00</time>
      </trkpt>
      <trkpt lat="44.01413" lon="3.44926">
        <ele>1194</ele>
        <time>2021-05-14T10:58:06+02:00</time>
      </trkpt>
      <trkpt lat="44.01423" lon="3.4493">
        <ele>1195</ele>
        <time>2021-05-14T10:58:22+02:00</time>
      </trkpt>
      <trkpt lat="44.01451" lon="3.44936">
        <ele>1201</ele>
        <time>2021-05-14T10:59:16+02:00</time>
      </trkpt>
      <trkpt lat="44.01468" lon="3.44919">
        <ele>1207</ele>
        <time>2021-05-14T10:59:40+02:00</time>
      </trkpt>
      <trkpt lat="44.01489" lon="3.44913">
        <ele>1211</ele>
        <time>2021-05-14T11:00:09+02:00</time>
      </trkpt>
      <trkpt lat="44.0151" lon="3.4491">
        <ele>1216</ele>
        <time>2021-05-14T11:00:37+02:00</time>
      </trkpt>
      <trkpt lat="44.01527" lon="3.44897">
        <ele>1219</ele>
        <time>2021-05-14T11:01:01+02:00</time>
      </trkpt>
      <trkpt lat="44.01542" lon="3.44876">
        <ele>1223</ele>
        <time>2021-05-14T11:01:30+02:00</time>
      </trkpt>
      <trkpt lat="44.01561" lon="3.44861">
        <ele>1228</ele>
        <time>2021-05-14T11:01:54+02:00</time>
      </trkpt>
      <trkpt lat="44.01582" lon="3.44856">
        <ele>1235</ele>
        <time>2021-05-14T11:02:17+02:00</time>
      </trkpt>
      <trkpt lat="44.01598" lon="3.4484">
        <ele>1240</ele>
        <time>2021-05-14T11:02:43+02:00</time>
      </trkpt>
      <trkpt lat="44.01614" lon="3.44821">
        <ele>1242</ele>
        <time>2021-05-14T11:03:06+02:00</time>
      </trkpt>
      <trkpt lat="44.01633" lon="3.44807">
        <ele>1245</ele>
        <time>2021-05-14T11:03:28+02:00</time>
      </trkpt>
      <trkpt lat="44.01651" lon="3.44807">
        <ele>1249</ele>
        <time>2021-05-14T11:03:44+02:00</time>
      </trkpt>
      <trkpt lat="44.01671" lon="3.44804">
        <ele>1254</ele>
        <time>2021-05-14T11:04:09+02:00</time>
      </trkpt>
      <trkpt lat="44.0169" lon="3.44792">
        <ele>1257</ele>
        <time>2021-05-14T11:04:32+02:00</time>
      </trkpt>
      <trkpt lat="44.01711" lon="3.44787">
        <ele>1261</ele>
        <time>2021-05-14T11:04:58+02:00</time>
      </trkpt>
      <trkpt lat="44.0173" lon="3.44795">
        <ele>1265</ele>
        <time>2021-05-14T11:05:24+02:00</time>
      </trkpt>
      <trkpt lat="44.01742" lon="3.4482">
        <ele>1271</ele>
        <time>2021-05-14T11:05:56+02:00</time>
      </trkpt>
      <trkpt lat="44.01762" lon="3.44819">
        <ele>1274</ele>
        <time>2021-05-14T11:06:21+02:00</time>
      </trkpt>
      <trkpt lat="44.01782" lon="3.44829">
        <ele>1278</ele>
        <time>2021-05-14T11:06:46+02:00</time>
      </trkpt>
      <trkpt lat="44.01798" lon="3.44825">
        <ele>1280</ele>
        <time>2021-05-14T11:07:02+02:00</time>
      </trkpt>
      <trkpt lat="44.01816" lon="3.44828">
        <ele>1282</ele>
        <time>2021-05-14T11:07:17+02:00</time>
      </trkpt>
      <trkpt lat="44.01831" lon="3.44839">
        <ele>1285</ele>
        <time>2021-05-14T11:07:32+02:00</time>
      </trkpt>
      <trkpt lat="44.01853" lon="3.44835">
        <ele>1287</ele>
        <time>2021-05-14T11:07:48+02:00</time>
      </trkpt>
      <trkpt lat="44.01876" lon="3.44833">
        <ele>1288</ele>
        <time>2021-05-14T11:08:11+02:00</time>
      </trkpt>
      <trkpt lat="44.01893" lon="3.44832">
        <ele>1290</ele>
        <time>2021-05-14T11:08:24+02:00</time>
      </trkpt>
      <trkpt lat="44.01912" lon="3.44832">
        <ele>1291</ele>
        <time>2021-05-14T11:08:38+02:00</time>
      </trkpt>
      <trkpt lat="44.0193" lon="3.44838">
        <ele>1292</ele>
        <time>2021-05-14T11:08:51+02:00</time>
      </trkpt>
      <trkpt lat="44.01949" lon="3.44839">
        <ele>1293</ele>
        <time>2021-05-14T11:09:04+02:00</time>
      </trkpt>
      <trkpt lat="44.01966" lon="3.44857">
        <ele>1294</ele>
        <time>2021-05-14T11:09:26+02:00</time>
      </trkpt>
      <trkpt lat="44.01977" lon="3.44884">
        <ele>1294</ele>
        <time>2021-05-14T11:09:40+02:00</time>
      </trkpt>
      <trkpt lat="44.01985" lon="3.44909">
        <ele>1295</ele>
        <time>2021-05-14T11:10:12+02:00</time>
      </trkpt>
      <trkpt lat="44.01988" lon="3.44931">
        <ele>1295</ele>
        <time>2021-05-14T11:11:06+02:00</time>
      </trkpt>
      <trkpt lat="44.01994" lon="3.44961">
        <ele>1296</ele>
        <time>2021-05-14T11:11:24+02:00</time>
      </trkpt>
      <trkpt lat="44.02003" lon="3.44985">
        <ele>1298</ele>
        <time>2021-05-14T11:11:46+02:00</time>
      </trkpt>
      <trkpt lat="44.0201" lon="3.45013">
        <ele>1299</ele>
        <time>2021-05-14T11:12:17+02:00</time>
      </trkpt>
      <trkpt lat="44.02027" lon="3.45033">
        <ele>1302</ele>
        <time>2021-05-14T11:13:12+02:00</time>
      </trkpt>
      <trkpt lat="44.02039" lon="3.45049">
        <ele>1304</ele>
        <time>2021-05-14T11:13:29+02:00</time>
      </trkpt>
      <trkpt lat="44.02052" lon="3.45064">
        <ele>1307</ele>
        <time>2021-05-14T11:13:43+02:00</time>
      </trkpt>
      <trkpt lat="44.02063" lon="3.45084">
        <ele>1310</ele>
        <time>2021-05-14T11:13:57+02:00</time>
      </trkpt>
      <trkpt lat="44.02077" lon="3.45103">
        <ele>1315</ele>
        <time>2021-05-14T11:14:22+02:00</time>
      </trkpt>
      <trkpt lat="44.02092" lon="3.45126">
        <ele>1320</ele>
        <time>2021-05-14T11:14:43+02:00</time>
      </trkpt>
      <trkpt lat="44.02107" lon="3.45148">
        <ele>1324</ele>
        <time>2021-05-14T11:15:06+02:00</time>
      </trkpt>
      <trkpt lat="44.02127" lon="3.45159">
        <ele>1327</ele>
        <time>2021-05-14T11:15:26+02:00</time>
      </trkpt>
      <trkpt lat="44.02136" lon="3.45185">
        <ele>1328</ele>
        <time>2021-05-14T11:15:46+02:00</time>
      </trkpt>
      <trkpt lat="44.02146" lon="3.45212">
        <ele>1329</ele>
        <time>2021-05-14T11:16:11+02:00</time>
      </trkpt>
      <trkpt lat="44.02165" lon="3.45224">
        <ele>1330</ele>
        <time>2021-05-14T11:16:37+02:00</time>
      </trkpt>
      <trkpt lat="44.02184" lon="3.45223">
        <ele>1331</ele>
        <time>2021-05-14T11:17:36+02:00</time>
      </trkpt>
      <trkpt lat="44.02204" lon="3.45235">
        <ele>1333</ele>
        <time>2021-05-14T11:17:58+02:00</time>
      </trkpt>
      <trkpt lat="44.02212" lon="3.45257">
        <ele>1332</ele>
        <time>2021-05-14T11:18:09+02:00</time>
      </trkpt>
      <trkpt lat="44.02226" lon="3.45273">
        <ele>1333</ele>
        <time>2021-05-14T11:18:21+02:00</time>
      </trkpt>
      <trkpt lat="44.02233" lon="3.45301">
        <ele>1333</ele>
        <time>2021-05-14T11:18:36+02:00</time>
      </trkpt>
      <trkpt lat="44.02244" lon="3.45325">
        <ele>1333</ele>
        <time>2021-05-14T11:18:51+02:00</time>
      </trkpt>
      <trkpt lat="44.02253" lon="3.45352">
        <ele>1333</ele>
        <time>2021-05-14T11:19:10+02:00</time>
      </trkpt>
      <trkpt lat="44.02246" lon="3.4537">
        <ele>1334</ele>
        <time>2021-05-14T11:19:28+02:00</time>
      </trkpt>
      <trkpt lat="44.02245" lon="3.45397">
        <ele>1334</ele>
        <time>2021-05-14T11:20:47+02:00</time>
      </trkpt>
      <trkpt lat="44.02249" lon="3.45431">
        <ele>1334</ele>
        <time>2021-05-14T11:23:19+02:00</time>
      </trkpt>
      <trkpt lat="44.02248" lon="3.4541">
        <ele>1335</ele>
        <time>2021-05-14T11:27:55+02:00</time>
      </trkpt>
      <trkpt lat="44.02242" lon="3.45383">
        <ele>1333</ele>
        <time>2021-05-14T11:29:59+02:00</time>
      </trkpt>
      <trkpt lat="44.02253" lon="3.4536">
        <ele>1334</ele>
        <time>2021-05-14T11:30:28+02:00</time>
      </trkpt>
      <trkpt lat="44.02274" lon="3.4536">
        <ele>1331</ele>
        <time>2021-05-14T11:30:48+02:00</time>
      </trkpt>
      <trkpt lat="44.02295" lon="3.45367">
        <ele>1328</ele>
        <time>2021-05-14T11:31:07+02:00</time>
      </trkpt>
      <trkpt lat="44.02308" lon="3.45383">
        <ele>1325</ele>
        <time>2021-05-14T11:31:22+02:00</time>
      </trkpt>
      <trkpt lat="44.02318" lon="3.45404">
        <ele>1321</ele>
        <time>2021-05-14T11:32:51+02:00</time>
      </trkpt>
      <trkpt lat="44.02331" lon="3.45428">
        <ele>1316</ele>
        <time>2021-05-14T11:33:15+02:00</time>
      </trkpt>
      <trkpt lat="44.02336" lon="3.45457">
        <ele>1311</ele>
        <time>2021-05-14T11:33:33+02:00</time>
      </trkpt>
      <trkpt lat="44.02331" lon="3.45487">
        <ele>1308</ele>
        <time>2021-05-14T11:33:49+02:00</time>
      </trkpt>
      <trkpt lat="44.02323" lon="3.45507">
        <ele>1308</ele>
        <time>2021-05-14T11:33:59+02:00</time>
      </trkpt>
      <trkpt lat="44.02316" lon="3.45531">
        <ele>1307</ele>
        <time>2021-05-14T11:34:11+02:00</time>
      </trkpt>
      <trkpt lat="44.0231" lon="3.45554">
        <ele>1306</ele>
        <time>2021-05-14T11:34:23+02:00</time>
      </trkpt>
      <trkpt lat="44.02296" lon="3.45578">
        <ele>1305</ele>
        <time>2021-05-14T11:34:35+02:00</time>
      </trkpt>
      <trkpt lat="44.02285" lon="3.45596">
        <ele>1305</ele>
        <time>2021-05-14T11:34:47+02:00</time>
      </trkpt>
      <trkpt lat="44.02268" lon="3.45616">
        <ele>1306</ele>
        <time>2021-05-14T11:35:02+02:00</time>
      </trkpt>
      <trkpt lat="44.0225" lon="3.45633">
        <ele>1307</ele>
        <time>2021-05-14T11:35:18+02:00</time>
      </trkpt>
      <trkpt lat="44.02236" lon="3.4565">
        <ele>1305</ele>
        <time>2021-05-14T11:36:39+02:00</time>
      </trkpt>
      <trkpt lat="44.02239" lon="3.45678">
        <ele>1305</ele>
        <time>2021-05-14T11:36:57+02:00</time>
      </trkpt>
      <trkpt lat="44.02248" lon="3.45696">
        <ele>1306</ele>
        <time>2021-05-14T11:37:09+02:00</time>
      </trkpt>
      <trkpt lat="44.02258" lon="3.45721">
        <ele>1306</ele>
        <time>2021-05-14T11:37:36+02:00</time>
      </trkpt>
      <trkpt lat="44.02265" lon="3.45749">
        <ele>1306</ele>
        <time>2021-05-14T11:37:52+02:00</time>
      </trkpt>
      <trkpt lat="44.02266" lon="3.45779">
        <ele>1309</ele>
        <time>2021-05-14T11:38:09+02:00</time>
      </trkpt>
      <trkpt lat="44.02265" lon="3.4581">
        <ele>1311</ele>
        <time>2021-05-14T11:38:25+02:00</time>
      </trkpt>
      <trkpt lat="44.02278" lon="3.45825">
        <ele>1312</ele>
        <time>2021-05-14T11:38:39+02:00</time>
      </trkpt>
      <trkpt lat="44.02294" lon="3.45833">
        <ele>1311</ele>
        <time>2021-05-14T11:38:50+02:00</time>
      </trkpt>
      <trkpt lat="44.02315" lon="3.45841">
        <ele>1311</ele>
        <time>2021-05-14T11:39:05+02:00</time>
      </trkpt>
      <trkpt lat="44.02336" lon="3.45848">
        <ele>1310</ele>
        <time>2021-05-14T11:39:22+02:00</time>
      </trkpt>
      <trkpt lat="44.02356" lon="3.45846">
        <ele>1308</ele>
        <time>2021-05-14T11:39:44+02:00</time>
      </trkpt>
      <trkpt lat="44.02376" lon="3.45861">
        <ele>1307</ele>
        <time>2021-05-14T11:40:00+02:00</time>
      </trkpt>
      <trkpt lat="44.02385" lon="3.45903">
        <ele>1309</ele>
        <time>2021-05-14T11:40:16+02:00</time>
      </trkpt>
      <trkpt lat="44.02392" lon="3.45943">
        <ele>1310</ele>
        <time>2021-05-14T11:40:32+02:00</time>
      </trkpt>
      <trkpt lat="44.02387" lon="3.45982">
        <ele>1313</ele>
        <time>2021-05-14T11:40:58+02:00</time>
      </trkpt>
      <trkpt lat="44.02389" lon="3.46009">
        <ele>1314</ele>
        <time>2021-05-14T11:41:22+02:00</time>
      </trkpt>
      <trkpt lat="44.02391" lon="3.46037">
        <ele>1315</ele>
        <time>2021-05-14T11:41:37+02:00</time>
      </trkpt>
      <trkpt lat="44.024" lon="3.46061">
        <ele>1315</ele>
        <time>2021-05-14T11:42:00+02:00</time>
      </trkpt>
      <trkpt lat="44.02407" lon="3.46078">
        <ele>1314</ele>
        <time>2021-05-14T11:42:32+02:00</time>
      </trkpt>
      <trkpt lat="44.02421" lon="3.46102">
        <ele>1314</ele>
        <time>2021-05-14T11:42:40+02:00</time>
      </trkpt>
      <trkpt lat="44.02431" lon="3.46129">
        <ele>1315</ele>
        <time>2021-05-14T11:45:53+02:00</time>
      </trkpt>
      <trkpt lat="44.02448" lon="3.46153">
        <ele>1315</ele>
        <time>2021-05-14T11:49:34+02:00</time>
      </trkpt>
      <trkpt lat="44.02472" lon="3.46172">
        <ele>1312</ele>
        <time>2021-05-14T11:51:44+02:00</time>
      </trkpt>
      <trkpt lat="44.0249" lon="3.46202">
        <ele>1316</ele>
        <time>2021-05-14T11:51:58+02:00</time>
      </trkpt>
      <trkpt lat="44.02521" lon="3.46221">
        <ele>1315</ele>
        <time>2021-05-14T11:52:31+02:00</time>
      </trkpt>
      <trkpt lat="44.02592" lon="3.46256">
        <ele>1313</ele>
      </trkpt>
      <trkpt lat="44.02638" lon="3.46262">
        <ele>1307</ele>
      </trkpt>
      <trkpt lat="44.0268" lon="3.46284">
        <ele>1305</ele>
      </trkpt>
      <trkpt lat="44.02714" lon="3.4629">
        <ele>1303</ele>
      </trkpt>
      <trkpt lat="44.02777" lon="3.46294">
        <ele>1299</ele>
      </trkpt>
      <trkpt lat="44.02805" lon="3.46301">
        <ele>1297</ele>
      </trkpt>
      <trkpt lat="44.02792" lon="3.46322">
        <ele>1300</ele>
      </trkpt>
      <trkpt lat="44.0278" lon="3.46352">
        <ele>1300</ele>
      </trkpt>
      <trkpt lat="44.02714" lon="3.46395">
        <ele>1308</ele>
      </trkpt>
      <trkpt lat="44.02691" lon="3.46436">
        <ele>1309</ele>
      </trkpt>
      <trkpt lat="44.02677" lon="3.46517">
        <ele>1302</ele>
      </trkpt>
      <trkpt lat="44.02689" lon="3.4658">
        <ele>1298</ele>
        <time>2021-05-14T12:07:09+02:00</time>
      </trkpt>
      <trkpt lat="44.02725" lon="3.46614">
        <ele>1295</ele>
        <time>2021-05-14T12:07:44+02:00</time>
      </trkpt>
      <trkpt lat="44.0276" lon="3.4665">
        <ele>1296</ele>
        <time>2021-05-14T12:08:29+02:00</time>
      </trkpt>
      <trkpt lat="44.02789" lon="3.4665">
        <ele>1296</ele>
        <time>2021-05-14T12:08:52+02:00</time>
      </trkpt>
      <trkpt lat="44.02812" lon="3.4664">
        <ele>1294</ele>
        <time>2021-05-14T12:09:15+02:00</time>
      </trkpt>
      <trkpt lat="44.02842" lon="3.46616">
        <ele>1288</ele>
        <time>2021-05-14T12:09:29+02:00</time>
      </trkpt>
      <trkpt lat="44.02865" lon="3.46603">
        <ele>1284</ele>
        <time>2021-05-14T12:09:46+02:00</time>
      </trkpt>
      <trkpt lat="44.0289" lon="3.46593">
        <ele>1280</ele>
        <time>2021-05-14T12:09:58+02:00</time>
      </trkpt>
      <trkpt lat="44.02924" lon="3.46595">
        <ele>1279</ele>
        <time>2021-05-14T12:10:11+02:00</time>
      </trkpt>
      <trkpt lat="44.02958" lon="3.46599">
        <ele>1272</ele>
        <time>2021-05-14T12:10:25+02:00</time>
      </trkpt>
      <trkpt lat="44.02982" lon="3.46629">
        <ele>1275</ele>
        <time>2021-05-14T12:10:43+02:00</time>
      </trkpt>
      <trkpt lat="44.02999" lon="3.46672">
        <ele>1282</ele>
        <time>2021-05-14T12:11:05+02:00</time>
      </trkpt>
      <trkpt lat="44.03032" lon="3.46693">
        <ele>1277</ele>
        <time>2021-05-14T12:11:19+02:00</time>
      </trkpt>
      <trkpt lat="44.03073" lon="3.46728">
        <ele>1271</ele>
        <time>2021-05-14T12:11:32+02:00</time>
      </trkpt>
      <trkpt lat="44.03103" lon="3.46764">
        <ele>1269</ele>
        <time>2021-05-14T12:11:44+02:00</time>
      </trkpt>
      <trkpt lat="44.0312" lon="3.46801">
        <ele>1269</ele>
        <time>2021-05-14T12:11:56+02:00</time>
      </trkpt>
      <trkpt lat="44.03123" lon="3.46859">
        <ele>1272</ele>
        <time>2021-05-14T12:12:14+02:00</time>
      </trkpt>
      <trkpt lat="44.03115" lon="3.46917">
        <ele>1273</ele>
        <time>2021-05-14T12:12:33+02:00</time>
      </trkpt>
      <trkpt lat="44.03087" lon="3.46972">
        <ele>1275</ele>
        <time>2021-05-14T12:12:52+02:00</time>
      </trkpt>
      <trkpt lat="44.03066" lon="3.47011">
        <ele>1276</ele>
        <time>2021-05-14T12:13:10+02:00</time>
      </trkpt>
      <trkpt lat="44.0305" lon="3.4705">
        <ele>1274</ele>
        <time>2021-05-14T12:14:34+02:00</time>
      </trkpt>
      <trkpt lat="44.03036" lon="3.47116">
        <ele>1272</ele>
        <time>2021-05-14T12:14:49+02:00</time>
      </trkpt>
      <trkpt lat="44.0303" lon="3.47157">
        <ele>1272</ele>
        <time>2021-05-14T12:15:01+02:00</time>
      </trkpt>
      <trkpt lat="44.03067" lon="3.47183">
        <ele>1268</ele>
        <time>2021-05-14T12:15:10+02:00</time>
      </trkpt>
      <trkpt lat="44.03089" lon="3.47217">
        <ele>1270</ele>
        <time>2021-05-14T12:15:20+02:00</time>
      </trkpt>
      <trkpt lat="44.03118" lon="3.47251">
        <ele>1268</ele>
        <time>2021-05-14T12:15:47+02:00</time>
      </trkpt>
      <trkpt lat="44.0313" lon="3.47279">
        <ele>1266</ele>
        <time>2021-05-14T12:17:13+02:00</time>
      </trkpt>
      <trkpt lat="44.03134" lon="3.47304">
        <ele>1266</ele>
        <time>2021-05-14T12:19:00+02:00</time>
      </trkpt>
      <trkpt lat="44.0313" lon="3.47319">
        <ele>1268</ele>
      </trkpt>
      <trkpt lat="44.03121" lon="3.47334">
        <ele>1271</ele>
        <time>2021-05-14T12:22:31+02:00</time>
      </trkpt>
      <trkpt lat="44.03099" lon="3.47371">
        <ele>1277</ele>
        <time>2021-05-14T12:22:44+02:00</time>
      </trkpt>
      <trkpt lat="44.03092" lon="3.47412">
        <ele>1278</ele>
        <time>2021-05-14T12:22:57+02:00</time>
      </trkpt>
      <trkpt lat="44.03087" lon="3.47468">
        <ele>1276</ele>
        <time>2021-05-14T12:23:16+02:00</time>
      </trkpt>
      <trkpt lat="44.03078" lon="3.47547">
        <ele>1273</ele>
        <time>2021-05-14T12:23:39+02:00</time>
      </trkpt>
      <trkpt lat="44.03053" lon="3.47597">
        <ele>1277</ele>
        <time>2021-05-14T12:23:51+02:00</time>
      </trkpt>
      <trkpt lat="44.03033" lon="3.47632">
        <ele>1280</ele>
      </trkpt>
      <trkpt lat="44.03024" lon="3.47668">
        <ele>1280</ele>
        <time>2021-05-14T12:24:00+02:00</time>
      </trkpt>
      <trkpt lat="44.03033" lon="3.47719">
        <ele>1278</ele>
        <time>2021-05-14T12:24:09+02:00</time>
      </trkpt>
      <trkpt lat="44.03044" lon="3.47749">
        <ele>1276</ele>
        <time>2021-05-14T12:24:17+02:00</time>
      </trkpt>
      <trkpt lat="44.0305" lon="3.47779">
        <ele>1276</ele>
        <time>2021-05-14T12:24:24+02:00</time>
      </trkpt>
      <trkpt lat="44.03058" lon="3.47818">
        <ele>1278</ele>
        <time>2021-05-14T12:24:31+02:00</time>
      </trkpt>
      <trkpt lat="44.03058" lon="3.47848">
        <ele>1280</ele>
        <time>2021-05-14T12:24:39+02:00</time>
      </trkpt>
      <trkpt lat="44.03069" lon="3.47878">
        <ele>1278</ele>
        <time>2021-05-14T12:24:50+02:00</time>
      </trkpt>
      <trkpt lat="44.03073" lon="3.47919">
        <ele>1279</ele>
        <time>2021-05-14T12:25:08+02:00</time>
      </trkpt>
      <trkpt lat="44.03075" lon="3.47933">
        <ele>1280</ele>
        <time>2021-05-14T12:25:23+02:00</time>
      </trkpt>
      <trkpt lat="44.03084" lon="3.47962">
        <ele>1279</ele>
        <time>2021-05-14T12:25:38+02:00</time>
      </trkpt>
      <trkpt lat="44.03087" lon="3.47979">
        <ele>1279</ele>
        <time>2021-05-14T12:25:47+02:00</time>
      </trkpt>
      <trkpt lat="44.03099" lon="3.48035">
        <ele>1281</ele>
        <time>2021-05-14T12:25:57+02:00</time>
      </trkpt>
      <trkpt lat="44.03119" lon="3.48098">
        <ele>1282</ele>
        <time>2021-05-14T12:26:57+02:00</time>
      </trkpt>
      <trkpt lat="44.03129" lon="3.48125">
        <ele>1282</ele>
        <time>2021-05-14T12:27:12+02:00</time>
      </trkpt>
      <trkpt lat="44.03136" lon="3.48145">
        <ele>1283</ele>
        <time>2021-05-14T12:27:22+02:00</time>
      </trkpt>
      <trkpt lat="44.03136" lon="3.48171">
        <ele>1286</ele>
        <time>2021-05-14T12:27:34+02:00</time>
      </trkpt>
      <trkpt lat="44.03144" lon="3.48193">
        <ele>1286</ele>
        <time>2021-05-14T12:27:48+02:00</time>
      </trkpt>
      <trkpt lat="44.03155" lon="3.48215">
        <ele>1285</ele>
        <time>2021-05-14T12:28:01+02:00</time>
      </trkpt>
      <trkpt lat="44.03165" lon="3.48232">
        <ele>1284</ele>
        <time>2021-05-14T12:28:13+02:00</time>
      </trkpt>
      <trkpt lat="44.0318" lon="3.48248">
        <ele>1284</ele>
        <time>2021-05-14T12:28:25+02:00</time>
      </trkpt>
      <trkpt lat="44.03195" lon="3.48267">
        <ele>1284</ele>
        <time>2021-05-14T12:28:41+02:00</time>
      </trkpt>
      <trkpt lat="44.03202" lon="3.48297">
        <ele>1286</ele>
        <time>2021-05-14T12:28:54+02:00</time>
      </trkpt>
      <trkpt lat="44.03204" lon="3.48327">
        <ele>1288</ele>
        <time>2021-05-14T12:29:08+02:00</time>
      </trkpt>
      <trkpt lat="44.0321" lon="3.48352">
        <ele>1288</ele>
        <time>2021-05-14T12:29:20+02:00</time>
      </trkpt>
      <trkpt lat="44.03208" lon="3.48359">
        <ele>1288</ele>
        <time>2021-05-14T12:29:24+02:00</time>
      </trkpt>
      <trkpt lat="44.03189" lon="3.48374">
        <ele>1289</ele>
        <time>2021-05-14T12:29:40+02:00</time>
      </trkpt>
      <trkpt lat="44.03168" lon="3.48384">
        <ele>1290</ele>
        <time>2021-05-14T12:30:01+02:00</time>
      </trkpt>
      <trkpt lat="44.0315" lon="3.4839">
        <ele>1292</ele>
        <time>2021-05-14T12:30:14+02:00</time>
      </trkpt>
      <trkpt lat="44.03132" lon="3.48405">
        <ele>1294</ele>
        <time>2021-05-14T12:30:31+02:00</time>
      </trkpt>
      <trkpt lat="44.03114" lon="3.48417">
        <ele>1296</ele>
        <time>2021-05-14T12:30:52+02:00</time>
      </trkpt>
      <trkpt lat="44.03096" lon="3.48426">
        <ele>1298</ele>
        <time>2021-05-14T12:31:16+02:00</time>
      </trkpt>
      <trkpt lat="44.0308" lon="3.48437">
        <ele>1300</ele>
        <time>2021-05-14T12:31:26+02:00</time>
      </trkpt>
      <trkpt lat="44.03077" lon="3.48466">
        <ele>1300</ele>
        <time>2021-05-14T12:31:43+02:00</time>
      </trkpt>
      <trkpt lat="44.03062" lon="3.48485">
        <ele>1301</ele>
        <time>2021-05-14T12:32:16+02:00</time>
      </trkpt>
      <trkpt lat="44.03041" lon="3.48482">
        <ele>1303</ele>
        <time>2021-05-14T12:32:22+02:00</time>
      </trkpt>
      <trkpt lat="44.03022" lon="3.48478">
        <ele>1305</ele>
        <time>2021-05-14T12:32:33+02:00</time>
      </trkpt>
      <trkpt lat="44.03001" lon="3.48478">
        <ele>1307</ele>
        <time>2021-05-14T12:32:51+02:00</time>
      </trkpt>
      <trkpt lat="44.02988" lon="3.48487">
        <ele>1307</ele>
        <time>2021-05-14T12:33:30+02:00</time>
      </trkpt>
      <trkpt lat="44.02971" lon="3.48493">
        <ele>1308</ele>
        <time>2021-05-14T12:35:36+02:00</time>
      </trkpt>
      <trkpt lat="44.02952" lon="3.485">
        <ele>1308</ele>
        <time>2021-05-14T12:35:45+02:00</time>
      </trkpt>
      <trkpt lat="44.02934" lon="3.48515">
        <ele>1308</ele>
        <time>2021-05-14T12:35:58+02:00</time>
      </trkpt>
      <trkpt lat="44.02933" lon="3.48522">
        <ele>1308</ele>
        <time>2021-05-14T12:36:03+02:00</time>
      </trkpt>
      <trkpt lat="44.02941" lon="3.4855">
        <ele>1308</ele>
        <time>2021-05-14T12:36:26+02:00</time>
      </trkpt>
      <trkpt lat="44.02958" lon="3.48568">
        <ele>1309</ele>
        <time>2021-05-14T12:36:43+02:00</time>
      </trkpt>
      <trkpt lat="44.02965" lon="3.48595">
        <ele>1310</ele>
        <time>2021-05-14T12:37:02+02:00</time>
      </trkpt>
      <trkpt lat="44.02956" lon="3.48615">
        <ele>1311</ele>
        <time>2021-05-14T12:37:16+02:00</time>
      </trkpt>
      <trkpt lat="44.02947" lon="3.48642">
        <ele>1312</ele>
        <time>2021-05-14T12:37:33+02:00</time>
      </trkpt>
      <trkpt lat="44.02938" lon="3.4867">
        <ele>1313</ele>
        <time>2021-05-14T12:37:57+02:00</time>
      </trkpt>
      <trkpt lat="44.02944" lon="3.48698">
        <ele>1317</ele>
        <time>2021-05-14T12:38:13+02:00</time>
      </trkpt>
      <trkpt lat="44.02949" lon="3.48727">
        <ele>1321</ele>
        <time>2021-05-14T12:38:31+02:00</time>
      </trkpt>
      <trkpt lat="44.02965" lon="3.4874">
        <ele>1325</ele>
        <time>2021-05-14T12:38:59+02:00</time>
      </trkpt>
      <trkpt lat="44.02983" lon="3.48756">
        <ele>1329</ele>
        <time>2021-05-14T12:39:19+02:00</time>
      </trkpt>
      <trkpt lat="44.02998" lon="3.48777">
        <ele>1332</ele>
        <time>2021-05-14T12:39:38+02:00</time>
      </trkpt>
      <trkpt lat="44.03017" lon="3.48792">
        <ele>1334</ele>
        <time>2021-05-14T12:39:51+02:00</time>
      </trkpt>
      <trkpt lat="44.03035" lon="3.48806">
        <ele>1335</ele>
        <time>2021-05-14T12:40:15+02:00</time>
      </trkpt>
      <trkpt lat="44.03049" lon="3.48829">
        <ele>1338</ele>
        <time>2021-05-14T12:40:43+02:00</time>
      </trkpt>
      <trkpt lat="44.03064" lon="3.48841">
        <ele>1339</ele>
        <time>2021-05-14T12:40:55+02:00</time>
      </trkpt>
      <trkpt lat="44.03077" lon="3.48858">
        <ele>1342</ele>
        <time>2021-05-14T12:41:09+02:00</time>
      </trkpt>
      <trkpt lat="44.03096" lon="3.48873">
        <ele>1344</ele>
        <time>2021-05-14T12:41:29+02:00</time>
      </trkpt>
      <trkpt lat="44.03114" lon="3.48892">
        <ele>1347</ele>
        <time>2021-05-14T12:41:48+02:00</time>
      </trkpt>
      <trkpt lat="44.03134" lon="3.48904">
        <ele>1349</ele>
        <time>2021-05-14T12:42:10+02:00</time>
      </trkpt>
      <trkpt lat="44.03151" lon="3.48897">
        <ele>1349</ele>
        <time>2021-05-14T12:42:22+02:00</time>
      </trkpt>
      <trkpt lat="44.0317" lon="3.48899">
        <ele>1349</ele>
        <time>2021-05-14T12:42:35+02:00</time>
      </trkpt>
      <trkpt lat="44.0318" lon="3.48925">
        <ele>1353</ele>
        <time>2021-05-14T12:42:52+02:00</time>
      </trkpt>
      <trkpt lat="44.0319" lon="3.48952">
        <ele>1357</ele>
        <time>2021-05-14T12:43:08+02:00</time>
      </trkpt>
      <trkpt lat="44.03204" lon="3.48964">
        <ele>1358</ele>
        <time>2021-05-14T12:43:20+02:00</time>
      </trkpt>
      <trkpt lat="44.0322" lon="3.48974">
        <ele>1358</ele>
        <time>2021-05-14T12:43:31+02:00</time>
      </trkpt>
      <trkpt lat="44.03234" lon="3.48989">
        <ele>1360</ele>
        <time>2021-05-14T12:43:44+02:00</time>
      </trkpt>
      <trkpt lat="44.03251" lon="3.48997">
        <ele>1359</ele>
        <time>2021-05-14T12:43:53+02:00</time>
      </trkpt>
      <trkpt lat="44.03271" lon="3.49005">
        <ele>1359</ele>
        <time>2021-05-14T12:44:07+02:00</time>
      </trkpt>
      <trkpt lat="44.03291" lon="3.49014">
        <ele>1359</ele>
        <time>2021-05-14T12:44:24+02:00</time>
      </trkpt>
      <trkpt lat="44.03308" lon="3.49023">
        <ele>1359</ele>
        <time>2021-05-14T12:44:35+02:00</time>
      </trkpt>
      <trkpt lat="44.03329" lon="3.49032">
        <ele>1359</ele>
        <time>2021-05-14T12:44:47+02:00</time>
      </trkpt>
      <trkpt lat="44.03346" lon="3.49046">
        <ele>1359</ele>
        <time>2021-05-14T12:45:01+02:00</time>
      </trkpt>
      <trkpt lat="44.03362" lon="3.49058">
        <ele>1359</ele>
        <time>2021-05-14T12:45:14+02:00</time>
      </trkpt>
      <trkpt lat="44.03379" lon="3.49077">
        <ele>1360</ele>
        <time>2021-05-14T12:45:31+02:00</time>
      </trkpt>
      <trkpt lat="44.03397" lon="3.49092">
        <ele>1359</ele>
        <time>2021-05-14T12:45:44+02:00</time>
      </trkpt>
      <trkpt lat="44.03408" lon="3.49111">
        <ele>1360</ele>
        <time>2021-05-14T12:45:55+02:00</time>
      </trkpt>
      <trkpt lat="44.03418" lon="3.49131">
        <ele>1360</ele>
        <time>2021-05-14T12:46:06+02:00</time>
      </trkpt>
      <trkpt lat="44.03431" lon="3.49148">
        <ele>1360</ele>
        <time>2021-05-14T12:46:17+02:00</time>
      </trkpt>
      <trkpt lat="44.0344" lon="3.4917">
        <ele>1362</ele>
        <time>2021-05-14T12:46:29+02:00</time>
      </trkpt>
      <trkpt lat="44.03456" lon="3.49185">
        <ele>1363</ele>
        <time>2021-05-14T12:46:39+02:00</time>
      </trkpt>
      <trkpt lat="44.03469" lon="3.49202">
        <ele>1364</ele>
        <time>2021-05-14T12:46:50+02:00</time>
      </trkpt>
      <trkpt lat="44.03482" lon="3.49218">
        <ele>1364</ele>
        <time>2021-05-14T12:47:00+02:00</time>
      </trkpt>
      <trkpt lat="44.03494" lon="3.49243">
        <ele>1364</ele>
        <time>2021-05-14T12:47:15+02:00</time>
      </trkpt>
      <trkpt lat="44.03503" lon="3.49264">
        <ele>1364</ele>
        <time>2021-05-14T12:47:28+02:00</time>
      </trkpt>
      <trkpt lat="44.03513" lon="3.49285">
        <ele>1365</ele>
        <time>2021-05-14T12:47:40+02:00</time>
      </trkpt>
      <trkpt lat="44.03525" lon="3.49311">
        <ele>1365</ele>
        <time>2021-05-14T12:47:53+02:00</time>
      </trkpt>
      <trkpt lat="44.03529" lon="3.49341">
        <ele>1366</ele>
        <time>2021-05-14T12:48:09+02:00</time>
      </trkpt>
      <trkpt lat="44.03533" lon="3.49372">
        <ele>1366</ele>
        <time>2021-05-14T12:48:23+02:00</time>
      </trkpt>
      <trkpt lat="44.03538" lon="3.49399">
        <ele>1367</ele>
        <time>2021-05-14T12:48:36+02:00</time>
      </trkpt>
      <trkpt lat="44.03544" lon="3.4943">
        <ele>1367</ele>
        <time>2021-05-14T12:48:51+02:00</time>
      </trkpt>
      <trkpt lat="44.03554" lon="3.4945">
        <ele>1367</ele>
        <time>2021-05-14T12:49:02+02:00</time>
      </trkpt>
      <trkpt lat="44.03559" lon="3.49471">
        <ele>1368</ele>
        <time>2021-05-14T12:49:14+02:00</time>
      </trkpt>
      <trkpt lat="44.03567" lon="3.49493">
        <ele>1368</ele>
        <time>2021-05-14T12:49:27+02:00</time>
      </trkpt>
      <trkpt lat="44.03567" lon="3.49518">
        <ele>1369</ele>
        <time>2021-05-14T12:49:41+02:00</time>
      </trkpt>
      <trkpt lat="44.0357" lon="3.49548">
        <ele>1368</ele>
        <time>2021-05-14T12:49:58+02:00</time>
      </trkpt>
      <trkpt lat="44.0359" lon="3.49607">
        <ele>1367</ele>
        <time>2021-05-14T12:51:17+02:00</time>
      </trkpt>
      <trkpt lat="44.03647" lon="3.49673">
        <ele>1370</ele>
        <time>2021-05-14T12:52:52+02:00</time>
      </trkpt>
      <trkpt lat="44.03667" lon="3.49703">
        <ele>1367</ele>
        <time>2021-05-14T12:57:18+02:00</time>
      </trkpt>
      <trkpt lat="44.03684" lon="3.49744">
        <ele>1366</ele>
        <time>2021-05-14T12:58:18+02:00</time>
      </trkpt>
      <trkpt lat="44.03719" lon="3.49813">
        <ele>1361</ele>
        <time>2021-05-14T12:59:06+02:00</time>
      </trkpt>
      <trkpt lat="44.03752" lon="3.49866">
        <ele>1357</ele>
        <time>2021-05-14T12:59:23+02:00</time>
      </trkpt>
      <trkpt lat="44.03779" lon="3.49948">
        <ele>1344</ele>
        <time>2021-05-14T12:59:41+02:00</time>
      </trkpt>
      <trkpt lat="44.03812" lon="3.50015">
        <ele>1337</ele>
        <time>2021-05-14T13:00:09+02:00</time>
      </trkpt>
      <trkpt lat="44.03855" lon="3.50038">
        <ele>1337</ele>
        <time>2021-05-14T13:01:01+02:00</time>
      </trkpt>
      <trkpt lat="44.03886" lon="3.5007">
        <ele>1333</ele>
      </trkpt>
      <trkpt lat="44.03901" lon="3.50135">
        <ele>1324</ele>
      </trkpt>
      <trkpt lat="44.03929" lon="3.50197">
        <ele>1319</ele>
      </trkpt>
      <trkpt lat="44.03997" lon="3.50392">
        <ele>1291</ele>
      </trkpt>
      <trkpt lat="44.03964" lon="3.50394">
        <ele>1287</ele>
      </trkpt>
      <trkpt lat="44.03969" lon="3.50424">
        <ele>1283</ele>
      </trkpt>
      <trkpt lat="44.04006" lon="3.50465">
        <ele>1280</ele>
      </trkpt>
      <trkpt lat="44.04012" lon="3.5051">
        <ele>1274</ele>
        <time>2021-05-14T13:03:27+02:00</time>
      </trkpt>
      <trkpt lat="44.03995" lon="3.50545">
        <ele>1271</ele>
        <time>2021-05-14T13:04:10+02:00</time>
      </trkpt>
      <trkpt lat="44.03998" lon="3.50598">
        <ele>1265</ele>
        <time>2021-05-14T13:04:21+02:00</time>
      </trkpt>
      <trkpt lat="44.03978" lon="3.50609">
        <ele>1265</ele>
        <time>2021-05-14T13:04:33+02:00</time>
      </trkpt>
      <trkpt lat="44.03934" lon="3.50596">
        <ele>1265</ele>
        <time>2021-05-14T13:05:13+02:00</time>
      </trkpt>
      <trkpt lat="44.03907" lon="3.50596">
        <ele>1266</ele>
        <time>2021-05-14T13:07:35+02:00</time>
      </trkpt>
      <trkpt lat="44.03895" lon="3.50611">
        <ele>1267</ele>
        <time>2021-05-14T13:07:54+02:00</time>
      </trkpt>
      <trkpt lat="44.03887" lon="3.50616">
        <ele>1267</ele>
        <time>2021-05-14T13:08:12+02:00</time>
      </trkpt>
      <trkpt lat="44.03885" lon="3.50642">
        <ele>1267</ele>
        <time>2021-05-14T13:08:32+02:00</time>
      </trkpt>
      <trkpt lat="44.03882" lon="3.50673">
        <ele>1267</ele>
        <time>2021-05-14T13:09:50+02:00</time>
      </trkpt>
      <trkpt lat="44.03892" lon="3.50693">
        <ele>1267</ele>
        <time>2021-05-14T13:10:02+02:00</time>
      </trkpt>
      <trkpt lat="44.03907" lon="3.50715">
        <ele>1266</ele>
        <time>2021-05-14T13:10:20+02:00</time>
      </trkpt>
      <trkpt lat="44.03927" lon="3.50728">
        <ele>1265</ele>
        <time>2021-05-14T13:10:37+02:00</time>
      </trkpt>
      <trkpt lat="44.03948" lon="3.50733">
        <ele>1264</ele>
        <time>2021-05-14T13:10:53+02:00</time>
      </trkpt>
      <trkpt lat="44.03968" lon="3.50739">
        <ele>1264</ele>
        <time>2021-05-14T13:11:11+02:00</time>
      </trkpt>
      <trkpt lat="44.0398" lon="3.50756">
        <ele>1264</ele>
        <time>2021-05-14T13:11:31+02:00</time>
      </trkpt>
      <trkpt lat="44.03998" lon="3.50777">
        <ele>1264</ele>
        <time>2021-05-14T13:13:48+02:00</time>
      </trkpt>
      <trkpt lat="44.04014" lon="3.50794">
        <ele>1265</ele>
        <time>2021-05-14T13:14:05+02:00</time>
      </trkpt>
      <trkpt lat="44.04027" lon="3.50812">
        <ele>1265</ele>
        <time>2021-05-14T13:14:23+02:00</time>
      </trkpt>
      <trkpt lat="44.04039" lon="3.50828">
        <ele>1265</ele>
        <time>2021-05-14T13:14:35+02:00</time>
      </trkpt>
      <trkpt lat="44.04045" lon="3.50844">
        <ele>1265</ele>
        <time>2021-05-14T13:14:51+02:00</time>
      </trkpt>
      <trkpt lat="44.04047" lon="3.50863">
        <ele>1265</ele>
        <time>2021-05-14T13:15:07+02:00</time>
      </trkpt>
      <trkpt lat="44.04048" lon="3.50885">
        <ele>1264</ele>
        <time>2021-05-14T13:15:19+02:00</time>
      </trkpt>
      <trkpt lat="44.04047" lon="3.50913">
        <ele>1264</ele>
        <time>2021-05-14T13:15:45+02:00</time>
      </trkpt>
      <trkpt lat="44.04041" lon="3.5094">
        <ele>1263</ele>
        <time>2021-05-14T13:16:02+02:00</time>
      </trkpt>
      <trkpt lat="44.04032" lon="3.50967">
        <ele>1263</ele>
        <time>2021-05-14T13:16:38+02:00</time>
      </trkpt>
      <trkpt lat="44.04013" lon="3.50981">
        <ele>1263</ele>
        <time>2021-05-14T13:16:56+02:00</time>
      </trkpt>
      <trkpt lat="44.03995" lon="3.50984">
        <ele>1263</ele>
        <time>2021-05-14T13:17:10+02:00</time>
      </trkpt>
      <trkpt lat="44.03981" lon="3.50995">
        <ele>1262</ele>
        <time>2021-05-14T13:17:23+02:00</time>
      </trkpt>
      <trkpt lat="44.03971" lon="3.51016">
        <ele>1260</ele>
        <time>2021-05-14T13:18:04+02:00</time>
      </trkpt>
      <trkpt lat="44.03956" lon="3.51028">
        <ele>1258</ele>
        <time>2021-05-14T13:18:17+02:00</time>
      </trkpt>
      <trkpt lat="44.03939" lon="3.51034">
        <ele>1257</ele>
        <time>2021-05-14T13:18:29+02:00</time>
      </trkpt>
      <trkpt lat="44.03917" lon="3.51032">
        <ele>1255</ele>
        <time>2021-05-14T13:18:44+02:00</time>
      </trkpt>
      <trkpt lat="44.03899" lon="3.51026">
        <ele>1255</ele>
        <time>2021-05-14T13:18:54+02:00</time>
      </trkpt>
      <trkpt lat="44.03878" lon="3.51031">
        <ele>1252</ele>
        <time>2021-05-14T13:19:07+02:00</time>
      </trkpt>
      <trkpt lat="44.03878" lon="3.51059">
        <ele>1250</ele>
        <time>2021-05-14T13:20:48+02:00</time>
      </trkpt>
      <trkpt lat="44.03889" lon="3.51077">
        <ele>1249</ele>
        <time>2021-05-14T13:21:00+02:00</time>
      </trkpt>
      <trkpt lat="44.03908" lon="3.51093">
        <ele>1248</ele>
        <time>2021-05-14T13:21:16+02:00</time>
      </trkpt>
      <trkpt lat="44.03924" lon="3.51096">
        <ele>1249</ele>
        <time>2021-05-14T13:21:29+02:00</time>
      </trkpt>
      <trkpt lat="44.0394" lon="3.51107">
        <ele>1250</ele>
        <time>2021-05-14T13:21:41+02:00</time>
      </trkpt>
      <trkpt lat="44.03949" lon="3.51128">
        <ele>1250</ele>
        <time>2021-05-14T13:21:53+02:00</time>
      </trkpt>
      <trkpt lat="44.03954" lon="3.51151">
        <ele>1248</ele>
        <time>2021-05-14T13:22:05+02:00</time>
      </trkpt>
      <trkpt lat="44.03955" lon="3.51181">
        <ele>1247</ele>
        <time>2021-05-14T13:22:20+02:00</time>
      </trkpt>
      <trkpt lat="44.03955" lon="3.51205">
        <ele>1246</ele>
        <time>2021-05-14T13:22:32+02:00</time>
      </trkpt>
      <trkpt lat="44.03956" lon="3.51233">
        <ele>1244</ele>
        <time>2021-05-14T13:22:42+02:00</time>
      </trkpt>
      <trkpt lat="44.0396" lon="3.51256">
        <ele>1244</ele>
        <time>2021-05-14T13:22:48+02:00</time>
      </trkpt>
      <trkpt lat="44.03967" lon="3.51279">
        <ele>1244</ele>
        <time>2021-05-14T13:22:54+02:00</time>
      </trkpt>
      <trkpt lat="44.03969" lon="3.51306">
        <ele>1244</ele>
        <time>2021-05-14T13:23:02+02:00</time>
      </trkpt>
      <trkpt lat="44.03963" lon="3.5133">
        <ele>1243</ele>
        <time>2021-05-14T13:23:08+02:00</time>
      </trkpt>
      <trkpt lat="44.0396" lon="3.51359">
        <ele>1243</ele>
        <time>2021-05-14T13:23:16+02:00</time>
      </trkpt>
      <trkpt lat="44.03956" lon="3.51384">
        <ele>1242</ele>
        <time>2021-05-14T13:23:24+02:00</time>
      </trkpt>
      <trkpt lat="44.03951" lon="3.51408">
        <ele>1242</ele>
        <time>2021-05-14T13:23:33+02:00</time>
      </trkpt>
      <trkpt lat="44.03936" lon="3.51432">
        <ele>1241</ele>
        <time>2021-05-14T13:23:46+02:00</time>
      </trkpt>
      <trkpt lat="44.03922" lon="3.51447">
        <ele>1240</ele>
        <time>2021-05-14T13:23:59+02:00</time>
      </trkpt>
      <trkpt lat="44.03913" lon="3.51469">
        <ele>1240</ele>
        <time>2021-05-14T13:24:11+02:00</time>
      </trkpt>
      <trkpt lat="44.03903" lon="3.51489">
        <ele>1242</ele>
        <time>2021-05-14T13:24:22+02:00</time>
      </trkpt>
      <trkpt lat="44.03893" lon="3.51508">
        <ele>1242</ele>
        <time>2021-05-14T13:24:34+02:00</time>
      </trkpt>
      <trkpt lat="44.0388" lon="3.51526">
        <ele>1243</ele>
        <time>2021-05-14T13:24:46+02:00</time>
      </trkpt>
      <trkpt lat="44.03867" lon="3.51543">
        <ele>1243</ele>
        <time>2021-05-14T13:24:57+02:00</time>
      </trkpt>
      <trkpt lat="44.03854" lon="3.51559">
        <ele>1243</ele>
        <time>2021-05-14T13:25:09+02:00</time>
      </trkpt>
      <trkpt lat="44.03845" lon="3.51582">
        <ele>1241</ele>
        <time>2021-05-14T13:25:31+02:00</time>
      </trkpt>
      <trkpt lat="44.03827" lon="3.51592">
        <ele>1242</ele>
        <time>2021-05-14T13:27:16+02:00</time>
      </trkpt>
      <trkpt lat="44.03808" lon="3.51599">
        <ele>1245</ele>
        <time>2021-05-14T13:27:29+02:00</time>
      </trkpt>
      <trkpt lat="44.03787" lon="3.51607">
        <ele>1248</ele>
        <time>2021-05-14T13:27:47+02:00</time>
      </trkpt>
      <trkpt lat="44.03765" lon="3.51613">
        <ele>1252</ele>
        <time>2021-05-14T13:28:03+02:00</time>
      </trkpt>
      <trkpt lat="44.03749" lon="3.51613">
        <ele>1255</ele>
        <time>2021-05-14T13:28:15+02:00</time>
      </trkpt>
      <trkpt lat="44.0373" lon="3.51615">
        <ele>1255</ele>
        <time>2021-05-14T13:28:27+02:00</time>
      </trkpt>
      <trkpt lat="44.03713" lon="3.51615">
        <ele>1256</ele>
        <time>2021-05-14T13:28:39+02:00</time>
      </trkpt>
      <trkpt lat="44.03696" lon="3.51619">
        <ele>1257</ele>
        <time>2021-05-14T13:28:51+02:00</time>
      </trkpt>
      <trkpt lat="44.03677" lon="3.51617">
        <ele>1258</ele>
        <time>2021-05-14T13:29:02+02:00</time>
      </trkpt>
      <trkpt lat="44.03656" lon="3.51626">
        <ele>1259</ele>
        <time>2021-05-14T13:29:16+02:00</time>
      </trkpt>
      <trkpt lat="44.03643" lon="3.5164">
        <ele>1259</ele>
        <time>2021-05-14T13:29:27+02:00</time>
      </trkpt>
      <trkpt lat="44.03627" lon="3.51653">
        <ele>1259</ele>
        <time>2021-05-14T13:29:39+02:00</time>
      </trkpt>
      <trkpt lat="44.03611" lon="3.51663">
        <ele>1259</ele>
        <time>2021-05-14T13:29:50+02:00</time>
      </trkpt>
      <trkpt lat="44.03594" lon="3.5167">
        <ele>1260</ele>
        <time>2021-05-14T13:30:02+02:00</time>
      </trkpt>
      <trkpt lat="44.03572" lon="3.51676">
        <ele>1263</ele>
        <time>2021-05-14T13:30:16+02:00</time>
      </trkpt>
      <trkpt lat="44.03573" lon="3.51705">
        <ele>1263</ele>
        <time>2021-05-14T13:30:46+02:00</time>
      </trkpt>
      <trkpt lat="44.03578" lon="3.51734">
        <ele>1261</ele>
        <time>2021-05-14T13:31:02+02:00</time>
      </trkpt>
      <trkpt lat="44.03589" lon="3.51762">
        <ele>1259</ele>
        <time>2021-05-14T13:31:18+02:00</time>
      </trkpt>
      <trkpt lat="44.03597" lon="3.51781">
        <ele>1258</ele>
        <time>2021-05-14T13:31:30+02:00</time>
      </trkpt>
      <trkpt lat="44.03601" lon="3.51805">
        <ele>1258</ele>
        <time>2021-05-14T13:31:43+02:00</time>
      </trkpt>
      <trkpt lat="44.03595" lon="3.51834">
        <ele>1258</ele>
        <time>2021-05-14T13:31:59+02:00</time>
      </trkpt>
      <trkpt lat="44.0358" lon="3.51847">
        <ele>1259</ele>
        <time>2021-05-14T13:32:11+02:00</time>
      </trkpt>
      <trkpt lat="44.03567" lon="3.5186">
        <ele>1260</ele>
        <time>2021-05-14T13:32:22+02:00</time>
      </trkpt>
      <trkpt lat="44.0355" lon="3.51877">
        <ele>1262</ele>
        <time>2021-05-14T13:32:35+02:00</time>
      </trkpt>
      <trkpt lat="44.03535" lon="3.51893">
        <ele>1263</ele>
        <time>2021-05-14T13:32:47+02:00</time>
      </trkpt>
      <trkpt lat="44.0352" lon="3.51907">
        <ele>1264</ele>
        <time>2021-05-14T13:32:59+02:00</time>
      </trkpt>
      <trkpt lat="44.03501" lon="3.51922">
        <ele>1265</ele>
        <time>2021-05-14T13:33:13+02:00</time>
      </trkpt>
      <trkpt lat="44.03485" lon="3.51933">
        <ele>1266</ele>
        <time>2021-05-14T13:33:24+02:00</time>
      </trkpt>
      <trkpt lat="44.03469" lon="3.51944">
        <ele>1267</ele>
        <time>2021-05-14T13:33:36+02:00</time>
      </trkpt>
      <trkpt lat="44.03451" lon="3.51954">
        <ele>1267</ele>
        <time>2021-05-14T13:33:48+02:00</time>
      </trkpt>
      <trkpt lat="44.03434" lon="3.51959">
        <ele>1268</ele>
        <time>2021-05-14T13:34:00+02:00</time>
      </trkpt>
      <trkpt lat="44.03417" lon="3.51964">
        <ele>1269</ele>
        <time>2021-05-14T13:34:12+02:00</time>
      </trkpt>
      <trkpt lat="44.03399" lon="3.51967">
        <ele>1271</ele>
        <time>2021-05-14T13:34:24+02:00</time>
      </trkpt>
      <trkpt lat="44.0338" lon="3.51971">
        <ele>1273</ele>
        <time>2021-05-14T13:34:35+02:00</time>
      </trkpt>
      <trkpt lat="44.03364" lon="3.51978">
        <ele>1274</ele>
        <time>2021-05-14T13:34:46+02:00</time>
      </trkpt>
      <trkpt lat="44.03346" lon="3.51985">
        <ele>1275</ele>
        <time>2021-05-14T13:34:57+02:00</time>
      </trkpt>
      <trkpt lat="44.0333" lon="3.51992">
        <ele>1276</ele>
        <time>2021-05-14T13:35:08+02:00</time>
      </trkpt>
      <trkpt lat="44.03313" lon="3.51992">
        <ele>1277</ele>
        <time>2021-05-14T13:35:19+02:00</time>
      </trkpt>
      <trkpt lat="44.03295" lon="3.5199">
        <ele>1279</ele>
        <time>2021-05-14T13:35:31+02:00</time>
      </trkpt>
      <trkpt lat="44.03275" lon="3.51994">
        <ele>1279</ele>
        <time>2021-05-14T13:35:43+02:00</time>
      </trkpt>
      <trkpt lat="44.03258" lon="3.51997">
        <ele>1279</ele>
        <time>2021-05-14T13:35:54+02:00</time>
      </trkpt>
      <trkpt lat="44.0324" lon="3.51999">
        <ele>1280</ele>
        <time>2021-05-14T13:36:06+02:00</time>
      </trkpt>
      <trkpt lat="44.03223" lon="3.51995">
        <ele>1282</ele>
        <time>2021-05-14T13:36:18+02:00</time>
      </trkpt>
      <trkpt lat="44.03204" lon="3.51993">
        <ele>1284</ele>
        <time>2021-05-14T13:36:30+02:00</time>
      </trkpt>
      <trkpt lat="44.03185" lon="3.5199">
        <ele>1286</ele>
        <time>2021-05-14T13:36:42+02:00</time>
      </trkpt>
      <trkpt lat="44.03167" lon="3.51991">
        <ele>1286</ele>
        <time>2021-05-14T13:36:54+02:00</time>
      </trkpt>
      <trkpt lat="44.0315" lon="3.51991">
        <ele>1287</ele>
        <time>2021-05-14T13:37:05+02:00</time>
      </trkpt>
      <trkpt lat="44.03132" lon="3.51992">
        <ele>1287</ele>
        <time>2021-05-14T13:37:17+02:00</time>
      </trkpt>
      <trkpt lat="44.03114" lon="3.51992">
        <ele>1288</ele>
        <time>2021-05-14T13:37:28+02:00</time>
      </trkpt>
      <trkpt lat="44.03096" lon="3.51987">
        <ele>1290</ele>
        <time>2021-05-14T13:37:40+02:00</time>
      </trkpt>
      <trkpt lat="44.0308" lon="3.51983">
        <ele>1292</ele>
        <time>2021-05-14T13:37:52+02:00</time>
      </trkpt>
      <trkpt lat="44.03062" lon="3.51977">
        <ele>1294</ele>
        <time>2021-05-14T13:38:04+02:00</time>
      </trkpt>
      <trkpt lat="44.03041" lon="3.51969">
        <ele>1295</ele>
        <time>2021-05-14T13:38:18+02:00</time>
      </trkpt>
      <trkpt lat="44.03024" lon="3.51964">
        <ele>1297</ele>
        <time>2021-05-14T13:38:29+02:00</time>
      </trkpt>
      <trkpt lat="44.03008" lon="3.51959">
        <ele>1298</ele>
        <time>2021-05-14T13:38:41+02:00</time>
      </trkpt>
      <trkpt lat="44.02991" lon="3.51955">
        <ele>1298</ele>
        <time>2021-05-14T13:38:51+02:00</time>
      </trkpt>
      <trkpt lat="44.02974" lon="3.51945">
        <ele>1299</ele>
        <time>2021-05-14T13:39:03+02:00</time>
      </trkpt>
      <trkpt lat="44.02957" lon="3.51937">
        <ele>1300</ele>
        <time>2021-05-14T13:39:15+02:00</time>
      </trkpt>
      <trkpt lat="44.0294" lon="3.51934">
        <ele>1300</ele>
        <time>2021-05-14T13:39:28+02:00</time>
      </trkpt>
      <trkpt lat="44.02925" lon="3.51924">
        <ele>1300</ele>
        <time>2021-05-14T13:39:39+02:00</time>
      </trkpt>
      <trkpt lat="44.02907" lon="3.51919">
        <ele>1301</ele>
        <time>2021-05-14T13:39:50+02:00</time>
      </trkpt>
      <trkpt lat="44.0289" lon="3.51912">
        <ele>1302</ele>
        <time>2021-05-14T13:40:01+02:00</time>
      </trkpt>
      <trkpt lat="44.02875" lon="3.51902">
        <ele>1304</ele>
        <time>2021-05-14T13:40:11+02:00</time>
      </trkpt>
      <trkpt lat="44.02859" lon="3.5189">
        <ele>1305</ele>
        <time>2021-05-14T13:40:23+02:00</time>
      </trkpt>
      <trkpt lat="44.02845" lon="3.51877">
        <ele>1306</ele>
        <time>2021-05-14T13:40:34+02:00</time>
      </trkpt>
      <trkpt lat="44.02833" lon="3.51858">
        <ele>1308</ele>
        <time>2021-05-14T13:40:45+02:00</time>
      </trkpt>
      <trkpt lat="44.02822" lon="3.51839">
        <ele>1308</ele>
        <time>2021-05-14T13:40:57+02:00</time>
      </trkpt>
      <trkpt lat="44.02816" lon="3.51836">
        <ele>1307</ele>
        <time>2021-05-14T13:41:01+02:00</time>
      </trkpt>
      <trkpt lat="44.02797" lon="3.51828">
        <ele>1304</ele>
        <time>2021-05-14T13:41:14+02:00</time>
      </trkpt>
      <trkpt lat="44.02776" lon="3.51819">
        <ele>1301</ele>
        <time>2021-05-14T13:41:30+02:00</time>
      </trkpt>
      <trkpt lat="44.02758" lon="3.51803">
        <ele>1300</ele>
        <time>2021-05-14T13:41:59+02:00</time>
      </trkpt>
      <trkpt lat="44.02749" lon="3.51779">
        <ele>1301</ele>
        <time>2021-05-14T13:42:27+02:00</time>
      </trkpt>
      <trkpt lat="44.02743" lon="3.51749">
        <ele>1304</ele>
        <time>2021-05-14T13:42:44+02:00</time>
      </trkpt>
      <trkpt lat="44.02732" lon="3.51724">
        <ele>1304</ele>
        <time>2021-05-14T13:43:06+02:00</time>
      </trkpt>
      <trkpt lat="44.02724" lon="3.51695">
        <ele>1305</ele>
        <time>2021-05-14T13:43:55+02:00</time>
      </trkpt>
      <trkpt lat="44.02717" lon="3.51666">
        <ele>1306</ele>
        <time>2021-05-14T13:44:12+02:00</time>
      </trkpt>
      <trkpt lat="44.02721" lon="3.51636">
        <ele>1309</ele>
        <time>2021-05-14T13:44:28+02:00</time>
      </trkpt>
      <trkpt lat="44.02732" lon="3.51617">
        <ele>1311</ele>
        <time>2021-05-14T13:44:40+02:00</time>
      </trkpt>
      <trkpt lat="44.02741" lon="3.5159">
        <ele>1314</ele>
        <time>2021-05-14T13:44:56+02:00</time>
      </trkpt>
      <trkpt lat="44.02737" lon="3.5156">
        <ele>1315</ele>
        <time>2021-05-14T13:45:13+02:00</time>
      </trkpt>
      <trkpt lat="44.02733" lon="3.51536">
        <ele>1315</ele>
        <time>2021-05-14T13:45:25+02:00</time>
      </trkpt>
      <trkpt lat="44.02728" lon="3.51512">
        <ele>1315</ele>
        <time>2021-05-14T13:45:37+02:00</time>
      </trkpt>
      <trkpt lat="44.02719" lon="3.51485">
        <ele>1315</ele>
        <time>2021-05-14T13:45:54+02:00</time>
      </trkpt>
      <trkpt lat="44.02708" lon="3.5146">
        <ele>1315</ele>
        <time>2021-05-14T13:46:08+02:00</time>
      </trkpt>
      <trkpt lat="44.02701" lon="3.51438">
        <ele>1315</ele>
        <time>2021-05-14T13:46:19+02:00</time>
      </trkpt>
      <trkpt lat="44.0269" lon="3.51419">
        <ele>1314</ele>
        <time>2021-05-14T13:46:31+02:00</time>
      </trkpt>
      <trkpt lat="44.02682" lon="3.51397">
        <ele>1314</ele>
        <time>2021-05-14T13:46:43+02:00</time>
      </trkpt>
      <trkpt lat="44.02678" lon="3.51374">
        <ele>1315</ele>
        <time>2021-05-14T13:46:55+02:00</time>
      </trkpt>
      <trkpt lat="44.02672" lon="3.51345">
        <ele>1315</ele>
        <time>2021-05-14T13:47:11+02:00</time>
      </trkpt>
      <trkpt lat="44.02678" lon="3.51317">
        <ele>1316</ele>
        <time>2021-05-14T13:47:36+02:00</time>
      </trkpt>
      <trkpt lat="44.02693" lon="3.51302">
        <ele>1319</ele>
        <time>2021-05-14T13:47:58+02:00</time>
      </trkpt>
      <trkpt lat="44.02691" lon="3.51273">
        <ele>1315</ele>
        <time>2021-05-14T13:48:19+02:00</time>
      </trkpt>
      <trkpt lat="44.02691" lon="3.51243">
        <ele>1311</ele>
        <time>2021-05-14T13:48:45+02:00</time>
      </trkpt>
      <trkpt lat="44.02703" lon="3.51217">
        <ele>1309</ele>
        <time>2021-05-14T13:48:57+02:00</time>
      </trkpt>
      <trkpt lat="44.02714" lon="3.51199">
        <ele>1308</ele>
        <time>2021-05-14T13:49:06+02:00</time>
      </trkpt>
      <trkpt lat="44.02727" lon="3.51176">
        <ele>1308</ele>
        <time>2021-05-14T13:49:20+02:00</time>
      </trkpt>
      <trkpt lat="44.02736" lon="3.51147">
        <ele>1303</ele>
        <time>2021-05-14T13:49:37+02:00</time>
      </trkpt>
      <trkpt lat="44.02743" lon="3.51119">
        <ele>1297</ele>
        <time>2021-05-14T13:49:51+02:00</time>
      </trkpt>
      <trkpt lat="44.02753" lon="3.51099">
        <ele>1294</ele>
        <time>2021-05-14T13:50:01+02:00</time>
      </trkpt>
      <trkpt lat="44.02764" lon="3.5108">
        <ele>1291</ele>
        <time>2021-05-14T13:50:12+02:00</time>
      </trkpt>
      <trkpt lat="44.02778" lon="3.51064">
        <ele>1289</ele>
        <time>2021-05-14T13:50:21+02:00</time>
      </trkpt>
      <trkpt lat="44.02791" lon="3.51052">
        <ele>1288</ele>
        <time>2021-05-14T13:50:31+02:00</time>
      </trkpt>
      <trkpt lat="44.02807" lon="3.51037">
        <ele>1286</ele>
        <time>2021-05-14T13:50:42+02:00</time>
      </trkpt>
      <trkpt lat="44.0282" lon="3.51022">
        <ele>1284</ele>
        <time>2021-05-14T13:50:52+02:00</time>
      </trkpt>
      <trkpt lat="44.02833" lon="3.51006">
        <ele>1281</ele>
        <time>2021-05-14T13:51:02+02:00</time>
      </trkpt>
      <trkpt lat="44.02848" lon="3.50995">
        <ele>1278</ele>
        <time>2021-05-14T13:51:11+02:00</time>
      </trkpt>
      <trkpt lat="44.02869" lon="3.50989">
        <ele>1277</ele>
        <time>2021-05-14T13:51:30+02:00</time>
      </trkpt>
      <trkpt lat="44.02885" lon="3.50982">
        <ele>1275</ele>
        <time>2021-05-14T13:51:41+02:00</time>
      </trkpt>
      <trkpt lat="44.02906" lon="3.50971">
        <ele>1272</ele>
        <time>2021-05-14T13:51:53+02:00</time>
      </trkpt>
      <trkpt lat="44.02921" lon="3.50959">
        <ele>1270</ele>
        <time>2021-05-14T13:52:06+02:00</time>
      </trkpt>
      <trkpt lat="44.02943" lon="3.50957">
        <ele>1271</ele>
        <time>2021-05-14T13:52:24+02:00</time>
      </trkpt>
      <trkpt lat="44.02963" lon="3.50947">
        <ele>1270</ele>
        <time>2021-05-14T13:52:47+02:00</time>
      </trkpt>
      <trkpt lat="44.02981" lon="3.50937">
        <ele>1269</ele>
        <time>2021-05-14T13:53:28+02:00</time>
      </trkpt>
      <trkpt lat="44.02996" lon="3.50925">
        <ele>1267</ele>
        <time>2021-05-14T13:53:41+02:00</time>
      </trkpt>
      <trkpt lat="44.03011" lon="3.50906">
        <ele>1267</ele>
        <time>2021-05-14T13:54:01+02:00</time>
      </trkpt>
      <trkpt lat="44.03025" lon="3.50885">
        <ele>1268</ele>
        <time>2021-05-14T13:54:47+02:00</time>
      </trkpt>
      <trkpt lat="44.03009" lon="3.50869">
        <ele>1261</ele>
        <time>2021-05-14T13:55:45+02:00</time>
      </trkpt>
      <trkpt lat="44.02992" lon="3.50858">
        <ele>1255</ele>
        <time>2021-05-14T13:56:08+02:00</time>
      </trkpt>
      <trkpt lat="44.02974" lon="3.50846">
        <ele>1248</ele>
        <time>2021-05-14T13:56:41+02:00</time>
      </trkpt>
      <trkpt lat="44.02954" lon="3.50832">
        <ele>1240</ele>
        <time>2021-05-14T13:56:57+02:00</time>
      </trkpt>
      <trkpt lat="44.02936" lon="3.50824">
        <ele>1235</ele>
        <time>2021-05-14T13:57:10+02:00</time>
      </trkpt>
      <trkpt lat="44.02918" lon="3.5081">
        <ele>1229</ele>
        <time>2021-05-14T13:57:30+02:00</time>
      </trkpt>
      <trkpt lat="44.02903" lon="3.50804">
        <ele>1227</ele>
        <time>2021-05-14T13:58:10+02:00</time>
      </trkpt>
      <trkpt lat="44.02886" lon="3.50793">
        <ele>1225</ele>
        <time>2021-05-14T13:58:28+02:00</time>
      </trkpt>
      <trkpt lat="44.02871" lon="3.50781">
        <ele>1222</ele>
        <time>2021-05-14T13:58:43+02:00</time>
      </trkpt>
      <trkpt lat="44.02854" lon="3.50774">
        <ele>1220</ele>
        <time>2021-05-14T13:58:57+02:00</time>
      </trkpt>
      <trkpt lat="44.02838" lon="3.50768">
        <ele>1217</ele>
        <time>2021-05-14T13:59:10+02:00</time>
      </trkpt>
      <trkpt lat="44.02819" lon="3.50755">
        <ele>1213</ele>
        <time>2021-05-14T13:59:27+02:00</time>
      </trkpt>
      <trkpt lat="44.02802" lon="3.50735">
        <ele>1210</ele>
        <time>2021-05-14T13:59:44+02:00</time>
      </trkpt>
      <trkpt lat="44.02784" lon="3.5072">
        <ele>1207</ele>
        <time>2021-05-14T14:00:02+02:00</time>
      </trkpt>
      <trkpt lat="44.02767" lon="3.507">
        <ele>1203</ele>
        <time>2021-05-14T14:00:21+02:00</time>
      </trkpt>
      <trkpt lat="44.02766" lon="3.50691">
        <ele>1202</ele>
        <time>2021-05-14T14:00:30+02:00</time>
      </trkpt>
      <trkpt lat="44.02745" lon="3.50686">
        <ele>1198</ele>
        <time>2021-05-14T14:01:35+02:00</time>
      </trkpt>
      <trkpt lat="44.02725" lon="3.50695">
        <ele>1196</ele>
        <time>2021-05-14T14:01:59+02:00</time>
      </trkpt>
      <trkpt lat="44.02708" lon="3.50711">
        <ele>1194</ele>
        <time>2021-05-14T14:02:23+02:00</time>
      </trkpt>
      <trkpt lat="44.02689" lon="3.50717">
        <ele>1191</ele>
        <time>2021-05-14T14:02:49+02:00</time>
      </trkpt>
      <trkpt lat="44.02672" lon="3.50734">
        <ele>1189</ele>
        <time>2021-05-14T14:03:17+02:00</time>
      </trkpt>
      <trkpt lat="44.02652" lon="3.50744">
        <ele>1186</ele>
        <time>2021-05-14T14:03:37+02:00</time>
      </trkpt>
      <trkpt lat="44.02632" lon="3.50748">
        <ele>1184</ele>
        <time>2021-05-14T14:03:59+02:00</time>
      </trkpt>
      <trkpt lat="44.02616" lon="3.50743">
        <ele>1182</ele>
        <time>2021-05-14T14:04:20+02:00</time>
      </trkpt>
      <trkpt lat="44.026" lon="3.5073">
        <ele>1179</ele>
        <time>2021-05-14T14:04:35+02:00</time>
      </trkpt>
      <trkpt lat="44.02583" lon="3.50723">
        <ele>1177</ele>
        <time>2021-05-14T14:04:51+02:00</time>
      </trkpt>
      <trkpt lat="44.02566" lon="3.50717">
        <ele>1175</ele>
        <time>2021-05-14T14:05:00+02:00</time>
      </trkpt>
      <trkpt lat="44.02544" lon="3.5071">
        <ele>1173</ele>
        <time>2021-05-14T14:05:19+02:00</time>
      </trkpt>
      <trkpt lat="44.02522" lon="3.50704">
        <ele>1171</ele>
        <time>2021-05-14T14:05:36+02:00</time>
      </trkpt>
      <trkpt lat="44.02505" lon="3.50702">
        <ele>1169</ele>
        <time>2021-05-14T14:05:48+02:00</time>
      </trkpt>
      <trkpt lat="44.02488" lon="3.50703">
        <ele>1168</ele>
        <time>2021-05-14T14:06:01+02:00</time>
      </trkpt>
      <trkpt lat="44.0247" lon="3.50706">
        <ele>1168</ele>
        <time>2021-05-14T14:06:12+02:00</time>
      </trkpt>
      <trkpt lat="44.02454" lon="3.50708">
        <ele>1168</ele>
        <time>2021-05-14T14:06:27+02:00</time>
      </trkpt>
      <trkpt lat="44.02436" lon="3.50708">
        <ele>1167</ele>
        <time>2021-05-14T14:06:39+02:00</time>
      </trkpt>
      <trkpt lat="44.02419" lon="3.50708">
        <ele>1166</ele>
        <time>2021-05-14T14:06:54+02:00</time>
      </trkpt>
      <trkpt lat="44.02401" lon="3.50707">
        <ele>1164</ele>
        <time>2021-05-14T14:07:06+02:00</time>
      </trkpt>
      <trkpt lat="44.02383" lon="3.50712">
        <ele>1163</ele>
        <time>2021-05-14T14:07:18+02:00</time>
      </trkpt>
      <trkpt lat="44.02362" lon="3.50713">
        <ele>1162</ele>
        <time>2021-05-14T14:07:36+02:00</time>
      </trkpt>
      <trkpt lat="44.0234" lon="3.50717">
        <ele>1160</ele>
        <time>2021-05-14T14:07:53+02:00</time>
      </trkpt>
      <trkpt lat="44.02319" lon="3.5071">
        <ele>1158</ele>
        <time>2021-05-14T14:08:12+02:00</time>
      </trkpt>
      <trkpt lat="44.023" lon="3.50711">
        <ele>1156</ele>
        <time>2021-05-14T14:08:27+02:00</time>
      </trkpt>
      <trkpt lat="44.02279" lon="3.50712">
        <ele>1154</ele>
        <time>2021-05-14T14:08:42+02:00</time>
      </trkpt>
      <trkpt lat="44.02263" lon="3.50717">
        <ele>1154</ele>
        <time>2021-05-14T14:08:55+02:00</time>
      </trkpt>
      <trkpt lat="44.02245" lon="3.50721">
        <ele>1153</ele>
        <time>2021-05-14T14:09:08+02:00</time>
      </trkpt>
      <trkpt lat="44.02224" lon="3.5073">
        <ele>1151</ele>
        <time>2021-05-14T14:09:25+02:00</time>
      </trkpt>
      <trkpt lat="44.02204" lon="3.50727">
        <ele>1148</ele>
        <time>2021-05-14T14:09:38+02:00</time>
      </trkpt>
      <trkpt lat="44.02182" lon="3.50729">
        <ele>1145</ele>
        <time>2021-05-14T14:09:56+02:00</time>
      </trkpt>
      <trkpt lat="44.02165" lon="3.50729">
        <ele>1142</ele>
        <time>2021-05-14T14:10:07+02:00</time>
      </trkpt>
      <trkpt lat="44.02144" lon="3.50738">
        <ele>1141</ele>
        <time>2021-05-14T14:10:20+02:00</time>
      </trkpt>
      <trkpt lat="44.02128" lon="3.50743">
        <ele>1139</ele>
        <time>2021-05-14T14:10:31+02:00</time>
      </trkpt>
      <trkpt lat="44.02111" lon="3.50745">
        <ele>1137</ele>
        <time>2021-05-14T14:10:42+02:00</time>
      </trkpt>
      <trkpt lat="44.02091" lon="3.50743">
        <ele>1133</ele>
        <time>2021-05-14T14:11:10+02:00</time>
      </trkpt>
      <trkpt lat="44.02073" lon="3.50743">
        <ele>1132</ele>
        <time>2021-05-14T14:11:28+02:00</time>
      </trkpt>
      <trkpt lat="44.02051" lon="3.50743">
        <ele>1133</ele>
        <time>2021-05-14T14:11:48+02:00</time>
      </trkpt>
      <trkpt lat="44.02033" lon="3.50739">
        <ele>1132</ele>
        <time>2021-05-14T14:12:01+02:00</time>
      </trkpt>
      <trkpt lat="44.02015" lon="3.5072">
        <ele>1128</ele>
        <time>2021-05-14T14:12:17+02:00</time>
      </trkpt>
      <trkpt lat="44.01997" lon="3.50705">
        <ele>1124</ele>
        <time>2021-05-14T14:12:35+02:00</time>
      </trkpt>
      <trkpt lat="44.01991" lon="3.50681">
        <ele>1117</ele>
        <time>2021-05-14T14:12:50+02:00</time>
      </trkpt>
      <trkpt lat="44.01997" lon="3.50654">
        <ele>1112</ele>
        <time>2021-05-14T14:13:27+02:00</time>
      </trkpt>
      <trkpt lat="44.01984" lon="3.50635">
        <ele>1108</ele>
        <time>2021-05-14T14:15:02+02:00</time>
      </trkpt>
      <trkpt lat="44.01981" lon="3.50629">
        <ele>1107</ele>
        <time>2021-05-14T14:15:08+02:00</time>
      </trkpt>
      <trkpt lat="44.01984" lon="3.50602">
        <ele>1103</ele>
        <time>2021-05-14T14:18:05+02:00</time>
      </trkpt>
      <trkpt lat="44.01979" lon="3.50574">
        <ele>1100</ele>
        <time>2021-05-14T14:18:34+02:00</time>
      </trkpt>
      <trkpt lat="44.0197" lon="3.50552">
        <ele>1100</ele>
        <time>2021-05-14T14:18:55+02:00</time>
      </trkpt>
      <trkpt lat="44.01964" lon="3.5053">
        <ele>1100</ele>
        <time>2021-05-14T14:19:08+02:00</time>
      </trkpt>
      <trkpt lat="44.01954" lon="3.50511">
        <ele>1098</ele>
        <time>2021-05-14T14:19:21+02:00</time>
      </trkpt>
      <trkpt lat="44.01942" lon="3.50485">
        <ele>1096</ele>
        <time>2021-05-14T14:19:38+02:00</time>
      </trkpt>
      <trkpt lat="44.01933" lon="3.50458">
        <ele>1096</ele>
        <time>2021-05-14T14:19:53+02:00</time>
      </trkpt>
      <trkpt lat="44.01936" lon="3.50427">
        <ele>1099</ele>
        <time>2021-05-14T14:20:09+02:00</time>
      </trkpt>
      <trkpt lat="44.01937" lon="3.50398">
        <ele>1100</ele>
        <time>2021-05-14T14:20:25+02:00</time>
      </trkpt>
      <trkpt lat="44.01937" lon="3.50376">
        <ele>1101</ele>
        <time>2021-05-14T14:20:36+02:00</time>
      </trkpt>
      <trkpt lat="44.01943" lon="3.50352">
        <ele>1103</ele>
        <time>2021-05-14T14:20:47+02:00</time>
      </trkpt>
      <trkpt lat="44.01945" lon="3.50326">
        <ele>1104</ele>
        <time>2021-05-14T14:20:59+02:00</time>
      </trkpt>
      <trkpt lat="44.01943" lon="3.50303">
        <ele>1105</ele>
        <time>2021-05-14T14:21:13+02:00</time>
      </trkpt>
      <trkpt lat="44.01941" lon="3.50274">
        <ele>1106</ele>
        <time>2021-05-14T14:21:28+02:00</time>
      </trkpt>
      <trkpt lat="44.0194" lon="3.50249">
        <ele>1107</ele>
        <time>2021-05-14T14:21:41+02:00</time>
      </trkpt>
      <trkpt lat="44.01926" lon="3.50227">
        <ele>1107</ele>
        <time>2021-05-14T14:22:23+02:00</time>
      </trkpt>
      <trkpt lat="44.01908" lon="3.50226">
        <ele>1105</ele>
        <time>2021-05-14T14:22:38+02:00</time>
      </trkpt>
      <trkpt lat="44.01886" lon="3.50224">
        <ele>1106</ele>
        <time>2021-05-14T14:22:58+02:00</time>
      </trkpt>
      <trkpt lat="44.01865" lon="3.50229">
        <ele>1104</ele>
        <time>2021-05-14T14:23:17+02:00</time>
      </trkpt>
      <trkpt lat="44.01847" lon="3.50246">
        <ele>1099</ele>
        <time>2021-05-14T14:23:35+02:00</time>
      </trkpt>
      <trkpt lat="44.0183" lon="3.50254">
        <ele>1097</ele>
        <time>2021-05-14T14:23:46+02:00</time>
      </trkpt>
      <trkpt lat="44.01812" lon="3.50271">
        <ele>1096</ele>
        <time>2021-05-14T14:24:02+02:00</time>
      </trkpt>
      <trkpt lat="44.01794" lon="3.50287">
        <ele>1094</ele>
        <time>2021-05-14T14:24:18+02:00</time>
      </trkpt>
      <trkpt lat="44.0178" lon="3.50298">
        <ele>1093</ele>
        <time>2021-05-14T14:24:35+02:00</time>
      </trkpt>
      <trkpt lat="44.01764" lon="3.5031">
        <ele>1091</ele>
        <time>2021-05-14T14:24:48+02:00</time>
      </trkpt>
      <trkpt lat="44.01748" lon="3.50317">
        <ele>1091</ele>
        <time>2021-05-14T14:25:00+02:00</time>
      </trkpt>
      <trkpt lat="44.01732" lon="3.50328">
        <ele>1087</ele>
        <time>2021-05-14T14:25:15+02:00</time>
      </trkpt>
      <trkpt lat="44.01717" lon="3.50349">
        <ele>1082</ele>
        <time>2021-05-14T14:25:33+02:00</time>
      </trkpt>
      <trkpt lat="44.01698" lon="3.5036">
        <ele>1079</ele>
        <time>2021-05-14T14:26:50+02:00</time>
      </trkpt>
      <trkpt lat="44.01678" lon="3.50371">
        <ele>1076</ele>
        <time>2021-05-14T14:27:11+02:00</time>
      </trkpt>
      <trkpt lat="44.01661" lon="3.50372">
        <ele>1075</ele>
        <time>2021-05-14T14:27:23+02:00</time>
      </trkpt>
      <trkpt lat="44.01644" lon="3.50371">
        <ele>1071</ele>
        <time>2021-05-14T14:27:37+02:00</time>
      </trkpt>
      <trkpt lat="44.01625" lon="3.50356">
        <ele>1070</ele>
        <time>2021-05-14T14:27:55+02:00</time>
      </trkpt>
      <trkpt lat="44.01612" lon="3.5034">
        <ele>1071</ele>
        <time>2021-05-14T14:28:12+02:00</time>
      </trkpt>
      <trkpt lat="44.01594" lon="3.50324">
        <ele>1071</ele>
        <time>2021-05-14T14:28:26+02:00</time>
      </trkpt>
      <trkpt lat="44.01576" lon="3.50304">
        <ele>1074</ele>
        <time>2021-05-14T14:28:47+02:00</time>
      </trkpt>
      <trkpt lat="44.01556" lon="3.50297">
        <ele>1072</ele>
        <time>2021-05-14T14:29:25+02:00</time>
      </trkpt>
      <trkpt lat="44.01537" lon="3.50292">
        <ele>1069</ele>
        <time>2021-05-14T14:30:00+02:00</time>
      </trkpt>
      <trkpt lat="44.01522" lon="3.50282">
        <ele>1069</ele>
        <time>2021-05-14T14:30:13+02:00</time>
      </trkpt>
      <trkpt lat="44.01506" lon="3.50273">
        <ele>1068</ele>
        <time>2021-05-14T14:30:24+02:00</time>
      </trkpt>
      <trkpt lat="44.01487" lon="3.50259">
        <ele>1070</ele>
        <time>2021-05-14T14:30:40+02:00</time>
      </trkpt>
      <trkpt lat="44.01472" lon="3.5025">
        <ele>1070</ele>
        <time>2021-05-14T14:30:52+02:00</time>
      </trkpt>
      <trkpt lat="44.01455" lon="3.50242">
        <ele>1071</ele>
        <time>2021-05-14T14:31:05+02:00</time>
      </trkpt>
      <trkpt lat="44.0144" lon="3.50231">
        <ele>1073</ele>
        <time>2021-05-14T14:31:44+02:00</time>
      </trkpt>
      <trkpt lat="44.01424" lon="3.50221">
        <ele>1075</ele>
        <time>2021-05-14T14:31:59+02:00</time>
      </trkpt>
      <trkpt lat="44.01409" lon="3.50211">
        <ele>1077</ele>
        <time>2021-05-14T14:32:14+02:00</time>
      </trkpt>
      <trkpt lat="44.01387" lon="3.50207">
        <ele>1079</ele>
        <time>2021-05-14T14:32:36+02:00</time>
      </trkpt>
      <trkpt lat="44.0137" lon="3.50211">
        <ele>1077</ele>
        <time>2021-05-14T14:32:50+02:00</time>
      </trkpt>
      <trkpt lat="44.01353" lon="3.50212">
        <ele>1076</ele>
        <time>2021-05-14T14:33:06+02:00</time>
      </trkpt>
      <trkpt lat="44.01332" lon="3.50222">
        <ele>1072</ele>
        <time>2021-05-14T14:33:27+02:00</time>
      </trkpt>
      <trkpt lat="44.01313" lon="3.50221">
        <ele>1072</ele>
        <time>2021-05-14T14:33:38+02:00</time>
      </trkpt>
      <trkpt lat="44.01293" lon="3.50215">
        <ele>1074</ele>
        <time>2021-05-14T14:33:50+02:00</time>
      </trkpt>
      <trkpt lat="44.01272" lon="3.50205">
        <ele>1077</ele>
        <time>2021-05-14T14:34:06+02:00</time>
      </trkpt>
      <trkpt lat="44.01254" lon="3.5019">
        <ele>1082</ele>
        <time>2021-05-14T14:34:23+02:00</time>
      </trkpt>
      <trkpt lat="44.01237" lon="3.50171">
        <ele>1085</ele>
        <time>2021-05-14T14:34:40+02:00</time>
      </trkpt>
      <trkpt lat="44.01223" lon="3.50152">
        <ele>1085</ele>
        <time>2021-05-14T14:34:55+02:00</time>
      </trkpt>
      <trkpt lat="44.01212" lon="3.50134">
        <ele>1085</ele>
        <time>2021-05-14T14:35:09+02:00</time>
      </trkpt>
      <trkpt lat="44.01204" lon="3.50113">
        <ele>1086</ele>
        <time>2021-05-14T14:35:24+02:00</time>
      </trkpt>
      <trkpt lat="44.01199" lon="3.50089">
        <ele>1088</ele>
        <time>2021-05-14T14:35:39+02:00</time>
      </trkpt>
      <trkpt lat="44.01195" lon="3.50066">
        <ele>1090</ele>
        <time>2021-05-14T14:35:51+02:00</time>
      </trkpt>
      <trkpt lat="44.01197" lon="3.50037">
        <ele>1095</ele>
        <time>2021-05-14T14:36:29+02:00</time>
      </trkpt>
      <trkpt lat="44.01203" lon="3.50007">
        <ele>1101</ele>
        <time>2021-05-14T14:36:50+02:00</time>
      </trkpt>
      <trkpt lat="44.01207" lon="3.49985">
        <ele>1103</ele>
        <time>2021-05-14T14:37:02+02:00</time>
      </trkpt>
      <trkpt lat="44.01209" lon="3.49955">
        <ele>1104</ele>
        <time>2021-05-14T14:37:19+02:00</time>
      </trkpt>
      <trkpt lat="44.0121" lon="3.49931">
        <ele>1104</ele>
        <time>2021-05-14T14:37:32+02:00</time>
      </trkpt>
      <trkpt lat="44.01219" lon="3.49903">
        <ele>1106</ele>
        <time>2021-05-14T14:37:49+02:00</time>
      </trkpt>
      <trkpt lat="44.0124" lon="3.49893">
        <ele>1110</ele>
        <time>2021-05-14T14:38:07+02:00</time>
      </trkpt>
      <trkpt lat="44.01256" lon="3.49877">
        <ele>1114</ele>
        <time>2021-05-14T14:38:24+02:00</time>
      </trkpt>
      <trkpt lat="44.01264" lon="3.49849">
        <ele>1116</ele>
        <time>2021-05-14T14:38:41+02:00</time>
      </trkpt>
      <trkpt lat="44.01272" lon="3.49829">
        <ele>1119</ele>
        <time>2021-05-14T14:38:54+02:00</time>
      </trkpt>
      <trkpt lat="44.01288" lon="3.49806">
        <ele>1122</ele>
        <time>2021-05-14T14:39:12+02:00</time>
      </trkpt>
      <trkpt lat="44.01307" lon="3.49791">
        <ele>1127</ele>
        <time>2021-05-14T14:39:28+02:00</time>
      </trkpt>
      <trkpt lat="44.01322" lon="3.4977">
        <ele>1129</ele>
        <time>2021-05-14T14:39:44+02:00</time>
      </trkpt>
      <trkpt lat="44.01325" lon="3.49745">
        <ele>1128</ele>
        <time>2021-05-14T14:39:58+02:00</time>
      </trkpt>
      <trkpt lat="44.01316" lon="3.49724">
        <ele>1128</ele>
        <time>2021-05-14T14:40:10+02:00</time>
      </trkpt>
      <trkpt lat="44.01304" lon="3.49706">
        <ele>1127</ele>
        <time>2021-05-14T14:40:21+02:00</time>
      </trkpt>
      <trkpt lat="44.01292" lon="3.49686">
        <ele>1126</ele>
        <time>2021-05-14T14:40:33+02:00</time>
      </trkpt>
      <trkpt lat="44.0129" lon="3.49655">
        <ele>1126</ele>
        <time>2021-05-14T14:40:48+02:00</time>
      </trkpt>
      <trkpt lat="44.01309" lon="3.4964">
        <ele>1128</ele>
        <time>2021-05-14T14:41:05+02:00</time>
      </trkpt>
      <trkpt lat="44.01325" lon="3.49633">
        <ele>1130</ele>
        <time>2021-05-14T14:41:17+02:00</time>
      </trkpt>
      <trkpt lat="44.01344" lon="3.49626">
        <ele>1131</ele>
        <time>2021-05-14T14:41:29+02:00</time>
      </trkpt>
      <trkpt lat="44.01361" lon="3.49623">
        <ele>1133</ele>
        <time>2021-05-14T14:41:41+02:00</time>
      </trkpt>
      <trkpt lat="44.01377" lon="3.49631">
        <ele>1136</ele>
        <time>2021-05-14T14:41:54+02:00</time>
      </trkpt>
      <trkpt lat="44.01397" lon="3.49645">
        <ele>1141</ele>
        <time>2021-05-14T14:42:09+02:00</time>
      </trkpt>
      <trkpt lat="44.01419" lon="3.49643">
        <ele>1144</ele>
        <time>2021-05-14T14:42:25+02:00</time>
      </trkpt>
      <trkpt lat="44.01435" lon="3.49638">
        <ele>1143</ele>
        <time>2021-05-14T14:42:36+02:00</time>
      </trkpt>
      <trkpt lat="44.01453" lon="3.49635">
        <ele>1142</ele>
        <time>2021-05-14T14:42:48+02:00</time>
      </trkpt>
      <trkpt lat="44.01475" lon="3.49639">
        <ele>1144</ele>
        <time>2021-05-14T14:43:03+02:00</time>
      </trkpt>
      <trkpt lat="44.01496" lon="3.49642">
        <ele>1145</ele>
        <time>2021-05-14T14:43:17+02:00</time>
      </trkpt>
      <trkpt lat="44.01508" lon="3.4966">
        <ele>1148</ele>
        <time>2021-05-14T14:43:29+02:00</time>
      </trkpt>
      <trkpt lat="44.01512" lon="3.49684">
        <ele>1152</ele>
        <time>2021-05-14T14:43:41+02:00</time>
      </trkpt>
      <trkpt lat="44.01528" lon="3.49704">
        <ele>1155</ele>
        <time>2021-05-14T14:43:57+02:00</time>
      </trkpt>
      <trkpt lat="44.01545" lon="3.49712">
        <ele>1157</ele>
        <time>2021-05-14T14:44:09+02:00</time>
      </trkpt>
      <trkpt lat="44.01563" lon="3.49717">
        <ele>1159</ele>
        <time>2021-05-14T14:44:21+02:00</time>
      </trkpt>
      <trkpt lat="44.01581" lon="3.4972">
        <ele>1160</ele>
        <time>2021-05-14T14:44:34+02:00</time>
      </trkpt>
      <trkpt lat="44.01597" lon="3.49724">
        <ele>1162</ele>
        <time>2021-05-14T14:44:47+02:00</time>
      </trkpt>
      <trkpt lat="44.01614" lon="3.49727">
        <ele>1164</ele>
        <time>2021-05-14T14:45:00+02:00</time>
      </trkpt>
      <trkpt lat="44.01636" lon="3.4973">
        <ele>1167</ele>
        <time>2021-05-14T14:45:16+02:00</time>
      </trkpt>
      <trkpt lat="44.01658" lon="3.49726">
        <ele>1167</ele>
        <time>2021-05-14T14:45:32+02:00</time>
      </trkpt>
      <trkpt lat="44.01675" lon="3.49727">
        <ele>1168</ele>
        <time>2021-05-14T14:45:44+02:00</time>
      </trkpt>
      <trkpt lat="44.01697" lon="3.49728">
        <ele>1170</ele>
        <time>2021-05-14T14:46:00+02:00</time>
      </trkpt>
      <trkpt lat="44.01718" lon="3.49737">
        <ele>1173</ele>
        <time>2021-05-14T14:46:18+02:00</time>
      </trkpt>
      <trkpt lat="44.01735" lon="3.49744">
        <ele>1175</ele>
        <time>2021-05-14T14:46:32+02:00</time>
      </trkpt>
      <trkpt lat="44.01752" lon="3.49746">
        <ele>1176</ele>
        <time>2021-05-14T14:46:44+02:00</time>
      </trkpt>
      <trkpt lat="44.01768" lon="3.49743">
        <ele>1176</ele>
        <time>2021-05-14T14:46:56+02:00</time>
      </trkpt>
      <trkpt lat="44.01785" lon="3.49742">
        <ele>1177</ele>
        <time>2021-05-14T14:47:08+02:00</time>
      </trkpt>
      <trkpt lat="44.01807" lon="3.49747">
        <ele>1180</ele>
        <time>2021-05-14T14:47:24+02:00</time>
      </trkpt>
      <trkpt lat="44.01824" lon="3.49754">
        <ele>1182</ele>
        <time>2021-05-14T14:47:36+02:00</time>
      </trkpt>
      <trkpt lat="44.01845" lon="3.49754">
        <ele>1183</ele>
        <time>2021-05-14T14:47:51+02:00</time>
      </trkpt>
      <trkpt lat="44.01863" lon="3.49751">
        <ele>1184</ele>
        <time>2021-05-14T14:48:03+02:00</time>
      </trkpt>
      <trkpt lat="44.01879" lon="3.49773">
        <ele>1187</ele>
        <time>2021-05-14T14:48:19+02:00</time>
      </trkpt>
      <trkpt lat="44.01887" lon="3.49795">
        <ele>1190</ele>
        <time>2021-05-14T14:48:31+02:00</time>
      </trkpt>
      <trkpt lat="44.01907" lon="3.49809">
        <ele>1192</ele>
        <time>2021-05-14T14:48:49+02:00</time>
      </trkpt>
      <trkpt lat="44.01926" lon="3.49802">
        <ele>1192</ele>
        <time>2021-05-14T14:49:15+02:00</time>
      </trkpt>
      <trkpt lat="44.01927" lon="3.49789">
        <ele>1191</ele>
        <time>2021-05-14T14:51:10+02:00</time>
      </trkpt>
      <trkpt lat="44.01946" lon="3.49782">
        <ele>1193</ele>
        <time>2021-05-14T14:51:29+02:00</time>
      </trkpt>
      <trkpt lat="44.01964" lon="3.49783">
        <ele>1195</ele>
        <time>2021-05-14T14:51:44+02:00</time>
      </trkpt>
      <trkpt lat="44.01986" lon="3.49787">
        <ele>1198</ele>
        <time>2021-05-14T14:51:59+02:00</time>
      </trkpt>
      <trkpt lat="44.02007" lon="3.49779">
        <ele>1200</ele>
        <time>2021-05-14T14:52:16+02:00</time>
      </trkpt>
      <trkpt lat="44.02017" lon="3.49759">
        <ele>1203</ele>
        <time>2021-05-14T14:52:29+02:00</time>
      </trkpt>
      <trkpt lat="44.02026" lon="3.49737">
        <ele>1206</ele>
        <time>2021-05-14T14:52:41+02:00</time>
      </trkpt>
      <trkpt lat="44.02034" lon="3.49716">
        <ele>1210</ele>
        <time>2021-05-14T14:52:53+02:00</time>
      </trkpt>
      <trkpt lat="44.02038" lon="3.49692">
        <ele>1213</ele>
        <time>2021-05-14T14:53:05+02:00</time>
      </trkpt>
      <trkpt lat="44.02031" lon="3.49671">
        <ele>1213</ele>
        <time>2021-05-14T14:53:19+02:00</time>
      </trkpt>
      <trkpt lat="44.02021" lon="3.49644">
        <ele>1214</ele>
        <time>2021-05-14T14:53:35+02:00</time>
      </trkpt>
      <trkpt lat="44.02008" lon="3.49621">
        <ele>1214</ele>
        <time>2021-05-14T14:53:51+02:00</time>
      </trkpt>
      <trkpt lat="44.02002" lon="3.49591">
        <ele>1217</ele>
        <time>2021-05-14T14:54:08+02:00</time>
      </trkpt>
      <trkpt lat="44.01995" lon="3.49569">
        <ele>1218</ele>
        <time>2021-05-14T14:54:20+02:00</time>
      </trkpt>
      <trkpt lat="44.01995" lon="3.49539">
        <ele>1221</ele>
        <time>2021-05-14T14:54:36+02:00</time>
      </trkpt>
      <trkpt lat="44.01993" lon="3.49516">
        <ele>1223</ele>
        <time>2021-05-14T14:54:49+02:00</time>
      </trkpt>
      <trkpt lat="44.01986" lon="3.49492">
        <ele>1222</ele>
        <time>2021-05-14T14:55:05+02:00</time>
      </trkpt>
      <trkpt lat="44.01986" lon="3.49468">
        <ele>1222</ele>
        <time>2021-05-14T14:55:18+02:00</time>
      </trkpt>
      <trkpt lat="44.01992" lon="3.4944">
        <ele>1225</ele>
        <time>2021-05-14T14:55:32+02:00</time>
      </trkpt>
      <trkpt lat="44.01997" lon="3.49416">
        <ele>1227</ele>
        <time>2021-05-14T14:55:44+02:00</time>
      </trkpt>
      <trkpt lat="44.02007" lon="3.49388">
        <ele>1233</ele>
        <time>2021-05-14T14:56:01+02:00</time>
      </trkpt>
      <trkpt lat="44.02009" lon="3.49359">
        <ele>1236</ele>
        <time>2021-05-14T14:56:19+02:00</time>
      </trkpt>
      <trkpt lat="44.02001" lon="3.49335">
        <ele>1235</ele>
        <time>2021-05-14T14:56:34+02:00</time>
      </trkpt>
      <trkpt lat="44.01993" lon="3.49313">
        <ele>1233</ele>
        <time>2021-05-14T14:56:45+02:00</time>
      </trkpt>
      <trkpt lat="44.01991" lon="3.49288">
        <ele>1233</ele>
        <time>2021-05-14T14:56:57+02:00</time>
      </trkpt>
      <trkpt lat="44.01997" lon="3.49264">
        <ele>1236</ele>
        <time>2021-05-14T14:57:10+02:00</time>
      </trkpt>
      <trkpt lat="44.02003" lon="3.49241">
        <ele>1237</ele>
        <time>2021-05-14T14:57:22+02:00</time>
      </trkpt>
      <trkpt lat="44.0201" lon="3.49213">
        <ele>1236</ele>
        <time>2021-05-14T14:57:38+02:00</time>
      </trkpt>
      <trkpt lat="44.02023" lon="3.49197">
        <ele>1238</ele>
        <time>2021-05-14T14:57:50+02:00</time>
      </trkpt>
      <trkpt lat="44.02038" lon="3.49185">
        <ele>1241</ele>
        <time>2021-05-14T14:58:01+02:00</time>
      </trkpt>
      <trkpt lat="44.02054" lon="3.49169">
        <ele>1243</ele>
        <time>2021-05-14T14:58:13+02:00</time>
      </trkpt>
      <trkpt lat="44.02066" lon="3.49156">
        <ele>1245</ele>
        <time>2021-05-14T14:58:23+02:00</time>
      </trkpt>
      <trkpt lat="44.0208" lon="3.4914">
        <ele>1247</ele>
        <time>2021-05-14T14:58:33+02:00</time>
      </trkpt>
      <trkpt lat="44.02093" lon="3.49116">
        <ele>1247</ele>
        <time>2021-05-14T14:58:46+02:00</time>
      </trkpt>
      <trkpt lat="44.02102" lon="3.49093">
        <ele>1247</ele>
        <time>2021-05-14T14:58:58+02:00</time>
      </trkpt>
      <trkpt lat="44.02111" lon="3.49065">
        <ele>1249</ele>
        <time>2021-05-14T14:59:15+02:00</time>
      </trkpt>
      <trkpt lat="44.02098" lon="3.49043">
        <ele>1247</ele>
        <time>2021-05-14T14:59:32+02:00</time>
      </trkpt>
      <trkpt lat="44.02079" lon="3.49027">
        <ele>1242</ele>
        <time>2021-05-14T14:59:44+02:00</time>
      </trkpt>
      <trkpt lat="44.02065" lon="3.49003">
        <ele>1239</ele>
        <time>2021-05-14T14:59:57+02:00</time>
      </trkpt>
      <trkpt lat="44.02055" lon="3.48975">
        <ele>1235</ele>
        <time>2021-05-14T15:00:12+02:00</time>
      </trkpt>
      <trkpt lat="44.02058" lon="3.48949">
        <ele>1235</ele>
        <time>2021-05-14T15:00:22+02:00</time>
      </trkpt>
      <trkpt lat="44.02065" lon="3.4892">
        <ele>1237</ele>
        <time>2021-05-14T15:00:34+02:00</time>
      </trkpt>
      <trkpt lat="44.02075" lon="3.489">
        <ele>1238</ele>
        <time>2021-05-14T15:00:45+02:00</time>
      </trkpt>
      <trkpt lat="44.02083" lon="3.48878">
        <ele>1238</ele>
        <time>2021-05-14T15:00:56+02:00</time>
      </trkpt>
      <trkpt lat="44.02094" lon="3.48856">
        <ele>1237</ele>
        <time>2021-05-14T15:01:07+02:00</time>
      </trkpt>
      <trkpt lat="44.02114" lon="3.48846">
        <ele>1239</ele>
        <time>2021-05-14T15:01:21+02:00</time>
      </trkpt>
      <trkpt lat="44.0213" lon="3.48838">
        <ele>1241</ele>
        <time>2021-05-14T15:01:32+02:00</time>
      </trkpt>
      <trkpt lat="44.02146" lon="3.48828">
        <ele>1242</ele>
        <time>2021-05-14T15:01:44+02:00</time>
      </trkpt>
      <trkpt lat="44.02166" lon="3.48815">
        <ele>1243</ele>
        <time>2021-05-14T15:01:57+02:00</time>
      </trkpt>
      <trkpt lat="44.02187" lon="3.48806">
        <ele>1245</ele>
        <time>2021-05-14T15:02:09+02:00</time>
      </trkpt>
      <trkpt lat="44.02204" lon="3.48802">
        <ele>1247</ele>
        <time>2021-05-14T15:02:20+02:00</time>
      </trkpt>
      <trkpt lat="44.02226" lon="3.48794">
        <ele>1249</ele>
        <time>2021-05-14T15:02:37+02:00</time>
      </trkpt>
      <trkpt lat="44.02217" lon="3.48769">
        <ele>1246</ele>
        <time>2021-05-14T15:03:29+02:00</time>
      </trkpt>
      <trkpt lat="44.02198" lon="3.48758">
        <ele>1242</ele>
        <time>2021-05-14T15:03:39+02:00</time>
      </trkpt>
      <trkpt lat="44.02181" lon="3.48743">
        <ele>1237</ele>
        <time>2021-05-14T15:03:47+02:00</time>
      </trkpt>
      <trkpt lat="44.02174" lon="3.48717">
        <ele>1234</ele>
        <time>2021-05-14T15:03:55+02:00</time>
      </trkpt>
      <trkpt lat="44.02181" lon="3.48692">
        <ele>1234</ele>
        <time>2021-05-14T15:04:02+02:00</time>
      </trkpt>
      <trkpt lat="44.02184" lon="3.48661">
        <ele>1234</ele>
        <time>2021-05-14T15:04:11+02:00</time>
      </trkpt>
      <trkpt lat="44.02184" lon="3.48639">
        <ele>1233</ele>
        <time>2021-05-14T15:04:20+02:00</time>
      </trkpt>
      <trkpt lat="44.02184" lon="3.48613">
        <ele>1232</ele>
        <time>2021-05-14T15:04:31+02:00</time>
      </trkpt>
      <trkpt lat="44.0219" lon="3.48592">
        <ele>1233</ele>
        <time>2021-05-14T15:04:40+02:00</time>
      </trkpt>
      <trkpt lat="44.022" lon="3.48571">
        <ele>1233</ele>
        <time>2021-05-14T15:04:51+02:00</time>
      </trkpt>
      <trkpt lat="44.02208" lon="3.48549">
        <ele>1232</ele>
        <time>2021-05-14T15:05:02+02:00</time>
      </trkpt>
      <trkpt lat="44.02219" lon="3.48524">
        <ele>1232</ele>
        <time>2021-05-14T15:05:15+02:00</time>
      </trkpt>
      <trkpt lat="44.02226" lon="3.48502">
        <ele>1232</ele>
        <time>2021-05-14T15:05:27+02:00</time>
      </trkpt>
      <trkpt lat="44.02218" lon="3.48476">
        <ele>1230</ele>
        <time>2021-05-14T15:05:39+02:00</time>
      </trkpt>
      <trkpt lat="44.02211" lon="3.48451">
        <ele>1228</ele>
        <time>2021-05-14T15:05:50+02:00</time>
      </trkpt>
      <trkpt lat="44.02211" lon="3.48427">
        <ele>1228</ele>
        <time>2021-05-14T15:05:57+02:00</time>
      </trkpt>
      <trkpt lat="44.02211" lon="3.48402">
        <ele>1229</ele>
        <time>2021-05-14T15:06:04+02:00</time>
      </trkpt>
      <trkpt lat="44.02208" lon="3.48377">
        <ele>1230</ele>
        <time>2021-05-14T15:06:11+02:00</time>
      </trkpt>
      <trkpt lat="44.02198" lon="3.48352">
        <ele>1231</ele>
        <time>2021-05-14T15:06:20+02:00</time>
      </trkpt>
      <trkpt lat="44.02184" lon="3.4834">
        <ele>1230</ele>
        <time>2021-05-14T15:06:30+02:00</time>
      </trkpt>
      <trkpt lat="44.02173" lon="3.48321">
        <ele>1231</ele>
        <time>2021-05-14T15:06:41+02:00</time>
      </trkpt>
      <trkpt lat="44.02159" lon="3.48307">
        <ele>1232</ele>
        <time>2021-05-14T15:06:53+02:00</time>
      </trkpt>
      <trkpt lat="44.02139" lon="3.48301">
        <ele>1231</ele>
        <time>2021-05-14T15:07:04+02:00</time>
      </trkpt>
      <trkpt lat="44.02118" lon="3.4829">
        <ele>1230</ele>
        <time>2021-05-14T15:07:17+02:00</time>
      </trkpt>
      <trkpt lat="44.02098" lon="3.48279">
        <ele>1230</ele>
        <time>2021-05-14T15:07:29+02:00</time>
      </trkpt>
      <trkpt lat="44.02082" lon="3.48268">
        <ele>1231</ele>
        <time>2021-05-14T15:07:39+02:00</time>
      </trkpt>
      <trkpt lat="44.02065" lon="3.48259">
        <ele>1230</ele>
        <time>2021-05-14T15:07:50+02:00</time>
      </trkpt>
      <trkpt lat="44.02044" lon="3.48252">
        <ele>1229</ele>
        <time>2021-05-14T15:08:06+02:00</time>
      </trkpt>
      <trkpt lat="44.02024" lon="3.48241">
        <ele>1230</ele>
        <time>2021-05-14T15:08:22+02:00</time>
      </trkpt>
      <trkpt lat="44.02007" lon="3.48233">
        <ele>1230</ele>
        <time>2021-05-14T15:08:35+02:00</time>
      </trkpt>
      <trkpt lat="44.01991" lon="3.4822">
        <ele>1233</ele>
        <time>2021-05-14T15:08:46+02:00</time>
      </trkpt>
      <trkpt lat="44.01971" lon="3.48205">
        <ele>1237</ele>
        <time>2021-05-14T15:08:59+02:00</time>
      </trkpt>
      <trkpt lat="44.01952" lon="3.4819">
        <ele>1240</ele>
        <time>2021-05-14T15:09:16+02:00</time>
      </trkpt>
      <trkpt lat="44.01936" lon="3.48182">
        <ele>1241</ele>
        <time>2021-05-14T15:09:28+02:00</time>
      </trkpt>
      <trkpt lat="44.0192" lon="3.48183">
        <ele>1240</ele>
        <time>2021-05-14T15:09:39+02:00</time>
      </trkpt>
      <trkpt lat="44.01901" lon="3.48181">
        <ele>1239</ele>
        <time>2021-05-14T15:09:52+02:00</time>
      </trkpt>
      <trkpt lat="44.01886" lon="3.48178">
        <ele>1239</ele>
        <time>2021-05-14T15:10:01+02:00</time>
      </trkpt>
      <trkpt lat="44.01868" lon="3.48171">
        <ele>1239</ele>
        <time>2021-05-14T15:10:12+02:00</time>
      </trkpt>
      <trkpt lat="44.0185" lon="3.48166">
        <ele>1239</ele>
        <time>2021-05-14T15:10:21+02:00</time>
      </trkpt>
      <trkpt lat="44.01833" lon="3.48162">
        <ele>1238</ele>
        <time>2021-05-14T15:10:31+02:00</time>
      </trkpt>
      <trkpt lat="44.01812" lon="3.4817">
        <ele>1236</ele>
        <time>2021-05-14T15:10:45+02:00</time>
      </trkpt>
      <trkpt lat="44.01794" lon="3.48173">
        <ele>1235</ele>
        <time>2021-05-14T15:10:57+02:00</time>
      </trkpt>
      <trkpt lat="44.01781" lon="3.48151">
        <ele>1236</ele>
        <time>2021-05-14T15:11:13+02:00</time>
      </trkpt>
      <trkpt lat="44.01781" lon="3.48125">
        <ele>1236</ele>
        <time>2021-05-14T15:11:25+02:00</time>
      </trkpt>
      <trkpt lat="44.0179" lon="3.48104">
        <ele>1238</ele>
        <time>2021-05-14T15:11:37+02:00</time>
      </trkpt>
      <trkpt lat="44.01802" lon="3.48087">
        <ele>1241</ele>
        <time>2021-05-14T15:11:50+02:00</time>
      </trkpt>
      <trkpt lat="44.0182" lon="3.4807">
        <ele>1245</ele>
        <time>2021-05-14T15:12:08+02:00</time>
      </trkpt>
      <trkpt lat="44.01826" lon="3.48057">
        <ele>1247</ele>
        <time>2021-05-14T15:12:18+02:00</time>
      </trkpt>
      <trkpt lat="44.01829" lon="3.48032">
        <ele>1249</ele>
        <time>2021-05-14T15:12:32+02:00</time>
      </trkpt>
      <trkpt lat="44.0183" lon="3.48005">
        <ele>1250</ele>
        <time>2021-05-14T15:12:43+02:00</time>
      </trkpt>
      <trkpt lat="44.01831" lon="3.47975">
        <ele>1252</ele>
        <time>2021-05-14T15:12:52+02:00</time>
      </trkpt>
      <trkpt lat="44.01833" lon="3.47945">
        <ele>1254</ele>
        <time>2021-05-14T15:13:01+02:00</time>
      </trkpt>
      <trkpt lat="44.01828" lon="3.47916">
        <ele>1254</ele>
        <time>2021-05-14T15:13:12+02:00</time>
      </trkpt>
      <trkpt lat="44.0181" lon="3.4791">
        <ele>1253</ele>
        <time>2021-05-14T15:13:20+02:00</time>
      </trkpt>
      <trkpt lat="44.01788" lon="3.47917">
        <ele>1248</ele>
        <time>2021-05-14T15:13:30+02:00</time>
      </trkpt>
      <trkpt lat="44.01772" lon="3.47926">
        <ele>1245</ele>
        <time>2021-05-14T15:13:37+02:00</time>
      </trkpt>
      <trkpt lat="44.01753" lon="3.4793">
        <ele>1242</ele>
        <time>2021-05-14T15:13:44+02:00</time>
      </trkpt>
      <trkpt lat="44.01731" lon="3.47929">
        <ele>1240</ele>
        <time>2021-05-14T15:13:52+02:00</time>
      </trkpt>
      <trkpt lat="44.01714" lon="3.4793">
        <ele>1238</ele>
        <time>2021-05-14T15:13:58+02:00</time>
      </trkpt>
      <trkpt lat="44.01693" lon="3.47931">
        <ele>1236</ele>
        <time>2021-05-14T15:14:06+02:00</time>
      </trkpt>
      <trkpt lat="44.01676" lon="3.47931">
        <ele>1235</ele>
        <time>2021-05-14T15:14:15+02:00</time>
      </trkpt>
      <trkpt lat="44.01657" lon="3.47926">
        <ele>1233</ele>
        <time>2021-05-14T15:14:27+02:00</time>
      </trkpt>
      <trkpt lat="44.0164" lon="3.47922">
        <ele>1230</ele>
        <time>2021-05-14T15:14:37+02:00</time>
      </trkpt>
      <trkpt lat="44.01621" lon="3.47913">
        <ele>1228</ele>
        <time>2021-05-14T15:14:49+02:00</time>
      </trkpt>
      <trkpt lat="44.01603" lon="3.47902">
        <ele>1228</ele>
        <time>2021-05-14T15:15:01+02:00</time>
      </trkpt>
      <trkpt lat="44.01583" lon="3.47888">
        <ele>1229</ele>
        <time>2021-05-14T15:15:16+02:00</time>
      </trkpt>
      <trkpt lat="44.0157" lon="3.47873">
        <ele>1231</ele>
        <time>2021-05-14T15:15:27+02:00</time>
      </trkpt>
      <trkpt lat="44.01556" lon="3.47856">
        <ele>1232</ele>
        <time>2021-05-14T15:15:38+02:00</time>
      </trkpt>
      <trkpt lat="44.01538" lon="3.47842">
        <ele>1232</ele>
        <time>2021-05-14T15:15:46+02:00</time>
      </trkpt>
      <trkpt lat="44.01521" lon="3.47831">
        <ele>1231</ele>
        <time>2021-05-14T15:15:53+02:00</time>
      </trkpt>
      <trkpt lat="44.01503" lon="3.4782">
        <ele>1230</ele>
        <time>2021-05-14T15:16:01+02:00</time>
      </trkpt>
      <trkpt lat="44.01486" lon="3.4781">
        <ele>1227</ele>
        <time>2021-05-14T15:16:08+02:00</time>
      </trkpt>
      <trkpt lat="44.01466" lon="3.47797">
        <ele>1223</ele>
        <time>2021-05-14T15:16:18+02:00</time>
      </trkpt>
      <trkpt lat="44.01446" lon="3.47786">
        <ele>1220</ele>
        <time>2021-05-14T15:16:30+02:00</time>
      </trkpt>
      <trkpt lat="44.01429" lon="3.47769">
        <ele>1219</ele>
        <time>2021-05-14T15:16:44+02:00</time>
      </trkpt>
      <trkpt lat="44.01421" lon="3.47748">
        <ele>1223</ele>
        <time>2021-05-14T15:16:56+02:00</time>
      </trkpt>
      <trkpt lat="44.01409" lon="3.47726">
        <ele>1223</ele>
        <time>2021-05-14T15:17:09+02:00</time>
      </trkpt>
      <trkpt lat="44.01394" lon="3.47711">
        <ele>1221</ele>
        <time>2021-05-14T15:17:20+02:00</time>
      </trkpt>
      <trkpt lat="44.01377" lon="3.47701">
        <ele>1217</ele>
        <time>2021-05-14T15:17:32+02:00</time>
      </trkpt>
      <trkpt lat="44.01362" lon="3.47683">
        <ele>1216</ele>
        <time>2021-05-14T15:17:44+02:00</time>
      </trkpt>
      <trkpt lat="44.01364" lon="3.47655">
        <ele>1219</ele>
        <time>2021-05-14T15:17:57+02:00</time>
      </trkpt>
      <trkpt lat="44.01378" lon="3.47637">
        <ele>1221</ele>
        <time>2021-05-14T15:18:05+02:00</time>
      </trkpt>
      <trkpt lat="44.01393" lon="3.47619">
        <ele>1225</ele>
        <time>2021-05-14T15:18:13+02:00</time>
      </trkpt>
      <trkpt lat="44.01404" lon="3.476">
        <ele>1226</ele>
        <time>2021-05-14T15:18:20+02:00</time>
      </trkpt>
      <trkpt lat="44.01414" lon="3.47579">
        <ele>1226</ele>
        <time>2021-05-14T15:18:27+02:00</time>
      </trkpt>
      <trkpt lat="44.01425" lon="3.47556">
        <ele>1225</ele>
        <time>2021-05-14T15:18:35+02:00</time>
      </trkpt>
      <trkpt lat="44.01431" lon="3.47536">
        <ele>1223</ele>
        <time>2021-05-14T15:18:44+02:00</time>
      </trkpt>
      <trkpt lat="44.01441" lon="3.47516">
        <ele>1222</ele>
        <time>2021-05-14T15:18:55+02:00</time>
      </trkpt>
      <trkpt lat="44.01449" lon="3.47493">
        <ele>1221</ele>
        <time>2021-05-14T15:19:06+02:00</time>
      </trkpt>
      <trkpt lat="44.01454" lon="3.47469">
        <ele>1220</ele>
        <time>2021-05-14T15:19:17+02:00</time>
      </trkpt>
      <trkpt lat="44.01463" lon="3.47448">
        <ele>1220</ele>
        <time>2021-05-14T15:19:29+02:00</time>
      </trkpt>
      <trkpt lat="44.01469" lon="3.47422">
        <ele>1218</ele>
        <time>2021-05-14T15:19:39+02:00</time>
      </trkpt>
      <trkpt lat="44.01473" lon="3.47394">
        <ele>1218</ele>
        <time>2021-05-14T15:19:48+02:00</time>
      </trkpt>
      <trkpt lat="44.01472" lon="3.47385">
        <ele>1218</ele>
        <time>2021-05-14T15:19:51+02:00</time>
      </trkpt>
      <trkpt lat="44.01467" lon="3.47364">
        <ele>1216</ele>
        <time>2021-05-14T15:20:00+02:00</time>
      </trkpt>
      <trkpt lat="44.01452" lon="3.47341">
        <ele>1213</ele>
        <time>2021-05-14T15:20:16+02:00</time>
      </trkpt>
      <trkpt lat="44.01432" lon="3.47339">
        <ele>1208</ele>
        <time>2021-05-14T15:20:24+02:00</time>
      </trkpt>
      <trkpt lat="44.01417" lon="3.47331">
        <ele>1205</ele>
        <time>2021-05-14T15:20:30+02:00</time>
      </trkpt>
      <trkpt lat="44.01406" lon="3.47308">
        <ele>1200</ele>
        <time>2021-05-14T15:20:38+02:00</time>
      </trkpt>
      <trkpt lat="44.01408" lon="3.47277">
        <ele>1200</ele>
        <time>2021-05-14T15:20:46+02:00</time>
      </trkpt>
      <trkpt lat="44.0141" lon="3.47248">
        <ele>1200</ele>
        <time>2021-05-14T15:20:54+02:00</time>
      </trkpt>
      <trkpt lat="44.0141" lon="3.47224">
        <ele>1196</ele>
        <time>2021-05-14T15:21:01+02:00</time>
      </trkpt>
      <trkpt lat="44.01414" lon="3.47194">
        <ele>1193</ele>
        <time>2021-05-14T15:21:09+02:00</time>
      </trkpt>
      <trkpt lat="44.01418" lon="3.47164">
        <ele>1190</ele>
        <time>2021-05-14T15:21:17+02:00</time>
      </trkpt>
      <trkpt lat="44.01425" lon="3.47141">
        <ele>1190</ele>
        <time>2021-05-14T15:21:24+02:00</time>
      </trkpt>
      <trkpt lat="44.01433" lon="3.47113">
        <ele>1190</ele>
        <time>2021-05-14T15:21:32+02:00</time>
      </trkpt>
      <trkpt lat="44.01438" lon="3.47083">
        <ele>1188</ele>
        <time>2021-05-14T15:21:40+02:00</time>
      </trkpt>
      <trkpt lat="44.01444" lon="3.47055">
        <ele>1185</ele>
        <time>2021-05-14T15:21:48+02:00</time>
      </trkpt>
      <trkpt lat="44.01453" lon="3.47033">
        <ele>1184</ele>
        <time>2021-05-14T15:21:55+02:00</time>
      </trkpt>
      <trkpt lat="44.01461" lon="3.47007">
        <ele>1182</ele>
        <time>2021-05-14T15:22:03+02:00</time>
      </trkpt>
      <trkpt lat="44.01469" lon="3.46982">
        <ele>1179</ele>
        <time>2021-05-14T15:22:11+02:00</time>
      </trkpt>
      <trkpt lat="44.01478" lon="3.46959">
        <ele>1176</ele>
        <time>2021-05-14T15:22:18+02:00</time>
      </trkpt>
      <trkpt lat="44.01493" lon="3.46938">
        <ele>1178</ele>
        <time>2021-05-14T15:22:26+02:00</time>
      </trkpt>
      <trkpt lat="44.01503" lon="3.46919">
        <ele>1177</ele>
        <time>2021-05-14T15:22:32+02:00</time>
      </trkpt>
      <trkpt lat="44.01515" lon="3.46901">
        <ele>1176</ele>
        <time>2021-05-14T15:22:38+02:00</time>
      </trkpt>
      <trkpt lat="44.01527" lon="3.46877">
        <ele>1175</ele>
        <time>2021-05-14T15:22:46+02:00</time>
      </trkpt>
      <trkpt lat="44.01533" lon="3.46854">
        <ele>1171</ele>
        <time>2021-05-14T15:22:53+02:00</time>
      </trkpt>
      <trkpt lat="44.01533" lon="3.46829">
        <ele>1165</ele>
        <time>2021-05-14T15:23:01+02:00</time>
      </trkpt>
      <trkpt lat="44.01535" lon="3.46801">
        <ele>1158</ele>
        <time>2021-05-14T15:23:09+02:00</time>
      </trkpt>
      <trkpt lat="44.01544" lon="3.46773">
        <ele>1155</ele>
        <time>2021-05-14T15:23:17+02:00</time>
      </trkpt>
      <trkpt lat="44.01558" lon="3.46749">
        <ele>1156</ele>
        <time>2021-05-14T15:23:25+02:00</time>
      </trkpt>
      <trkpt lat="44.01569" lon="3.46731">
        <ele>1156</ele>
        <time>2021-05-14T15:23:31+02:00</time>
      </trkpt>
      <trkpt lat="44.01579" lon="3.46711">
        <ele>1155</ele>
        <time>2021-05-14T15:23:37+02:00</time>
      </trkpt>
      <trkpt lat="44.01591" lon="3.46687">
        <ele>1154</ele>
        <time>2021-05-14T15:23:45+02:00</time>
      </trkpt>
      <trkpt lat="44.01598" lon="3.46664">
        <ele>1151</ele>
        <time>2021-05-14T15:23:53+02:00</time>
      </trkpt>
      <trkpt lat="44.01596" lon="3.46638">
        <ele>1148</ele>
        <time>2021-05-14T15:24:05+02:00</time>
      </trkpt>
      <trkpt lat="44.01594" lon="3.46612">
        <ele>1145</ele>
        <time>2021-05-14T15:24:13+02:00</time>
      </trkpt>
      <trkpt lat="44.01594" lon="3.46581">
        <ele>1142</ele>
        <time>2021-05-14T15:24:22+02:00</time>
      </trkpt>
      <trkpt lat="44.01596" lon="3.46555">
        <ele>1142</ele>
        <time>2021-05-14T15:24:30+02:00</time>
      </trkpt>
      <trkpt lat="44.01596" lon="3.46524">
        <ele>1141</ele>
        <time>2021-05-14T15:24:39+02:00</time>
      </trkpt>
      <trkpt lat="44.01593" lon="3.46497">
        <ele>1138</ele>
        <time>2021-05-14T15:24:47+02:00</time>
      </trkpt>
      <trkpt lat="44.01588" lon="3.46475">
        <ele>1137</ele>
        <time>2021-05-14T15:24:53+02:00</time>
      </trkpt>
      <trkpt lat="44.01584" lon="3.46452">
        <ele>1137</ele>
        <time>2021-05-14T15:24:59+02:00</time>
      </trkpt>
      <trkpt lat="44.01572" lon="3.46432">
        <ele>1135</ele>
        <time>2021-05-14T15:25:08+02:00</time>
      </trkpt>
      <trkpt lat="44.01557" lon="3.4643">
        <ele>1131</ele>
        <time>2021-05-14T15:25:16+02:00</time>
      </trkpt>
      <trkpt lat="44.01536" lon="3.46437">
        <ele>1125</ele>
        <time>2021-05-14T15:25:25+02:00</time>
      </trkpt>
      <trkpt lat="44.01518" lon="3.46445">
        <ele>1118</ele>
        <time>2021-05-14T15:25:33+02:00</time>
      </trkpt>
      <trkpt lat="44.01498" lon="3.46454">
        <ele>1111</ele>
        <time>2021-05-14T15:25:42+02:00</time>
      </trkpt>
      <trkpt lat="44.0148" lon="3.46457">
        <ele>1107</ele>
        <time>2021-05-14T15:25:49+02:00</time>
      </trkpt>
      <trkpt lat="44.01459" lon="3.46459">
        <ele>1102</ele>
        <time>2021-05-14T15:25:57+02:00</time>
      </trkpt>
      <trkpt lat="44.0144" lon="3.46461">
        <ele>1098</ele>
        <time>2021-05-14T15:26:04+02:00</time>
      </trkpt>
      <trkpt lat="44.01423" lon="3.46462">
        <ele>1095</ele>
        <time>2021-05-14T15:26:10+02:00</time>
      </trkpt>
      <trkpt lat="44.01405" lon="3.46463">
        <ele>1090</ele>
        <time>2021-05-14T15:26:16+02:00</time>
      </trkpt>
      <trkpt lat="44.01386" lon="3.4646">
        <ele>1086</ele>
        <time>2021-05-14T15:26:23+02:00</time>
      </trkpt>
      <trkpt lat="44.01369" lon="3.46455">
        <ele>1082</ele>
        <time>2021-05-14T15:26:29+02:00</time>
      </trkpt>
      <trkpt lat="44.01351" lon="3.46437">
        <ele>1082</ele>
        <time>2021-05-14T15:26:37+02:00</time>
      </trkpt>
      <trkpt lat="44.01338" lon="3.46417">
        <ele>1084</ele>
        <time>2021-05-14T15:26:44+02:00</time>
      </trkpt>
      <trkpt lat="44.01329" lon="3.46395">
        <ele>1082</ele>
        <time>2021-05-14T15:26:50+02:00</time>
      </trkpt>
      <trkpt lat="44.01322" lon="3.46365">
        <ele>1081</ele>
        <time>2021-05-14T15:26:58+02:00</time>
      </trkpt>
      <trkpt lat="44.01325" lon="3.46344">
        <ele>1083</ele>
        <time>2021-05-14T15:27:04+02:00</time>
      </trkpt>
      <trkpt lat="44.01332" lon="3.46319">
        <ele>1084</ele>
        <time>2021-05-14T15:27:12+02:00</time>
      </trkpt>
      <trkpt lat="44.01343" lon="3.46298">
        <ele>1085</ele>
        <time>2021-05-14T15:27:19+02:00</time>
      </trkpt>
      <trkpt lat="44.01351" lon="3.46272">
        <ele>1086</ele>
        <time>2021-05-14T15:27:27+02:00</time>
      </trkpt>
      <trkpt lat="44.01348" lon="3.46248">
        <ele>1082</ele>
        <time>2021-05-14T15:27:36+02:00</time>
      </trkpt>
      <trkpt lat="44.01337" lon="3.46226">
        <ele>1076</ele>
        <time>2021-05-14T15:27:45+02:00</time>
      </trkpt>
      <trkpt lat="44.01331" lon="3.46202">
        <ele>1073</ele>
        <time>2021-05-14T15:27:52+02:00</time>
      </trkpt>
      <trkpt lat="44.0133" lon="3.46176">
        <ele>1071</ele>
        <time>2021-05-14T15:27:59+02:00</time>
      </trkpt>
      <trkpt lat="44.01333" lon="3.46153">
        <ele>1071</ele>
        <time>2021-05-14T15:28:05+02:00</time>
      </trkpt>
      <trkpt lat="44.0134" lon="3.46133">
        <ele>1073</ele>
        <time>2021-05-14T15:28:11+02:00</time>
      </trkpt>
      <trkpt lat="44.01352" lon="3.46112">
        <ele>1078</ele>
        <time>2021-05-14T15:28:18+02:00</time>
      </trkpt>
      <trkpt lat="44.01361" lon="3.46093">
        <ele>1082</ele>
        <time>2021-05-14T15:28:24+02:00</time>
      </trkpt>
      <trkpt lat="44.01369" lon="3.46073">
        <ele>1083</ele>
        <time>2021-05-14T15:28:30+02:00</time>
      </trkpt>
      <trkpt lat="44.01374" lon="3.46047">
        <ele>1080</ele>
        <time>2021-05-14T15:28:38+02:00</time>
      </trkpt>
      <trkpt lat="44.01372" lon="3.46022">
        <ele>1074</ele>
        <time>2021-05-14T15:28:45+02:00</time>
      </trkpt>
      <trkpt lat="44.01369" lon="3.45994">
        <ele>1066</ele>
        <time>2021-05-14T15:28:53+02:00</time>
      </trkpt>
      <trkpt lat="44.01371" lon="3.45964">
        <ele>1062</ele>
        <time>2021-05-14T15:29:01+02:00</time>
      </trkpt>
      <trkpt lat="44.01363" lon="3.45964">
        <ele>1058</ele>
        <time>2021-05-14T15:29:40+02:00</time>
      </trkpt>
      <trkpt lat="44.01355" lon="3.45988">
        <ele>1059</ele>
        <time>2021-05-14T15:29:48+02:00</time>
      </trkpt>
      <trkpt lat="44.01356" lon="3.46014">
        <ele>1064</ele>
        <time>2021-05-14T15:29:56+02:00</time>
      </trkpt>
      <trkpt lat="44.01347" lon="3.4604">
        <ele>1065</ele>
        <time>2021-05-14T15:30:05+02:00</time>
      </trkpt>
      <trkpt lat="44.01337" lon="3.46061">
        <ele>1064</ele>
        <time>2021-05-14T15:30:13+02:00</time>
      </trkpt>
      <trkpt lat="44.01321" lon="3.46076">
        <ele>1059</ele>
        <time>2021-05-14T15:30:21+02:00</time>
      </trkpt>
      <trkpt lat="44.01307" lon="3.46088">
        <ele>1055</ele>
        <time>2021-05-14T15:30:28+02:00</time>
      </trkpt>
      <trkpt lat="44.01292" lon="3.46106">
        <ele>1050</ele>
        <time>2021-05-14T15:30:36+02:00</time>
      </trkpt>
      <trkpt lat="44.01283" lon="3.4613">
        <ele>1049</ele>
        <time>2021-05-14T15:30:43+02:00</time>
      </trkpt>
      <trkpt lat="44.01276" lon="3.46153">
        <ele>1050</ele>
        <time>2021-05-14T15:30:49+02:00</time>
      </trkpt>
      <trkpt lat="44.01278" lon="3.46183">
        <ele>1053</ele>
        <time>2021-05-14T15:30:59+02:00</time>
      </trkpt>
      <trkpt lat="44.0128" lon="3.46208">
        <ele>1056</ele>
        <time>2021-05-14T15:31:07+02:00</time>
      </trkpt>
      <trkpt lat="44.01273" lon="3.46229">
        <ele>1056</ele>
        <time>2021-05-14T15:31:14+02:00</time>
      </trkpt>
      <trkpt lat="44.01254" lon="3.46243">
        <ele>1052</ele>
        <time>2021-05-14T15:31:23+02:00</time>
      </trkpt>
      <trkpt lat="44.0124" lon="3.4625">
        <ele>1048</ele>
        <time>2021-05-14T15:31:29+02:00</time>
      </trkpt>
      <trkpt lat="44.01222" lon="3.46258">
        <ele>1044</ele>
        <time>2021-05-14T15:31:36+02:00</time>
      </trkpt>
      <trkpt lat="44.01202" lon="3.46266">
        <ele>1040</ele>
        <time>2021-05-14T15:31:44+02:00</time>
      </trkpt>
      <trkpt lat="44.01184" lon="3.46274">
        <ele>1037</ele>
        <time>2021-05-14T15:31:54+02:00</time>
      </trkpt>
      <trkpt lat="44.01165" lon="3.46279">
        <ele>1034</ele>
        <time>2021-05-14T15:32:01+02:00</time>
      </trkpt>
      <trkpt lat="44.01143" lon="3.46283">
        <ele>1030</ele>
        <time>2021-05-14T15:32:09+02:00</time>
      </trkpt>
      <trkpt lat="44.01121" lon="3.46288">
        <ele>1026</ele>
        <time>2021-05-14T15:32:17+02:00</time>
      </trkpt>
      <trkpt lat="44.01102" lon="3.46301">
        <ele>1025</ele>
        <time>2021-05-14T15:32:25+02:00</time>
      </trkpt>
      <trkpt lat="44.01089" lon="3.4631">
        <ele>1025</ele>
        <time>2021-05-14T15:32:31+02:00</time>
      </trkpt>
      <trkpt lat="44.0107" lon="3.46319">
        <ele>1022</ele>
        <time>2021-05-14T15:32:38+02:00</time>
      </trkpt>
      <trkpt lat="44.01053" lon="3.46323">
        <ele>1019</ele>
        <time>2021-05-14T15:32:44+02:00</time>
      </trkpt>
      <trkpt lat="44.01037" lon="3.46332">
        <ele>1017</ele>
        <time>2021-05-14T15:32:51+02:00</time>
      </trkpt>
      <trkpt lat="44.01016" lon="3.46344">
        <ele>1015</ele>
        <time>2021-05-14T15:32:59+02:00</time>
      </trkpt>
      <trkpt lat="44.01" lon="3.46352">
        <ele>1013</ele>
        <time>2021-05-14T15:33:05+02:00</time>
      </trkpt>
      <trkpt lat="44.00983" lon="3.46356">
        <ele>1011</ele>
        <time>2021-05-14T15:33:11+02:00</time>
      </trkpt>
      <trkpt lat="44.00961" lon="3.46357">
        <ele>1008</ele>
        <time>2021-05-14T15:33:19+02:00</time>
      </trkpt>
      <trkpt lat="44.0094" lon="3.46355">
        <ele>1005</ele>
        <time>2021-05-14T15:33:28+02:00</time>
      </trkpt>
      <trkpt lat="44.00926" lon="3.4635">
        <ele>1003</ele>
        <time>2021-05-14T15:33:46+02:00</time>
      </trkpt>
      <trkpt lat="44.0091" lon="3.4633">
        <ele>1002</ele>
        <time>2021-05-14T15:34:04+02:00</time>
      </trkpt>
      <trkpt lat="44.00898" lon="3.46313">
        <ele>1001</ele>
        <time>2021-05-14T15:34:18+02:00</time>
      </trkpt>
      <trkpt lat="44.00887" lon="3.46295">
        <ele>1001</ele>
        <time>2021-05-14T15:34:29+02:00</time>
      </trkpt>
      <trkpt lat="44.00876" lon="3.46276">
        <ele>1001</ele>
        <time>2021-05-14T15:34:41+02:00</time>
      </trkpt>
      <trkpt lat="44.00866" lon="3.46255">
        <ele>1001</ele>
        <time>2021-05-14T15:34:51+02:00</time>
      </trkpt>
      <trkpt lat="44.00852" lon="3.46234">
        <ele>1000</ele>
        <time>2021-05-14T15:34:59+02:00</time>
      </trkpt>
      <trkpt lat="44.00841" lon="3.46215">
        <ele>999</ele>
        <time>2021-05-14T15:35:06+02:00</time>
      </trkpt>
      <trkpt lat="44.00835" lon="3.46189">
        <ele>996</ele>
        <time>2021-05-14T15:35:14+02:00</time>
      </trkpt>
      <trkpt lat="44.00827" lon="3.4616">
        <ele>991</ele>
        <time>2021-05-14T15:35:22+02:00</time>
      </trkpt>
      <trkpt lat="44.00818" lon="3.4614">
        <ele>987</ele>
        <time>2021-05-14T15:35:28+02:00</time>
      </trkpt>
      <trkpt lat="44.00803" lon="3.46126">
        <ele>985</ele>
        <time>2021-05-14T15:35:34+02:00</time>
      </trkpt>
      <trkpt lat="44.00796" lon="3.46102">
        <ele>980</ele>
        <time>2021-05-14T15:36:09+02:00</time>
      </trkpt>
      <trkpt lat="44.00813" lon="3.46094">
        <ele>979</ele>
        <time>2021-05-14T15:36:16+02:00</time>
      </trkpt>
      <trkpt lat="44.00831" lon="3.46083">
        <ele>977</ele>
        <time>2021-05-14T15:36:25+02:00</time>
      </trkpt>
      <trkpt lat="44.00849" lon="3.46094">
        <ele>976</ele>
        <time>2021-05-14T15:36:34+02:00</time>
      </trkpt>
      <trkpt lat="44.00861" lon="3.46113">
        <ele>976</ele>
        <time>2021-05-14T15:36:41+02:00</time>
      </trkpt>
      <trkpt lat="44.00871" lon="3.46133">
        <ele>978</ele>
        <time>2021-05-14T15:36:48+02:00</time>
      </trkpt>
      <trkpt lat="44.00879" lon="3.46158">
        <ele>981</ele>
        <time>2021-05-14T15:36:57+02:00</time>
      </trkpt>
      <trkpt lat="44.00891" lon="3.46175">
        <ele>981</ele>
        <time>2021-05-14T15:37:04+02:00</time>
      </trkpt>
      <trkpt lat="44.00908" lon="3.46196">
        <ele>981</ele>
        <time>2021-05-14T15:37:12+02:00</time>
      </trkpt>
      <trkpt lat="44.00927" lon="3.46207">
        <ele>981</ele>
        <time>2021-05-14T15:37:20+02:00</time>
      </trkpt>
      <trkpt lat="44.00947" lon="3.46204">
        <ele>980</ele>
        <time>2021-05-14T15:37:27+02:00</time>
      </trkpt>
      <trkpt lat="44.00965" lon="3.46188">
        <ele>977</ele>
        <time>2021-05-14T15:37:35+02:00</time>
      </trkpt>
      <trkpt lat="44.0098" lon="3.46174">
        <ele>973</ele>
        <time>2021-05-14T15:37:41+02:00</time>
      </trkpt>
      <trkpt lat="44.00997" lon="3.46169">
        <ele>971</ele>
        <time>2021-05-14T15:37:47+02:00</time>
      </trkpt>
      <trkpt lat="44.01014" lon="3.46148">
        <ele>967</ele>
        <time>2021-05-14T15:37:57+02:00</time>
      </trkpt>
      <trkpt lat="44.01032" lon="3.46138">
        <ele>968</ele>
        <time>2021-05-14T15:38:05+02:00</time>
      </trkpt>
      <trkpt lat="44.01052" lon="3.4613">
        <ele>969</ele>
        <time>2021-05-14T15:38:13+02:00</time>
      </trkpt>
      <trkpt lat="44.01074" lon="3.46126">
        <ele>971</ele>
        <time>2021-05-14T15:38:21+02:00</time>
      </trkpt>
      <trkpt lat="44.01089" lon="3.46107">
        <ele>969</ele>
        <time>2021-05-14T15:38:28+02:00</time>
      </trkpt>
      <trkpt lat="44.01097" lon="3.46084">
        <ele>966</ele>
        <time>2021-05-14T15:38:36+02:00</time>
      </trkpt>
      <trkpt lat="44.01106" lon="3.46061">
        <ele>964</ele>
        <time>2021-05-14T15:38:43+02:00</time>
      </trkpt>
      <trkpt lat="44.01118" lon="3.4604">
        <ele>964</ele>
        <time>2021-05-14T15:38:50+02:00</time>
      </trkpt>
      <trkpt lat="44.01129" lon="3.46022">
        <ele>963</ele>
        <time>2021-05-14T15:38:57+02:00</time>
      </trkpt>
      <trkpt lat="44.01143" lon="3.45999">
        <ele>962</ele>
        <time>2021-05-14T15:39:05+02:00</time>
      </trkpt>
      <trkpt lat="44.01151" lon="3.45976">
        <ele>959</ele>
        <time>2021-05-14T15:39:12+02:00</time>
      </trkpt>
      <trkpt lat="44.0116" lon="3.45953">
        <ele>956</ele>
        <time>2021-05-14T15:39:19+02:00</time>
      </trkpt>
      <trkpt lat="44.01174" lon="3.45937">
        <ele>958</ele>
        <time>2021-05-14T15:39:25+02:00</time>
      </trkpt>
      <trkpt lat="44.01181" lon="3.45914">
        <ele>955</ele>
        <time>2021-05-14T15:39:31+02:00</time>
      </trkpt>
      <trkpt lat="44.01183" lon="3.45886">
        <ele>952</ele>
        <time>2021-05-14T15:39:37+02:00</time>
      </trkpt>
      <trkpt lat="44.01186" lon="3.45861">
        <ele>950</ele>
        <time>2021-05-14T15:39:43+02:00</time>
      </trkpt>
      <trkpt lat="44.0119" lon="3.45831">
        <ele>947</ele>
        <time>2021-05-14T15:39:51+02:00</time>
      </trkpt>
      <trkpt lat="44.01197" lon="3.45808">
        <ele>949</ele>
        <time>2021-05-14T15:39:58+02:00</time>
      </trkpt>
      <trkpt lat="44.01199" lon="3.45782">
        <ele>949</ele>
        <time>2021-05-14T15:40:06+02:00</time>
      </trkpt>
      <trkpt lat="44.01182" lon="3.45774">
        <ele>944</ele>
        <time>2021-05-14T15:40:20+02:00</time>
      </trkpt>
      <trkpt lat="44.01164" lon="3.45778">
        <ele>940</ele>
        <time>2021-05-14T15:40:28+02:00</time>
      </trkpt>
      <trkpt lat="44.01147" lon="3.45778">
        <ele>938</ele>
        <time>2021-05-14T15:40:34+02:00</time>
      </trkpt>
      <trkpt lat="44.01126" lon="3.45778">
        <ele>936</ele>
        <time>2021-05-14T15:40:43+02:00</time>
      </trkpt>
      <trkpt lat="44.01107" lon="3.45785">
        <ele>933</ele>
        <time>2021-05-14T15:40:52+02:00</time>
      </trkpt>
      <trkpt lat="44.0109" lon="3.4579">
        <ele>930</ele>
        <time>2021-05-14T15:41:00+02:00</time>
      </trkpt>
      <trkpt lat="44.01069" lon="3.45792">
        <ele>924</ele>
        <time>2021-05-14T15:41:09+02:00</time>
      </trkpt>
      <trkpt lat="44.0105" lon="3.45783">
        <ele>921</ele>
        <time>2021-05-14T15:41:17+02:00</time>
      </trkpt>
      <trkpt lat="44.01036" lon="3.45766">
        <ele>921</ele>
        <time>2021-05-14T15:41:24+02:00</time>
      </trkpt>
      <trkpt lat="44.01021" lon="3.4575">
        <ele>919</ele>
        <time>2021-05-14T15:41:30+02:00</time>
      </trkpt>
      <trkpt lat="44.01005" lon="3.45736">
        <ele>918</ele>
        <time>2021-05-14T15:41:36+02:00</time>
      </trkpt>
      <trkpt lat="44.00987" lon="3.4572">
        <ele>917</ele>
        <time>2021-05-14T15:41:45+02:00</time>
      </trkpt>
      <trkpt lat="44.00968" lon="3.4572">
        <ele>911</ele>
        <time>2021-05-14T15:41:54+02:00</time>
      </trkpt>
      <trkpt lat="44.00951" lon="3.45716">
        <ele>906</ele>
        <time>2021-05-14T15:42:02+02:00</time>
      </trkpt>
      <trkpt lat="44.00935" lon="3.45701">
        <ele>904</ele>
        <time>2021-05-14T15:42:10+02:00</time>
      </trkpt>
      <trkpt lat="44.00926" lon="3.45678">
        <ele>906</ele>
        <time>2021-05-14T15:42:18+02:00</time>
      </trkpt>
      <trkpt lat="44.00921" lon="3.45653">
        <ele>910</ele>
        <time>2021-05-14T15:42:25+02:00</time>
      </trkpt>
      <trkpt lat="44.00916" lon="3.4563">
        <ele>915</ele>
        <time>2021-05-14T15:42:32+02:00</time>
      </trkpt>
      <trkpt lat="44.00898" lon="3.45621">
        <ele>912</ele>
        <time>2021-05-14T15:42:40+02:00</time>
      </trkpt>
      <trkpt lat="44.00881" lon="3.45622">
        <ele>906</ele>
        <time>2021-05-14T15:42:46+02:00</time>
      </trkpt>
      <trkpt lat="44.00863" lon="3.45618">
        <ele>901</ele>
        <time>2021-05-14T15:42:53+02:00</time>
      </trkpt>
      <trkpt lat="44.00848" lon="3.45608">
        <ele>899</ele>
        <time>2021-05-14T15:43:00+02:00</time>
      </trkpt>
      <trkpt lat="44.00833" lon="3.45595">
        <ele>898</ele>
        <time>2021-05-14T15:43:07+02:00</time>
      </trkpt>
      <trkpt lat="44.00819" lon="3.45579">
        <ele>895</ele>
        <time>2021-05-14T15:43:18+02:00</time>
      </trkpt>
      <trkpt lat="44.00809" lon="3.45558">
        <ele>894</ele>
        <time>2021-05-14T15:43:29+02:00</time>
      </trkpt>
      <trkpt lat="44.00801" lon="3.45535">
        <ele>895</ele>
        <time>2021-05-14T15:43:41+02:00</time>
      </trkpt>
      <trkpt lat="44.00799" lon="3.45505">
        <ele>901</ele>
        <time>2021-05-14T15:43:58+02:00</time>
      </trkpt>
      <trkpt lat="44.00799" lon="3.45474">
        <ele>906</ele>
        <time>2021-05-14T15:44:16+02:00</time>
      </trkpt>
      <trkpt lat="44.00798" lon="3.45449">
        <ele>910</ele>
        <time>2021-05-14T15:44:28+02:00</time>
      </trkpt>
      <trkpt lat="44.00786" lon="3.45423">
        <ele>911</ele>
        <time>2021-05-14T15:44:44+02:00</time>
      </trkpt>
      <trkpt lat="44.00775" lon="3.45401">
        <ele>914</ele>
        <time>2021-05-14T15:45:07+02:00</time>
      </trkpt>
      <trkpt lat="44.00771" lon="3.45374">
        <ele>922</ele>
        <time>2021-05-14T15:45:41+02:00</time>
      </trkpt>
      <trkpt lat="44.00753" lon="3.4536">
        <ele>923</ele>
        <time>2021-05-14T15:47:19+02:00</time>
      </trkpt>
      <trkpt lat="44.0074" lon="3.45384">
        <ele>913</ele>
        <time>2021-05-14T15:47:36+02:00</time>
      </trkpt>
      <trkpt lat="44.00732" lon="3.45413">
        <ele>904</ele>
        <time>2021-05-14T15:47:55+02:00</time>
      </trkpt>
      <trkpt lat="44.00722" lon="3.45432">
        <ele>897</ele>
        <time>2021-05-14T15:48:07+02:00</time>
      </trkpt>
      <trkpt lat="44.00708" lon="3.45447">
        <ele>892</ele>
        <time>2021-05-14T15:48:18+02:00</time>
      </trkpt>
      <trkpt lat="44.00693" lon="3.45457">
        <ele>888</ele>
        <time>2021-05-14T15:48:31+02:00</time>
      </trkpt>
      <trkpt lat="44.00674" lon="3.45462">
        <ele>885</ele>
        <time>2021-05-14T15:48:41+02:00</time>
      </trkpt>
      <trkpt lat="44.00656" lon="3.45458">
        <ele>884</ele>
        <time>2021-05-14T15:48:49+02:00</time>
      </trkpt>
      <trkpt lat="44.00636" lon="3.45445">
        <ele>884</ele>
        <time>2021-05-14T15:48:57+02:00</time>
      </trkpt>
      <trkpt lat="44.00619" lon="3.45435">
        <ele>883</ele>
        <time>2021-05-14T15:49:04+02:00</time>
      </trkpt>
      <trkpt lat="44.00607" lon="3.45411">
        <ele>887</ele>
        <time>2021-05-14T15:49:12+02:00</time>
      </trkpt>
      <trkpt lat="44.00594" lon="3.4539">
        <ele>892</ele>
        <time>2021-05-14T15:49:20+02:00</time>
      </trkpt>
      <trkpt lat="44.00576" lon="3.45374">
        <ele>895</ele>
        <time>2021-05-14T15:49:30+02:00</time>
      </trkpt>
      <trkpt lat="44.0056" lon="3.45381">
        <ele>892</ele>
        <time>2021-05-14T15:49:36+02:00</time>
      </trkpt>
      <trkpt lat="44.00545" lon="3.45395">
        <ele>886</ele>
        <time>2021-05-14T15:49:42+02:00</time>
      </trkpt>
      <trkpt lat="44.00525" lon="3.45404">
        <ele>882</ele>
        <time>2021-05-14T15:49:51+02:00</time>
      </trkpt>
      <trkpt lat="44.00503" lon="3.45401">
        <ele>883</ele>
        <time>2021-05-14T15:49:59+02:00</time>
      </trkpt>
      <trkpt lat="44.00486" lon="3.45403">
        <ele>882</ele>
        <time>2021-05-14T15:50:05+02:00</time>
      </trkpt>
      <trkpt lat="44.00464" lon="3.45403">
        <ele>882</ele>
        <time>2021-05-14T15:50:13+02:00</time>
      </trkpt>
      <trkpt lat="44.00448" lon="3.45398">
        <ele>884</ele>
        <time>2021-05-14T15:50:20+02:00</time>
      </trkpt>
      <trkpt lat="44.0043" lon="3.45407">
        <ele>880</ele>
        <time>2021-05-14T15:50:27+02:00</time>
      </trkpt>
      <trkpt lat="44.00414" lon="3.4542">
        <ele>876</ele>
        <time>2021-05-14T15:50:33+02:00</time>
      </trkpt>
      <trkpt lat="44.00398" lon="3.45431">
        <ele>871</ele>
        <time>2021-05-14T15:50:39+02:00</time>
      </trkpt>
      <trkpt lat="44.00383" lon="3.45437">
        <ele>868</ele>
        <time>2021-05-14T15:50:45+02:00</time>
      </trkpt>
      <trkpt lat="44.00365" lon="3.45439">
        <ele>867</ele>
        <time>2021-05-14T15:50:51+02:00</time>
      </trkpt>
      <trkpt lat="44.00348" lon="3.4544">
        <ele>867</ele>
        <time>2021-05-14T15:50:58+02:00</time>
      </trkpt>
      <trkpt lat="44.00326" lon="3.45441">
        <ele>865</ele>
        <time>2021-05-14T15:51:06+02:00</time>
      </trkpt>
      <trkpt lat="44.00308" lon="3.45445">
        <ele>860</ele>
        <time>2021-05-14T15:51:12+02:00</time>
      </trkpt>
      <trkpt lat="44.0029" lon="3.45449">
        <ele>856</ele>
        <time>2021-05-14T15:51:18+02:00</time>
      </trkpt>
      <trkpt lat="44.00274" lon="3.4545">
        <ele>853</ele>
        <time>2021-05-14T15:51:24+02:00</time>
      </trkpt>
      <trkpt lat="44.00256" lon="3.4545">
        <ele>850</ele>
        <time>2021-05-14T15:51:31+02:00</time>
      </trkpt>
      <trkpt lat="44.00239" lon="3.45456">
        <ele>846</ele>
        <time>2021-05-14T15:51:37+02:00</time>
      </trkpt>
      <trkpt lat="44.00223" lon="3.45467">
        <ele>843</ele>
        <time>2021-05-14T15:51:43+02:00</time>
      </trkpt>
      <trkpt lat="44.00207" lon="3.45475">
        <ele>841</ele>
        <time>2021-05-14T15:51:49+02:00</time>
      </trkpt>
      <trkpt lat="44.00185" lon="3.4548">
        <ele>840</ele>
        <time>2021-05-14T15:51:57+02:00</time>
      </trkpt>
      <trkpt lat="44.00164" lon="3.45485">
        <ele>839</ele>
        <time>2021-05-14T15:52:05+02:00</time>
      </trkpt>
      <trkpt lat="44.00146" lon="3.45495">
        <ele>837</ele>
        <time>2021-05-14T15:52:12+02:00</time>
      </trkpt>
      <trkpt lat="44.00126" lon="3.45505">
        <ele>834</ele>
        <time>2021-05-14T15:52:21+02:00</time>
      </trkpt>
      <trkpt lat="44.00109" lon="3.45514">
        <ele>831</ele>
        <time>2021-05-14T15:52:28+02:00</time>
      </trkpt>
      <trkpt lat="44.00089" lon="3.45521">
        <ele>830</ele>
        <time>2021-05-14T15:52:35+02:00</time>
      </trkpt>
      <trkpt lat="44.00072" lon="3.45529">
        <ele>824</ele>
        <time>2021-05-14T15:52:41+02:00</time>
      </trkpt>
      <trkpt lat="44.00055" lon="3.45537">
        <ele>818</ele>
        <time>2021-05-14T15:52:47+02:00</time>
      </trkpt>
      <trkpt lat="44.00034" lon="3.45547">
        <ele>812</ele>
        <time>2021-05-14T15:52:55+02:00</time>
      </trkpt>
      <trkpt lat="44.00013" lon="3.45554">
        <ele>807</ele>
        <time>2021-05-14T15:53:03+02:00</time>
      </trkpt>
      <trkpt lat="43.99995" lon="3.45552">
        <ele>811</ele>
        <time>2021-05-14T15:53:13+02:00</time>
      </trkpt>
      <trkpt lat="43.99984" lon="3.45531">
        <ele>808</ele>
        <time>2021-05-14T15:53:34+02:00</time>
      </trkpt>
      <trkpt lat="43.9999" lon="3.45504">
        <ele>809</ele>
        <time>2021-05-14T15:53:58+02:00</time>
      </trkpt>
      <trkpt lat="43.99998" lon="3.45482">
        <ele>811</ele>
        <time>2021-05-14T15:54:13+02:00</time>
      </trkpt>
      <trkpt lat="44.00003" lon="3.4546">
        <ele>804</ele>
        <time>2021-05-14T15:54:26+02:00</time>
      </trkpt>
      <trkpt lat="44.00007" lon="3.45434">
        <ele>803</ele>
        <time>2021-05-14T15:54:38+02:00</time>
      </trkpt>
      <trkpt lat="44.00012" lon="3.45405">
        <ele>803</ele>
        <time>2021-05-14T15:54:51+02:00</time>
      </trkpt>
      <trkpt lat="44.00018" lon="3.4538">
        <ele>802</ele>
        <time>2021-05-14T15:55:02+02:00</time>
      </trkpt>
      <trkpt lat="44.00028" lon="3.45353">
        <ele>803</ele>
        <time>2021-05-14T15:55:16+02:00</time>
      </trkpt>
      <trkpt lat="44.00037" lon="3.45332">
        <ele>804</ele>
        <time>2021-05-14T15:55:27+02:00</time>
      </trkpt>
      <trkpt lat="44.00046" lon="3.45304">
        <ele>806</ele>
        <time>2021-05-14T15:55:41+02:00</time>
      </trkpt>
      <trkpt lat="44.00052" lon="3.45282">
        <ele>807</ele>
        <time>2021-05-14T15:55:53+02:00</time>
      </trkpt>
      <trkpt lat="44.00061" lon="3.45256">
        <ele>808</ele>
        <time>2021-05-14T15:56:08+02:00</time>
      </trkpt>
      <trkpt lat="44.0008" lon="3.45241">
        <ele>813</ele>
        <time>2021-05-14T15:56:29+02:00</time>
      </trkpt>
      <trkpt lat="44.00066" lon="3.45219">
        <ele>816</ele>
        <time>2021-05-14T15:57:06+02:00</time>
      </trkpt>
      <trkpt lat="44.00045" lon="3.45216">
        <ele>815</ele>
        <time>2021-05-14T15:57:25+02:00</time>
      </trkpt>
      <trkpt lat="44.00024" lon="3.45215">
        <ele>813</ele>
        <time>2021-05-14T15:57:45+02:00</time>
      </trkpt>
      <trkpt lat="44.00002" lon="3.45219">
        <ele>810</ele>
        <time>2021-05-14T15:58:09+02:00</time>
      </trkpt>
      <trkpt lat="43.99985" lon="3.45221">
        <ele>806</ele>
        <time>2021-05-14T15:58:23+02:00</time>
      </trkpt>
      <trkpt lat="43.99967" lon="3.45225">
        <ele>808</ele>
        <time>2021-05-14T15:58:38+02:00</time>
      </trkpt>
      <trkpt lat="43.99951" lon="3.4523">
        <ele>809</ele>
        <time>2021-05-14T15:58:51+02:00</time>
      </trkpt>
      <trkpt lat="43.9993" lon="3.45239">
        <ele>811</ele>
        <time>2021-05-14T15:59:08+02:00</time>
      </trkpt>
      <trkpt lat="43.99914" lon="3.45246">
        <ele>813</ele>
        <time>2021-05-14T15:59:21+02:00</time>
      </trkpt>
      <trkpt lat="43.99893" lon="3.45252">
        <ele>816</ele>
        <time>2021-05-14T15:59:41+02:00</time>
      </trkpt>
      <trkpt lat="43.99874" lon="3.45256">
        <ele>818</ele>
        <time>2021-05-14T15:59:58+02:00</time>
      </trkpt>
      <trkpt lat="43.99857" lon="3.4526">
        <ele>820</ele>
        <time>2021-05-14T16:00:10+02:00</time>
      </trkpt>
      <trkpt lat="43.99838" lon="3.45267">
        <ele>822</ele>
        <time>2021-05-14T16:00:24+02:00</time>
      </trkpt>
      <trkpt lat="43.99817" lon="3.45274">
        <ele>823</ele>
        <time>2021-05-14T16:00:39+02:00</time>
      </trkpt>
      <trkpt lat="43.99796" lon="3.45281">
        <ele>824</ele>
        <time>2021-05-14T16:00:57+02:00</time>
      </trkpt>
      <trkpt lat="43.99777" lon="3.45284">
        <ele>826</ele>
        <time>2021-05-14T16:01:10+02:00</time>
      </trkpt>
      <trkpt lat="43.99755" lon="3.45289">
        <ele>828</ele>
        <time>2021-05-14T16:01:25+02:00</time>
      </trkpt>
      <trkpt lat="43.99768" lon="3.45264">
        <ele>829</ele>
        <time>2021-05-14T16:02:18+02:00</time>
      </trkpt>
      <trkpt lat="43.99789" lon="3.45254">
        <ele>830</ele>
        <time>2021-05-14T16:02:32+02:00</time>
      </trkpt>
      <trkpt lat="43.99803" lon="3.45243">
        <ele>830</ele>
        <time>2021-05-14T16:02:44+02:00</time>
      </trkpt>
      <trkpt lat="43.9982" lon="3.45233">
        <ele>830</ele>
        <time>2021-05-14T16:02:57+02:00</time>
      </trkpt>
      <trkpt lat="43.99836" lon="3.45223">
        <ele>832</ele>
        <time>2021-05-14T16:03:09+02:00</time>
      </trkpt>
      <trkpt lat="43.99856" lon="3.45213">
        <ele>834</ele>
        <time>2021-05-14T16:03:24+02:00</time>
      </trkpt>
      <trkpt lat="43.99873" lon="3.45193">
        <ele>837</ele>
        <time>2021-05-14T16:03:40+02:00</time>
      </trkpt>
      <trkpt lat="43.9989" lon="3.45182">
        <ele>837</ele>
        <time>2021-05-14T16:03:55+02:00</time>
      </trkpt>
      <trkpt lat="43.99905" lon="3.4517">
        <ele>838</ele>
        <time>2021-05-14T16:04:07+02:00</time>
      </trkpt>
      <trkpt lat="43.9992" lon="3.45158">
        <ele>838</ele>
        <time>2021-05-14T16:04:18+02:00</time>
      </trkpt>
      <trkpt lat="43.9993" lon="3.45131">
        <ele>839</ele>
        <time>2021-05-14T16:04:34+02:00</time>
      </trkpt>
      <trkpt lat="43.99941" lon="3.45104">
        <ele>838</ele>
        <time>2021-05-14T16:04:47+02:00</time>
      </trkpt>
      <trkpt lat="43.9995" lon="3.45082">
        <ele>835</ele>
        <time>2021-05-14T16:04:59+02:00</time>
      </trkpt>
      <trkpt lat="43.99956" lon="3.4506">
        <ele>832</ele>
        <time>2021-05-14T16:05:09+02:00</time>
      </trkpt>
      <trkpt lat="43.99966" lon="3.45038">
        <ele>831</ele>
        <time>2021-05-14T16:05:20+02:00</time>
      </trkpt>
      <trkpt lat="43.99975" lon="3.4501">
        <ele>828</ele>
        <time>2021-05-14T16:05:33+02:00</time>
      </trkpt>
      <trkpt lat="43.9999" lon="3.44988">
        <ele>830</ele>
        <time>2021-05-14T16:05:48+02:00</time>
      </trkpt>
      <trkpt lat="43.99995" lon="3.44961">
        <ele>827</ele>
        <time>2021-05-14T16:06:04+02:00</time>
      </trkpt>
      <trkpt lat="43.99993" lon="3.44931">
        <ele>821</ele>
        <time>2021-05-14T16:06:19+02:00</time>
      </trkpt>
      <trkpt lat="43.99986" lon="3.44919">
        <ele>816</ele>
        <time>2021-05-14T16:09:09+02:00</time>
      </trkpt>
      <trkpt lat="43.99967" lon="3.44928">
        <ele>808</ele>
        <time>2021-05-14T16:09:45+02:00</time>
      </trkpt>
      <trkpt lat="43.9995" lon="3.44911">
        <ele>812</ele>
        <time>2021-05-14T16:10:06+02:00</time>
      </trkpt>
      <trkpt lat="43.99933" lon="3.44894">
        <ele>817</ele>
        <time>2021-05-14T16:10:54+02:00</time>
      </trkpt>
      <trkpt lat="43.99919" lon="3.44881">
        <ele>820</ele>
        <time>2021-05-14T16:11:08+02:00</time>
      </trkpt>
      <trkpt lat="43.99901" lon="3.44866">
        <ele>821</ele>
        <time>2021-05-14T16:11:29+02:00</time>
      </trkpt>
      <trkpt lat="43.99894" lon="3.44843">
        <ele>827</ele>
        <time>2021-05-14T16:12:00+02:00</time>
      </trkpt>
      <trkpt lat="43.9988" lon="3.44821">
        <ele>828</ele>
        <time>2021-05-14T16:12:24+02:00</time>
      </trkpt>
      <trkpt lat="43.99871" lon="3.44793">
        <ele>831</ele>
        <time>2021-05-14T16:13:01+02:00</time>
      </trkpt>
      <trkpt lat="43.99868" lon="3.44765">
        <ele>835</ele>
        <time>2021-05-14T16:13:24+02:00</time>
      </trkpt>
      <trkpt lat="43.99859" lon="3.44744">
        <ele>832</ele>
        <time>2021-05-14T16:13:38+02:00</time>
      </trkpt>
      <trkpt lat="43.99857" lon="3.44719">
        <ele>833</ele>
        <time>2021-05-14T16:13:50+02:00</time>
      </trkpt>
      <trkpt lat="43.99853" lon="3.4469">
        <ele>834</ele>
        <time>2021-05-14T16:14:09+02:00</time>
      </trkpt>
      <trkpt lat="43.9984" lon="3.44666">
        <ele>829</ele>
        <time>2021-05-14T16:14:33+02:00</time>
      </trkpt>
      <trkpt lat="43.99833" lon="3.44645">
        <ele>826</ele>
        <time>2021-05-14T16:14:52+02:00</time>
      </trkpt>
      <trkpt lat="43.99823" lon="3.44623">
        <ele>821</ele>
        <time>2021-05-14T16:15:04+02:00</time>
      </trkpt>
      <trkpt lat="43.99812" lon="3.44596">
        <ele>818</ele>
        <time>2021-05-14T16:15:19+02:00</time>
      </trkpt>
      <trkpt lat="43.99791" lon="3.4459">
        <ele>812</ele>
        <time>2021-05-14T16:15:40+02:00</time>
      </trkpt>
      <trkpt lat="43.9978" lon="3.44571">
        <ele>817</ele>
        <time>2021-05-14T16:15:54+02:00</time>
      </trkpt>
      <trkpt lat="43.99766" lon="3.44548">
        <ele>821</ele>
        <time>2021-05-14T16:16:12+02:00</time>
      </trkpt>
      <trkpt lat="43.99749" lon="3.44555">
        <ele>814</ele>
        <time>2021-05-14T16:16:26+02:00</time>
      </trkpt>
      <trkpt lat="43.99729" lon="3.44563">
        <ele>815</ele>
        <time>2021-05-14T16:16:47+02:00</time>
      </trkpt>
      <trkpt lat="43.99718" lon="3.4459">
        <ele>810</ele>
        <time>2021-05-14T16:17:06+02:00</time>
      </trkpt>
      <trkpt lat="43.99716" lon="3.44613">
        <ele>805</ele>
        <time>2021-05-14T16:17:18+02:00</time>
      </trkpt>
      <trkpt lat="43.99711" lon="3.44638">
        <ele>804</ele>
        <time>2021-05-14T16:17:30+02:00</time>
      </trkpt>
      <trkpt lat="43.99703" lon="3.44667">
        <ele>801</ele>
        <time>2021-05-14T16:17:42+02:00</time>
      </trkpt>
      <trkpt lat="43.99693" lon="3.44689">
        <ele>800</ele>
        <time>2021-05-14T16:18:22+02:00</time>
      </trkpt>
      <trkpt lat="43.99681" lon="3.44713">
        <ele>800</ele>
        <time>2021-05-14T16:18:43+02:00</time>
      </trkpt>
      <trkpt lat="43.99673" lon="3.4474">
        <ele>798</ele>
        <time>2021-05-14T16:19:04+02:00</time>
      </trkpt>
      <trkpt lat="43.99669" lon="3.44764">
        <ele>795</ele>
        <time>2021-05-14T16:19:16+02:00</time>
      </trkpt>
      <trkpt lat="43.99661" lon="3.44786">
        <ele>794</ele>
        <time>2021-05-14T16:19:26+02:00</time>
      </trkpt>
      <trkpt lat="43.99649" lon="3.44807">
        <ele>794</ele>
        <time>2021-05-14T16:19:35+02:00</time>
      </trkpt>
      <trkpt lat="43.99633" lon="3.44824">
        <ele>795</ele>
        <time>2021-05-14T16:19:49+02:00</time>
      </trkpt>
      <trkpt lat="43.99618" lon="3.44837">
        <ele>796</ele>
        <time>2021-05-14T16:19:59+02:00</time>
      </trkpt>
      <trkpt lat="43.99602" lon="3.44848">
        <ele>795</ele>
        <time>2021-05-14T16:20:10+02:00</time>
      </trkpt>
      <trkpt lat="43.99588" lon="3.44861">
        <ele>791</ele>
        <time>2021-05-14T16:20:19+02:00</time>
      </trkpt>
      <trkpt lat="43.9957" lon="3.44873">
        <ele>788</ele>
        <time>2021-05-14T16:20:31+02:00</time>
      </trkpt>
      <trkpt lat="43.99549" lon="3.44873">
        <ele>790</ele>
        <time>2021-05-14T16:20:44+02:00</time>
      </trkpt>
      <trkpt lat="43.9953" lon="3.44888">
        <ele>786</ele>
        <time>2021-05-14T16:21:02+02:00</time>
      </trkpt>
      <trkpt lat="43.99513" lon="3.44907">
        <ele>781</ele>
        <time>2021-05-14T16:21:18+02:00</time>
      </trkpt>
      <trkpt lat="43.99507" lon="3.44931">
        <ele>774</ele>
        <time>2021-05-14T16:21:30+02:00</time>
      </trkpt>
      <trkpt lat="43.99499" lon="3.44951">
        <ele>770</ele>
        <time>2021-05-14T16:21:40+02:00</time>
      </trkpt>
      <trkpt lat="43.99487" lon="3.44976">
        <ele>767</ele>
        <time>2021-05-14T16:21:54+02:00</time>
      </trkpt>
      <trkpt lat="43.99474" lon="3.44992">
        <ele>766</ele>
        <time>2021-05-14T16:22:06+02:00</time>
      </trkpt>
      <trkpt lat="43.99457" lon="3.45004">
        <ele>768</ele>
        <time>2021-05-14T16:22:19+02:00</time>
      </trkpt>
      <trkpt lat="43.99442" lon="3.45027">
        <ele>762</ele>
        <time>2021-05-14T16:22:37+02:00</time>
      </trkpt>
      <trkpt lat="43.99423" lon="3.4504">
        <ele>763</ele>
        <time>2021-05-14T16:22:53+02:00</time>
      </trkpt>
      <trkpt lat="43.99412" lon="3.45059">
        <ele>758</ele>
        <time>2021-05-14T16:23:05+02:00</time>
      </trkpt>
      <trkpt lat="43.99399" lon="3.45077">
        <ele>754</ele>
        <time>2021-05-14T16:23:16+02:00</time>
      </trkpt>
      <trkpt lat="43.99384" lon="3.45098">
        <ele>749</ele>
        <time>2021-05-14T16:23:32+02:00</time>
      </trkpt>
      <trkpt lat="43.99364" lon="3.45111">
        <ele>746</ele>
        <time>2021-05-14T16:23:51+02:00</time>
      </trkpt>
      <trkpt lat="43.99343" lon="3.4512">
        <ele>741</ele>
        <time>2021-05-14T16:24:43+02:00</time>
      </trkpt>
      <trkpt lat="43.99327" lon="3.45128">
        <ele>737</ele>
        <time>2021-05-14T16:25:55+02:00</time>
      </trkpt>
      <trkpt lat="43.99312" lon="3.4514">
        <ele>733</ele>
        <time>2021-05-14T16:26:08+02:00</time>
      </trkpt>
      <trkpt lat="43.99297" lon="3.45148">
        <ele>726</ele>
        <time>2021-05-14T16:26:20+02:00</time>
      </trkpt>
      <trkpt lat="43.99285" lon="3.45168">
        <ele>720</ele>
        <time>2021-05-14T16:26:33+02:00</time>
      </trkpt>
      <trkpt lat="43.99269" lon="3.45179">
        <ele>716</ele>
        <time>2021-05-14T16:26:44+02:00</time>
      </trkpt>
      <trkpt lat="43.99255" lon="3.45192">
        <ele>714</ele>
        <time>2021-05-14T16:26:52+02:00</time>
      </trkpt>
      <trkpt lat="43.99239" lon="3.45203">
        <ele>711</ele>
        <time>2021-05-14T16:27:01+02:00</time>
      </trkpt>
      <trkpt lat="43.99224" lon="3.45217">
        <ele>709</ele>
        <time>2021-05-14T16:27:13+02:00</time>
      </trkpt>
      <trkpt lat="43.99211" lon="3.45233">
        <ele>707</ele>
        <time>2021-05-14T16:27:25+02:00</time>
      </trkpt>
      <trkpt lat="43.99189" lon="3.45242">
        <ele>705</ele>
        <time>2021-05-14T16:27:40+02:00</time>
      </trkpt>
      <trkpt lat="43.99172" lon="3.45247">
        <ele>702</ele>
        <time>2021-05-14T16:27:52+02:00</time>
      </trkpt>
      <trkpt lat="43.99157" lon="3.45264">
        <ele>699</ele>
        <time>2021-05-14T16:28:03+02:00</time>
      </trkpt>
      <trkpt lat="43.99148" lon="3.4529">
        <ele>696</ele>
        <time>2021-05-14T16:28:19+02:00</time>
      </trkpt>
      <trkpt lat="43.99137" lon="3.45316">
        <ele>692</ele>
        <time>2021-05-14T16:28:32+02:00</time>
      </trkpt>
      <trkpt lat="43.99124" lon="3.45335">
        <ele>686</ele>
        <time>2021-05-14T16:28:45+02:00</time>
      </trkpt>
      <trkpt lat="43.99106" lon="3.45351">
        <ele>677</ele>
        <time>2021-05-14T16:29:01+02:00</time>
      </trkpt>
      <trkpt lat="43.99087" lon="3.45349">
        <ele>671</ele>
        <time>2021-05-14T16:29:22+02:00</time>
      </trkpt>
      <trkpt lat="43.99068" lon="3.45335">
        <ele>666</ele>
        <time>2021-05-14T16:29:37+02:00</time>
      </trkpt>
      <trkpt lat="43.99048" lon="3.45322">
        <ele>660</ele>
        <time>2021-05-14T16:29:52+02:00</time>
      </trkpt>
      <trkpt lat="43.99039" lon="3.45315">
        <ele>658</ele>
        <time>2021-05-14T16:29:59+02:00</time>
      </trkpt>
      <trkpt lat="43.99022" lon="3.45303">
        <ele>654</ele>
        <time>2021-05-14T16:30:10+02:00</time>
      </trkpt>
      <trkpt lat="43.99018" lon="3.45273">
        <ele>653</ele>
        <time>2021-05-14T16:30:38+02:00</time>
      </trkpt>
      <trkpt lat="43.99028" lon="3.45255">
        <ele>653</ele>
        <time>2021-05-14T16:30:47+02:00</time>
      </trkpt>
      <trkpt lat="43.99027" lon="3.45227">
        <ele>654</ele>
        <time>2021-05-14T16:30:59+02:00</time>
      </trkpt>
      <trkpt lat="43.99008" lon="3.4522">
        <ele>653</ele>
        <time>2021-05-14T16:31:08+02:00</time>
      </trkpt>
      <trkpt lat="43.98987" lon="3.45215">
        <ele>652</ele>
        <time>2021-05-14T16:31:17+02:00</time>
      </trkpt>
      <trkpt lat="43.98971" lon="3.452">
        <ele>652</ele>
        <time>2021-05-14T16:31:25+02:00</time>
      </trkpt>
      <trkpt lat="43.9896" lon="3.45179">
        <ele>654</ele>
        <time>2021-05-14T16:31:33+02:00</time>
      </trkpt>
      <trkpt lat="43.98952" lon="3.45155">
        <ele>655</ele>
        <time>2021-05-14T16:31:41+02:00</time>
      </trkpt>
      <trkpt lat="43.98944" lon="3.45131">
        <ele>657</ele>
        <time>2021-05-14T16:31:49+02:00</time>
      </trkpt>
      <trkpt lat="43.98934" lon="3.45106">
        <ele>659</ele>
        <time>2021-05-14T16:31:58+02:00</time>
      </trkpt>
      <trkpt lat="43.98922" lon="3.45085">
        <ele>656</ele>
        <time>2021-05-14T16:32:06+02:00</time>
      </trkpt>
      <trkpt lat="43.98909" lon="3.4506">
        <ele>655</ele>
        <time>2021-05-14T16:32:15+02:00</time>
      </trkpt>
      <trkpt lat="43.98897" lon="3.4504">
        <ele>652</ele>
        <time>2021-05-14T16:32:23+02:00</time>
      </trkpt>
      <trkpt lat="43.9889" lon="3.45014">
        <ele>651</ele>
        <time>2021-05-14T16:32:32+02:00</time>
      </trkpt>
      <trkpt lat="43.98876" lon="3.44992">
        <ele>652</ele>
        <time>2021-05-14T16:32:44+02:00</time>
      </trkpt>
      <trkpt lat="43.98858" lon="3.44997">
        <ele>648</ele>
        <time>2021-05-14T16:32:51+02:00</time>
      </trkpt>
      <trkpt lat="43.98843" lon="3.44994">
        <ele>648</ele>
        <time>2021-05-14T16:32:57+02:00</time>
      </trkpt>
      <trkpt lat="43.98827" lon="3.44983">
        <ele>647</ele>
        <time>2021-05-14T16:33:04+02:00</time>
      </trkpt>
      <trkpt lat="43.98813" lon="3.44972">
        <ele>645</ele>
        <time>2021-05-14T16:33:10+02:00</time>
      </trkpt>
      <trkpt lat="43.98796" lon="3.44959">
        <ele>647</ele>
        <time>2021-05-14T16:33:18+02:00</time>
      </trkpt>
      <trkpt lat="43.98779" lon="3.44947">
        <ele>647</ele>
        <time>2021-05-14T16:33:26+02:00</time>
      </trkpt>
      <trkpt lat="43.98758" lon="3.44937">
        <ele>647</ele>
        <time>2021-05-14T16:33:35+02:00</time>
      </trkpt>
      <trkpt lat="43.98738" lon="3.44927">
        <ele>647</ele>
        <time>2021-05-14T16:33:44+02:00</time>
      </trkpt>
      <trkpt lat="43.98718" lon="3.44917">
        <ele>646</ele>
        <time>2021-05-14T16:33:52+02:00</time>
      </trkpt>
      <trkpt lat="43.98698" lon="3.44905">
        <ele>645</ele>
        <time>2021-05-14T16:34:00+02:00</time>
      </trkpt>
      <trkpt lat="43.98682" lon="3.4489">
        <ele>645</ele>
        <time>2021-05-14T16:34:07+02:00</time>
      </trkpt>
      <trkpt lat="43.9867" lon="3.44873">
        <ele>646</ele>
        <time>2021-05-14T16:34:14+02:00</time>
      </trkpt>
      <trkpt lat="43.98657" lon="3.44857">
        <ele>647</ele>
        <time>2021-05-14T16:34:22+02:00</time>
      </trkpt>
      <trkpt lat="43.98642" lon="3.44845">
        <ele>649</ele>
        <time>2021-05-14T16:34:32+02:00</time>
      </trkpt>
      <trkpt lat="43.98625" lon="3.44838">
        <ele>649</ele>
        <time>2021-05-14T16:34:40+02:00</time>
      </trkpt>
      <trkpt lat="43.98608" lon="3.44831">
        <ele>649</ele>
        <time>2021-05-14T16:34:47+02:00</time>
      </trkpt>
      <trkpt lat="43.98588" lon="3.44825">
        <ele>648</ele>
        <time>2021-05-14T16:34:55+02:00</time>
      </trkpt>
      <trkpt lat="43.98573" lon="3.44815">
        <ele>647</ele>
        <time>2021-05-14T16:35:02+02:00</time>
      </trkpt>
      <trkpt lat="43.98556" lon="3.44794">
        <ele>646</ele>
        <time>2021-05-14T16:35:11+02:00</time>
      </trkpt>
      <trkpt lat="43.98541" lon="3.44773">
        <ele>645</ele>
        <time>2021-05-14T16:35:20+02:00</time>
      </trkpt>
      <trkpt lat="43.98531" lon="3.44757">
        <ele>644</ele>
        <time>2021-05-14T16:35:26+02:00</time>
      </trkpt>
      <trkpt lat="43.98524" lon="3.44732">
        <ele>643</ele>
        <time>2021-05-14T16:35:34+02:00</time>
      </trkpt>
      <trkpt lat="43.98513" lon="3.44711">
        <ele>642</ele>
        <time>2021-05-14T16:35:42+02:00</time>
      </trkpt>
      <trkpt lat="43.98497" lon="3.447">
        <ele>640</ele>
        <time>2021-05-14T16:35:50+02:00</time>
      </trkpt>
      <trkpt lat="43.98481" lon="3.44686">
        <ele>640</ele>
        <time>2021-05-14T16:35:58+02:00</time>
      </trkpt>
      <trkpt lat="43.98464" lon="3.4467">
        <ele>640</ele>
        <time>2021-05-14T16:36:06+02:00</time>
      </trkpt>
      <trkpt lat="43.98452" lon="3.44657">
        <ele>640</ele>
        <time>2021-05-14T16:36:12+02:00</time>
      </trkpt>
      <trkpt lat="43.98436" lon="3.44643">
        <ele>640</ele>
        <time>2021-05-14T16:36:19+02:00</time>
      </trkpt>
      <trkpt lat="43.98418" lon="3.44624">
        <ele>639</ele>
        <time>2021-05-14T16:36:27+02:00</time>
      </trkpt>
      <trkpt lat="43.98402" lon="3.44615">
        <ele>637</ele>
        <time>2021-05-14T16:36:34+02:00</time>
      </trkpt>
      <trkpt lat="43.98386" lon="3.44604">
        <ele>636</ele>
        <time>2021-05-14T16:36:40+02:00</time>
      </trkpt>
      <trkpt lat="43.98368" lon="3.44587">
        <ele>636</ele>
        <time>2021-05-14T16:36:48+02:00</time>
      </trkpt>
      <trkpt lat="43.9835" lon="3.44572">
        <ele>635</ele>
        <time>2021-05-14T16:36:56+02:00</time>
      </trkpt>
      <trkpt lat="43.98331" lon="3.44559">
        <ele>634</ele>
        <time>2021-05-14T16:37:04+02:00</time>
      </trkpt>
      <trkpt lat="43.98316" lon="3.44546">
        <ele>634</ele>
        <time>2021-05-14T16:37:11+02:00</time>
      </trkpt>
      <trkpt lat="43.983" lon="3.44535">
        <ele>633</ele>
        <time>2021-05-14T16:37:17+02:00</time>
      </trkpt>
      <trkpt lat="43.98284" lon="3.44525">
        <ele>632</ele>
        <time>2021-05-14T16:37:23+02:00</time>
      </trkpt>
      <trkpt lat="43.98268" lon="3.44514">
        <ele>632</ele>
        <time>2021-05-14T16:37:29+02:00</time>
      </trkpt>
      <trkpt lat="43.98252" lon="3.44504">
        <ele>631</ele>
        <time>2021-05-14T16:37:35+02:00</time>
      </trkpt>
      <trkpt lat="43.98235" lon="3.44493">
        <ele>630</ele>
        <time>2021-05-14T16:37:42+02:00</time>
      </trkpt>
      <trkpt lat="43.98218" lon="3.44477">
        <ele>631</ele>
        <time>2021-05-14T16:37:51+02:00</time>
      </trkpt>
      <trkpt lat="43.98202" lon="3.44466">
        <ele>631</ele>
        <time>2021-05-14T16:37:58+02:00</time>
      </trkpt>
      <trkpt lat="43.98184" lon="3.44457">
        <ele>631</ele>
        <time>2021-05-14T16:38:05+02:00</time>
      </trkpt>
      <trkpt lat="43.98168" lon="3.44452">
        <ele>630</ele>
        <time>2021-05-14T16:38:12+02:00</time>
      </trkpt>
      <trkpt lat="43.98147" lon="3.44443">
        <ele>629</ele>
        <time>2021-05-14T16:38:21+02:00</time>
      </trkpt>
      <trkpt lat="43.98129" lon="3.44437">
        <ele>629</ele>
        <time>2021-05-14T16:38:28+02:00</time>
      </trkpt>
      <trkpt lat="43.98111" lon="3.44428">
        <ele>627</ele>
        <time>2021-05-14T16:38:36+02:00</time>
      </trkpt>
      <trkpt lat="43.98093" lon="3.44418">
        <ele>627</ele>
        <time>2021-05-14T16:38:43+02:00</time>
      </trkpt>
      <trkpt lat="43.98077" lon="3.44408">
        <ele>627</ele>
        <time>2021-05-14T16:38:49+02:00</time>
      </trkpt>
      <trkpt lat="43.98062" lon="3.444">
        <ele>627</ele>
        <time>2021-05-14T16:38:55+02:00</time>
      </trkpt>
      <trkpt lat="43.98041" lon="3.44389">
        <ele>626</ele>
        <time>2021-05-14T16:39:04+02:00</time>
      </trkpt>
      <trkpt lat="43.98024" lon="3.44381">
        <ele>626</ele>
        <time>2021-05-14T16:39:11+02:00</time>
      </trkpt>
      <trkpt lat="43.98007" lon="3.44371">
        <ele>623</ele>
        <time>2021-05-14T16:39:18+02:00</time>
      </trkpt>
      <trkpt lat="43.9799" lon="3.44363">
        <ele>621</ele>
        <time>2021-05-14T16:39:25+02:00</time>
      </trkpt>
      <trkpt lat="43.97981" lon="3.44343">
        <ele>621</ele>
        <time>2021-05-14T16:39:34+02:00</time>
      </trkpt>
      <trkpt lat="43.97987" lon="3.44316">
        <ele>623</ele>
        <time>2021-05-14T16:39:45+02:00</time>
      </trkpt>
      <trkpt lat="43.97994" lon="3.44303">
        <ele>623</ele>
        <time>2021-05-14T16:39:54+02:00</time>
      </trkpt>
    </trkseg>
  </trk>
</gpx>